<?xml version="1.0" encoding="UTF-8" standalone="no" ?>
<gpx xmlns="http://www.topografix.com/GPX/1/1" xmlns:xsi="http://www.w3.org/2001/XMLSchema-instance" xsi:schemaLocation="http://www.topografix.com/GPX/1/1 http://www.topografix.com/GPX/1/1/gpx.xsd" version="1.1" creator="VisuGPX - https://www.visugpx.com">
  <metadata>
    <name>Pas de l'Âne, refuge de la Valette, cirque des Nants</name>
    <desc><![CDATA[Les Prioux, Pont de Gerlon, Pas de l'Âne, Roc du Tambour, col et refuge de la Valette, cirque des Nants.]]></desc>
  </metadata>
  <trk>
    <name><![CDATA[2019-09-13 16:04:48]]></name>
    <trkseg>
      <trkpt lat="45.34702" lon="6.70142">
        <ele>1716.57</ele>
        <time>2019-09-13T06:45:46Z</time>
      </trkpt>
      <trkpt lat="45.34704" lon="6.7014">
        <ele>1713.21</ele>
        <time>2019-09-13T06:46:06Z</time>
      </trkpt>
      <trkpt lat="45.34703" lon="6.7014">
        <ele>1718.01</ele>
        <time>2019-09-13T06:46:10Z</time>
      </trkpt>
      <trkpt lat="45.34702" lon="6.70139">
        <ele>1715.13</ele>
        <time>2019-09-13T06:46:25Z</time>
      </trkpt>
      <trkpt lat="45.347" lon="6.7014">
        <ele>1715.13</ele>
        <time>2019-09-13T06:46:42Z</time>
      </trkpt>
      <trkpt lat="45.34696" lon="6.70144">
        <ele>1715.13</ele>
        <time>2019-09-13T06:46:52Z</time>
      </trkpt>
      <trkpt lat="45.34688" lon="6.70153">
        <ele>1715.13</ele>
        <time>2019-09-13T06:47:07Z</time>
      </trkpt>
      <trkpt lat="45.34697" lon="6.70154">
        <ele>1715.13</ele>
        <time>2019-09-13T06:47:20Z</time>
      </trkpt>
      <trkpt lat="45.34703" lon="6.70153">
        <ele>1714.65</ele>
        <time>2019-09-13T06:47:34Z</time>
      </trkpt>
      <trkpt lat="45.34726" lon="6.70156">
        <ele>1714.65</ele>
        <time>2019-09-13T06:47:52Z</time>
      </trkpt>
      <trkpt lat="45.34742" lon="6.70164">
        <ele>1715.61</ele>
        <time>2019-09-13T06:48:08Z</time>
      </trkpt>
      <trkpt lat="45.34751" lon="6.7017">
        <ele>1717.05</ele>
        <time>2019-09-13T06:48:21Z</time>
      </trkpt>
      <trkpt lat="45.34761" lon="6.70187">
        <ele>1718.97</ele>
        <time>2019-09-13T06:48:36Z</time>
      </trkpt>
      <trkpt lat="45.34773" lon="6.70195">
        <ele>1719.46</ele>
        <time>2019-09-13T06:48:48Z</time>
      </trkpt>
      <trkpt lat="45.34788" lon="6.70215">
        <ele>1720.9</ele>
        <time>2019-09-13T06:49:05Z</time>
      </trkpt>
      <trkpt lat="45.34801" lon="6.7023">
        <ele>1721.38</ele>
        <time>2019-09-13T06:49:21Z</time>
      </trkpt>
      <trkpt lat="45.34814" lon="6.70247">
        <ele>1721.86</ele>
        <time>2019-09-13T06:49:37Z</time>
      </trkpt>
      <trkpt lat="45.34834" lon="6.70262">
        <ele>1721.86</ele>
        <time>2019-09-13T06:49:56Z</time>
      </trkpt>
      <trkpt lat="45.34843" lon="6.70265">
        <ele>1721.86</ele>
        <time>2019-09-13T06:50:04Z</time>
      </trkpt>
      <trkpt lat="45.34862" lon="6.70277">
        <ele>1721.86</ele>
        <time>2019-09-13T06:50:21Z</time>
      </trkpt>
      <trkpt lat="45.34878" lon="6.70284">
        <ele>1721.86</ele>
        <time>2019-09-13T06:50:37Z</time>
      </trkpt>
      <trkpt lat="45.34892" lon="6.70279">
        <ele>1721.86</ele>
        <time>2019-09-13T06:50:51Z</time>
      </trkpt>
      <trkpt lat="45.34914" lon="6.70294">
        <ele>1718.97</ele>
        <time>2019-09-13T06:51:10Z</time>
      </trkpt>
      <trkpt lat="45.3493" lon="6.70291">
        <ele>1718.01</ele>
        <time>2019-09-13T06:51:24Z</time>
      </trkpt>
      <trkpt lat="45.34945" lon="6.70292">
        <ele>1717.53</ele>
        <time>2019-09-13T06:51:39Z</time>
      </trkpt>
      <trkpt lat="45.3496" lon="6.70294">
        <ele>1715.13</ele>
        <time>2019-09-13T06:51:55Z</time>
      </trkpt>
      <trkpt lat="45.34966" lon="6.70294">
        <ele>1714.17</ele>
        <time>2019-09-13T06:52:00Z</time>
      </trkpt>
      <trkpt lat="45.34976" lon="6.70293">
        <ele>1713.21</ele>
        <time>2019-09-13T06:52:09Z</time>
      </trkpt>
      <trkpt lat="45.34996" lon="6.70285">
        <ele>1711.28</ele>
        <time>2019-09-13T06:52:26Z</time>
      </trkpt>
      <trkpt lat="45.34999" lon="6.70282">
        <ele>1710.32</ele>
        <time>2019-09-13T06:52:29Z</time>
      </trkpt>
      <trkpt lat="45.35016" lon="6.70269">
        <ele>1709.84</ele>
        <time>2019-09-13T06:52:45Z</time>
      </trkpt>
      <trkpt lat="45.35021" lon="6.70262">
        <ele>1709.36</ele>
        <time>2019-09-13T06:52:52Z</time>
      </trkpt>
      <trkpt lat="45.35024" lon="6.70255">
        <ele>1708.88</ele>
        <time>2019-09-13T06:52:59Z</time>
      </trkpt>
      <trkpt lat="45.35031" lon="6.70254">
        <ele>1708.4</ele>
        <time>2019-09-13T06:53:05Z</time>
      </trkpt>
      <trkpt lat="45.35048" lon="6.70246">
        <ele>1706.48</ele>
        <time>2019-09-13T06:53:21Z</time>
      </trkpt>
      <trkpt lat="45.35064" lon="6.70236">
        <ele>1705.52</ele>
        <time>2019-09-13T06:53:35Z</time>
      </trkpt>
      <trkpt lat="45.35072" lon="6.70232">
        <ele>1705.52</ele>
        <time>2019-09-13T06:53:42Z</time>
      </trkpt>
      <trkpt lat="45.35092" lon="6.7023">
        <ele>1705.04</ele>
        <time>2019-09-13T06:53:59Z</time>
      </trkpt>
      <trkpt lat="45.35108" lon="6.70229">
        <ele>1705.04</ele>
        <time>2019-09-13T06:54:14Z</time>
      </trkpt>
      <trkpt lat="45.35125" lon="6.7023">
        <ele>1706.48</ele>
        <time>2019-09-13T06:54:30Z</time>
      </trkpt>
      <trkpt lat="45.35138" lon="6.70231">
        <ele>1706.48</ele>
        <time>2019-09-13T06:54:40Z</time>
      </trkpt>
      <trkpt lat="45.35147" lon="6.70236">
        <ele>1706.48</ele>
        <time>2019-09-13T06:54:48Z</time>
      </trkpt>
      <trkpt lat="45.35166" lon="6.70232">
        <ele>1706.96</ele>
        <time>2019-09-13T06:55:05Z</time>
      </trkpt>
      <trkpt lat="45.35184" lon="6.70232">
        <ele>1707.44</ele>
        <time>2019-09-13T06:55:20Z</time>
      </trkpt>
      <trkpt lat="45.35206" lon="6.70237">
        <ele>1707.44</ele>
        <time>2019-09-13T06:55:39Z</time>
      </trkpt>
      <trkpt lat="45.35221" lon="6.70243">
        <ele>1706</ele>
        <time>2019-09-13T06:55:53Z</time>
      </trkpt>
      <trkpt lat="45.35229" lon="6.70249">
        <ele>1705.04</ele>
        <time>2019-09-13T06:56:02Z</time>
      </trkpt>
      <trkpt lat="45.35233" lon="6.70252">
        <ele>1704.55</ele>
        <time>2019-09-13T06:56:06Z</time>
      </trkpt>
      <trkpt lat="45.35243" lon="6.70254">
        <ele>1702.63</ele>
        <time>2019-09-13T06:56:14Z</time>
      </trkpt>
      <trkpt lat="45.3525" lon="6.70256">
        <ele>1701.67</ele>
        <time>2019-09-13T06:56:20Z</time>
      </trkpt>
      <trkpt lat="45.35259" lon="6.70258">
        <ele>1700.71</ele>
        <time>2019-09-13T06:56:27Z</time>
      </trkpt>
      <trkpt lat="45.35277" lon="6.70263">
        <ele>1698.79</ele>
        <time>2019-09-13T06:56:44Z</time>
      </trkpt>
      <trkpt lat="45.3529" lon="6.70264">
        <ele>1695.42</ele>
        <time>2019-09-13T06:56:57Z</time>
      </trkpt>
      <trkpt lat="45.35291" lon="6.70263">
        <ele>1695.42</ele>
        <time>2019-09-13T06:56:58Z</time>
      </trkpt>
      <trkpt lat="45.35311" lon="6.70258">
        <ele>1693.02</ele>
        <time>2019-09-13T06:57:15Z</time>
      </trkpt>
      <trkpt lat="45.3533" lon="6.70251">
        <ele>1692.06</ele>
        <time>2019-09-13T06:57:31Z</time>
      </trkpt>
      <trkpt lat="45.3535" lon="6.70257">
        <ele>1690.62</ele>
        <time>2019-09-13T06:57:49Z</time>
      </trkpt>
      <trkpt lat="45.35353" lon="6.70258">
        <ele>1690.14</ele>
        <time>2019-09-13T06:57:52Z</time>
      </trkpt>
      <trkpt lat="45.3537" lon="6.70258">
        <ele>1687.25</ele>
        <time>2019-09-13T06:58:09Z</time>
      </trkpt>
      <trkpt lat="45.35389" lon="6.70259">
        <ele>1685.33</ele>
        <time>2019-09-13T06:58:25Z</time>
      </trkpt>
      <trkpt lat="45.35403" lon="6.70263">
        <ele>1683.41</ele>
        <time>2019-09-13T06:58:38Z</time>
      </trkpt>
      <trkpt lat="45.35419" lon="6.70265">
        <ele>1681.48</ele>
        <time>2019-09-13T06:58:52Z</time>
      </trkpt>
      <trkpt lat="45.3544" lon="6.70274">
        <ele>1679.08</ele>
        <time>2019-09-13T06:59:09Z</time>
      </trkpt>
      <trkpt lat="45.35448" lon="6.70277">
        <ele>1677.64</ele>
        <time>2019-09-13T06:59:17Z</time>
      </trkpt>
      <trkpt lat="45.35471" lon="6.70288">
        <ele>1674.75</ele>
        <time>2019-09-13T06:59:38Z</time>
      </trkpt>
      <trkpt lat="45.35487" lon="6.70293">
        <ele>1672.83</ele>
        <time>2019-09-13T06:59:53Z</time>
      </trkpt>
      <trkpt lat="45.35499" lon="6.70296">
        <ele>1671.39</ele>
        <time>2019-09-13T07:00:07Z</time>
      </trkpt>
      <trkpt lat="45.35501" lon="6.70294">
        <ele>1671.39</ele>
        <time>2019-09-13T07:00:32Z</time>
      </trkpt>
      <trkpt lat="45.35518" lon="6.70299">
        <ele>1668.99</ele>
        <time>2019-09-13T07:00:48Z</time>
      </trkpt>
      <trkpt lat="45.35535" lon="6.70304">
        <ele>1667.54</ele>
        <time>2019-09-13T07:01:03Z</time>
      </trkpt>
      <trkpt lat="45.35539" lon="6.70303">
        <ele>1667.54</ele>
        <time>2019-09-13T07:01:07Z</time>
      </trkpt>
      <trkpt lat="45.35549" lon="6.7031">
        <ele>1667.06</ele>
        <time>2019-09-13T07:01:17Z</time>
      </trkpt>
      <trkpt lat="45.35563" lon="6.70313">
        <ele>1664.18</ele>
        <time>2019-09-13T07:01:33Z</time>
      </trkpt>
      <trkpt lat="45.35577" lon="6.70306">
        <ele>1662.74</ele>
        <time>2019-09-13T07:01:45Z</time>
      </trkpt>
      <trkpt lat="45.35587" lon="6.70302">
        <ele>1661.3</ele>
        <time>2019-09-13T07:01:53Z</time>
      </trkpt>
      <trkpt lat="45.35608" lon="6.70303">
        <ele>1658.89</ele>
        <time>2019-09-13T07:02:11Z</time>
      </trkpt>
      <trkpt lat="45.35622" lon="6.70303">
        <ele>1658.41</ele>
        <time>2019-09-13T07:02:26Z</time>
      </trkpt>
      <trkpt lat="45.35632" lon="6.70304">
        <ele>1657.93</ele>
        <time>2019-09-13T07:02:39Z</time>
      </trkpt>
      <trkpt lat="45.35634" lon="6.70308">
        <ele>1657.93</ele>
        <time>2019-09-13T07:02:42Z</time>
      </trkpt>
      <trkpt lat="45.3565" lon="6.70322">
        <ele>1657.45</ele>
        <time>2019-09-13T07:02:58Z</time>
      </trkpt>
      <trkpt lat="45.35663" lon="6.70332">
        <ele>1658.89</ele>
        <time>2019-09-13T07:03:12Z</time>
      </trkpt>
      <trkpt lat="45.35673" lon="6.70338">
        <ele>1658.89</ele>
        <time>2019-09-13T07:03:20Z</time>
      </trkpt>
      <trkpt lat="45.35693" lon="6.70339">
        <ele>1658.89</ele>
        <time>2019-09-13T07:03:34Z</time>
      </trkpt>
      <trkpt lat="45.35712" lon="6.70356">
        <ele>1656.97</ele>
        <time>2019-09-13T07:03:53Z</time>
      </trkpt>
      <trkpt lat="45.35725" lon="6.70375">
        <ele>1654.09</ele>
        <time>2019-09-13T07:04:10Z</time>
      </trkpt>
      <trkpt lat="45.35736" lon="6.70386">
        <ele>1652.64</ele>
        <time>2019-09-13T07:04:23Z</time>
      </trkpt>
      <trkpt lat="45.35747" lon="6.70401">
        <ele>1652.16</ele>
        <time>2019-09-13T07:04:36Z</time>
      </trkpt>
      <trkpt lat="45.35766" lon="6.70416">
        <ele>1648.8</ele>
        <time>2019-09-13T07:04:54Z</time>
      </trkpt>
      <trkpt lat="45.35785" lon="6.70427">
        <ele>1646.4</ele>
        <time>2019-09-13T07:05:11Z</time>
      </trkpt>
      <trkpt lat="45.35805" lon="6.70444">
        <ele>1645.43</ele>
        <time>2019-09-13T07:05:30Z</time>
      </trkpt>
      <trkpt lat="45.35823" lon="6.70451">
        <ele>1641.59</ele>
        <time>2019-09-13T07:05:48Z</time>
      </trkpt>
      <trkpt lat="45.3584" lon="6.70457">
        <ele>1639.19</ele>
        <time>2019-09-13T07:06:05Z</time>
      </trkpt>
      <trkpt lat="45.35853" lon="6.70468">
        <ele>1636.3</ele>
        <time>2019-09-13T07:06:23Z</time>
      </trkpt>
      <trkpt lat="45.35873" lon="6.70474">
        <ele>1632.94</ele>
        <time>2019-09-13T07:06:41Z</time>
      </trkpt>
      <trkpt lat="45.35895" lon="6.70479">
        <ele>1630.05</ele>
        <time>2019-09-13T07:07:00Z</time>
      </trkpt>
      <trkpt lat="45.35901" lon="6.70483">
        <ele>1629.57</ele>
        <time>2019-09-13T07:07:13Z</time>
      </trkpt>
      <trkpt lat="45.35914" lon="6.70494">
        <ele>1626.69</ele>
        <time>2019-09-13T07:07:28Z</time>
      </trkpt>
      <trkpt lat="45.35929" lon="6.70498">
        <ele>1623.8</ele>
        <time>2019-09-13T07:07:43Z</time>
      </trkpt>
      <trkpt lat="45.35939" lon="6.70501">
        <ele>1622.84</ele>
        <time>2019-09-13T07:07:51Z</time>
      </trkpt>
      <trkpt lat="45.35958" lon="6.70499">
        <ele>1619.96</ele>
        <time>2019-09-13T07:08:07Z</time>
      </trkpt>
      <trkpt lat="45.35966" lon="6.70488">
        <ele>1617.56</ele>
        <time>2019-09-13T07:08:21Z</time>
      </trkpt>
      <trkpt lat="45.35981" lon="6.70479">
        <ele>1615.15</ele>
        <time>2019-09-13T07:08:35Z</time>
      </trkpt>
      <trkpt lat="45.35991" lon="6.70476">
        <ele>1614.19</ele>
        <time>2019-09-13T07:08:53Z</time>
      </trkpt>
      <trkpt lat="45.35992" lon="6.70477">
        <ele>1614.19</ele>
        <time>2019-09-13T07:08:56Z</time>
      </trkpt>
      <trkpt lat="45.36008" lon="6.70482">
        <ele>1611.79</ele>
        <time>2019-09-13T07:09:10Z</time>
      </trkpt>
      <trkpt lat="45.36024" lon="6.70491">
        <ele>1609.86</ele>
        <time>2019-09-13T07:09:24Z</time>
      </trkpt>
      <trkpt lat="45.36029" lon="6.70493">
        <ele>1609.38</ele>
        <time>2019-09-13T07:09:28Z</time>
      </trkpt>
      <trkpt lat="45.36053" lon="6.70497">
        <ele>1606.02</ele>
        <time>2019-09-13T07:09:46Z</time>
      </trkpt>
      <trkpt lat="45.36067" lon="6.70506">
        <ele>1603.62</ele>
        <time>2019-09-13T07:09:58Z</time>
      </trkpt>
      <trkpt lat="45.3608" lon="6.70524">
        <ele>1601.21</ele>
        <time>2019-09-13T07:10:12Z</time>
      </trkpt>
      <trkpt lat="45.36084" lon="6.70528">
        <ele>1600.25</ele>
        <time>2019-09-13T07:10:16Z</time>
      </trkpt>
      <trkpt lat="45.36088" lon="6.70531">
        <ele>1600.25</ele>
        <time>2019-09-13T07:10:20Z</time>
      </trkpt>
      <trkpt lat="45.36093" lon="6.70538">
        <ele>1598.81</ele>
        <time>2019-09-13T07:10:26Z</time>
      </trkpt>
      <trkpt lat="45.36114" lon="6.70561">
        <ele>1597.85</ele>
        <time>2019-09-13T07:10:47Z</time>
      </trkpt>
      <trkpt lat="45.36126" lon="6.70575">
        <ele>1596.41</ele>
        <time>2019-09-13T07:11:02Z</time>
      </trkpt>
      <trkpt lat="45.36133" lon="6.70588">
        <ele>1595.93</ele>
        <time>2019-09-13T07:11:12Z</time>
      </trkpt>
      <trkpt lat="45.36144" lon="6.70609">
        <ele>1595.93</ele>
        <time>2019-09-13T07:11:28Z</time>
      </trkpt>
      <trkpt lat="45.36142" lon="6.70613">
        <ele>1595.93</ele>
        <time>2019-09-13T07:11:31Z</time>
      </trkpt>
      <trkpt lat="45.36128" lon="6.70619">
        <ele>1595.93</ele>
        <time>2019-09-13T07:11:43Z</time>
      </trkpt>
      <trkpt lat="45.36118" lon="6.70621">
        <ele>1595.93</ele>
        <time>2019-09-13T07:11:51Z</time>
      </trkpt>
      <trkpt lat="45.36104" lon="6.70632">
        <ele>1595.93</ele>
        <time>2019-09-13T07:12:08Z</time>
      </trkpt>
      <trkpt lat="45.36106" lon="6.70635">
        <ele>1594.96</ele>
        <time>2019-09-13T07:12:10Z</time>
      </trkpt>
      <trkpt lat="45.36113" lon="6.70652">
        <ele>1594.96</ele>
        <time>2019-09-13T07:12:21Z</time>
      </trkpt>
      <trkpt lat="45.36125" lon="6.70669">
        <ele>1594.96</ele>
        <time>2019-09-13T07:12:35Z</time>
      </trkpt>
      <trkpt lat="45.36129" lon="6.70671">
        <ele>1596.41</ele>
        <time>2019-09-13T07:12:39Z</time>
      </trkpt>
      <trkpt lat="45.36144" lon="6.70677">
        <ele>1596.41</ele>
        <time>2019-09-13T07:12:53Z</time>
      </trkpt>
      <trkpt lat="45.36161" lon="6.70686">
        <ele>1596.41</ele>
        <time>2019-09-13T07:13:09Z</time>
      </trkpt>
      <trkpt lat="45.36173" lon="6.70695">
        <ele>1594</ele>
        <time>2019-09-13T07:13:23Z</time>
      </trkpt>
      <trkpt lat="45.3618" lon="6.70715">
        <ele>1592.08</ele>
        <time>2019-09-13T07:13:38Z</time>
      </trkpt>
      <trkpt lat="45.36183" lon="6.70737">
        <ele>1590.64</ele>
        <time>2019-09-13T07:13:52Z</time>
      </trkpt>
      <trkpt lat="45.36185" lon="6.70758">
        <ele>1588.72</ele>
        <time>2019-09-13T07:14:05Z</time>
      </trkpt>
      <trkpt lat="45.36194" lon="6.70755">
        <ele>1587.27</ele>
        <time>2019-09-13T07:14:17Z</time>
      </trkpt>
      <trkpt lat="45.36201" lon="6.70745">
        <ele>1585.83</ele>
        <time>2019-09-13T07:14:25Z</time>
      </trkpt>
      <trkpt lat="45.36209" lon="6.70726">
        <ele>1582.95</ele>
        <time>2019-09-13T07:14:41Z</time>
      </trkpt>
      <trkpt lat="45.36225" lon="6.70724">
        <ele>1581.51</ele>
        <time>2019-09-13T07:14:54Z</time>
      </trkpt>
      <trkpt lat="45.36227" lon="6.70727">
        <ele>1580.54</ele>
        <time>2019-09-13T07:14:59Z</time>
      </trkpt>
      <trkpt lat="45.36233" lon="6.70753">
        <ele>1579.1</ele>
        <time>2019-09-13T07:15:14Z</time>
      </trkpt>
      <trkpt lat="45.36243" lon="6.70775">
        <ele>1578.62</ele>
        <time>2019-09-13T07:15:28Z</time>
      </trkpt>
      <trkpt lat="45.36254" lon="6.70798">
        <ele>1577.18</ele>
        <time>2019-09-13T07:15:44Z</time>
      </trkpt>
      <trkpt lat="45.36271" lon="6.70814">
        <ele>1575.26</ele>
        <time>2019-09-13T07:16:01Z</time>
      </trkpt>
      <trkpt lat="45.36275" lon="6.70817">
        <ele>1574.78</ele>
        <time>2019-09-13T07:16:04Z</time>
      </trkpt>
      <trkpt lat="45.36293" lon="6.70835">
        <ele>1573.82</ele>
        <time>2019-09-13T07:16:21Z</time>
      </trkpt>
      <trkpt lat="45.363" lon="6.70847">
        <ele>1573.33</ele>
        <time>2019-09-13T07:16:31Z</time>
      </trkpt>
      <trkpt lat="45.36304" lon="6.70853">
        <ele>1573.33</ele>
        <time>2019-09-13T07:16:36Z</time>
      </trkpt>
      <trkpt lat="45.36306" lon="6.70858">
        <ele>1574.78</ele>
        <time>2019-09-13T07:16:39Z</time>
      </trkpt>
      <trkpt lat="45.36315" lon="6.70875">
        <ele>1575.74</ele>
        <time>2019-09-13T07:16:53Z</time>
      </trkpt>
      <trkpt lat="45.3632" lon="6.70886">
        <ele>1577.66</ele>
        <time>2019-09-13T07:17:07Z</time>
      </trkpt>
      <trkpt lat="45.36326" lon="6.70895">
        <ele>1579.58</ele>
        <time>2019-09-13T07:17:19Z</time>
      </trkpt>
      <trkpt lat="45.36332" lon="6.70906">
        <ele>1582.47</ele>
        <time>2019-09-13T07:17:35Z</time>
      </trkpt>
      <trkpt lat="45.36336" lon="6.70914">
        <ele>1583.91</ele>
        <time>2019-09-13T07:17:47Z</time>
      </trkpt>
      <trkpt lat="45.36343" lon="6.70923">
        <ele>1585.83</ele>
        <time>2019-09-13T07:18:01Z</time>
      </trkpt>
      <trkpt lat="45.36351" lon="6.70929">
        <ele>1587.75</ele>
        <time>2019-09-13T07:18:14Z</time>
      </trkpt>
      <trkpt lat="45.36359" lon="6.70935">
        <ele>1589.68</ele>
        <time>2019-09-13T07:18:28Z</time>
      </trkpt>
      <trkpt lat="45.36371" lon="6.70938">
        <ele>1590.64</ele>
        <time>2019-09-13T07:18:42Z</time>
      </trkpt>
      <trkpt lat="45.36387" lon="6.70942">
        <ele>1591.6</ele>
        <time>2019-09-13T07:18:57Z</time>
      </trkpt>
      <trkpt lat="45.36404" lon="6.70944">
        <ele>1591.12</ele>
        <time>2019-09-13T07:19:14Z</time>
      </trkpt>
      <trkpt lat="45.36416" lon="6.70948">
        <ele>1590.16</ele>
        <time>2019-09-13T07:19:24Z</time>
      </trkpt>
      <trkpt lat="45.36431" lon="6.70958">
        <ele>1589.2</ele>
        <time>2019-09-13T07:19:39Z</time>
      </trkpt>
      <trkpt lat="45.36447" lon="6.70965">
        <ele>1587.75</ele>
        <time>2019-09-13T07:19:54Z</time>
      </trkpt>
      <trkpt lat="45.36462" lon="6.70968">
        <ele>1585.83</ele>
        <time>2019-09-13T07:20:09Z</time>
      </trkpt>
      <trkpt lat="45.3648" lon="6.70967">
        <ele>1584.39</ele>
        <time>2019-09-13T07:20:24Z</time>
      </trkpt>
      <trkpt lat="45.36497" lon="6.70965">
        <ele>1581.51</ele>
        <time>2019-09-13T07:20:42Z</time>
      </trkpt>
      <trkpt lat="45.36513" lon="6.70965">
        <ele>1578.62</ele>
        <time>2019-09-13T07:20:58Z</time>
      </trkpt>
      <trkpt lat="45.36532" lon="6.70966">
        <ele>1575.74</ele>
        <time>2019-09-13T07:21:16Z</time>
      </trkpt>
      <trkpt lat="45.36548" lon="6.70967">
        <ele>1573.82</ele>
        <time>2019-09-13T07:21:31Z</time>
      </trkpt>
      <trkpt lat="45.36562" lon="6.70975">
        <ele>1570.93</ele>
        <time>2019-09-13T07:21:48Z</time>
      </trkpt>
      <trkpt lat="45.36577" lon="6.70982">
        <ele>1568.53</ele>
        <time>2019-09-13T07:22:03Z</time>
      </trkpt>
      <trkpt lat="45.36582" lon="6.70985">
        <ele>1567.57</ele>
        <time>2019-09-13T07:22:08Z</time>
      </trkpt>
      <trkpt lat="45.36602" lon="6.71001">
        <ele>1565.16</ele>
        <time>2019-09-13T07:22:26Z</time>
      </trkpt>
      <trkpt lat="45.36616" lon="6.71011">
        <ele>1562.28</ele>
        <time>2019-09-13T07:22:41Z</time>
      </trkpt>
      <trkpt lat="45.36617" lon="6.71012">
        <ele>1562.28</ele>
        <time>2019-09-13T07:22:43Z</time>
      </trkpt>
      <trkpt lat="45.36632" lon="6.71036">
        <ele>1560.36</ele>
        <time>2019-09-13T07:22:59Z</time>
      </trkpt>
      <trkpt lat="45.36639" lon="6.71046">
        <ele>1560.36</ele>
        <time>2019-09-13T07:23:07Z</time>
      </trkpt>
      <trkpt lat="45.36655" lon="6.7106">
        <ele>1560.36</ele>
        <time>2019-09-13T07:23:22Z</time>
      </trkpt>
      <trkpt lat="45.36671" lon="6.71075">
        <ele>1561.8</ele>
        <time>2019-09-13T07:23:37Z</time>
      </trkpt>
      <trkpt lat="45.36688" lon="6.7109">
        <ele>1561.8</ele>
        <time>2019-09-13T07:23:53Z</time>
      </trkpt>
      <trkpt lat="45.36699" lon="6.71105">
        <ele>1562.28</ele>
        <time>2019-09-13T07:24:06Z</time>
      </trkpt>
      <trkpt lat="45.36716" lon="6.71124">
        <ele>1561.32</ele>
        <time>2019-09-13T07:24:23Z</time>
      </trkpt>
      <trkpt lat="45.36725" lon="6.71139">
        <ele>1560.36</ele>
        <time>2019-09-13T07:24:36Z</time>
      </trkpt>
      <trkpt lat="45.36727" lon="6.71143">
        <ele>1559.4</ele>
        <time>2019-09-13T07:24:40Z</time>
      </trkpt>
      <trkpt lat="45.36729" lon="6.71149">
        <ele>1558.92</ele>
        <time>2019-09-13T07:24:43Z</time>
      </trkpt>
      <trkpt lat="45.3674" lon="6.71168">
        <ele>1556.99</ele>
        <time>2019-09-13T07:24:59Z</time>
      </trkpt>
      <trkpt lat="45.36741" lon="6.7117">
        <ele>1555.55</ele>
        <time>2019-09-13T07:25:13Z</time>
      </trkpt>
      <trkpt lat="45.36738" lon="6.71172">
        <ele>1555.55</ele>
        <time>2019-09-13T07:25:38Z</time>
      </trkpt>
      <trkpt lat="45.3674" lon="6.71173">
        <ele>1555.55</ele>
        <time>2019-09-13T07:26:10Z</time>
      </trkpt>
      <trkpt lat="45.3674" lon="6.71171">
        <ele>1556.99</ele>
        <time>2019-09-13T07:26:44Z</time>
      </trkpt>
      <trkpt lat="45.3674" lon="6.71178">
        <ele>1555.55</ele>
        <time>2019-09-13T07:27:02Z</time>
      </trkpt>
      <trkpt lat="45.36745" lon="6.71185">
        <ele>1554.59</ele>
        <time>2019-09-13T07:27:16Z</time>
      </trkpt>
      <trkpt lat="45.36745" lon="6.71179">
        <ele>1554.59</ele>
        <time>2019-09-13T07:27:28Z</time>
      </trkpt>
      <trkpt lat="45.36748" lon="6.71186">
        <ele>1554.59</ele>
        <time>2019-09-13T07:27:40Z</time>
      </trkpt>
      <trkpt lat="45.36753" lon="6.71195">
        <ele>1555.55</ele>
        <time>2019-09-13T07:27:54Z</time>
      </trkpt>
      <trkpt lat="45.36755" lon="6.71206">
        <ele>1557.95</ele>
        <time>2019-09-13T07:28:10Z</time>
      </trkpt>
      <trkpt lat="45.36755" lon="6.71218">
        <ele>1559.88</ele>
        <time>2019-09-13T07:28:27Z</time>
      </trkpt>
      <trkpt lat="45.36754" lon="6.71229">
        <ele>1561.32</ele>
        <time>2019-09-13T07:28:42Z</time>
      </trkpt>
      <trkpt lat="45.36754" lon="6.71249">
        <ele>1562.76</ele>
        <time>2019-09-13T07:28:59Z</time>
      </trkpt>
      <trkpt lat="45.36752" lon="6.71263">
        <ele>1564.2</ele>
        <time>2019-09-13T07:29:17Z</time>
      </trkpt>
      <trkpt lat="45.36746" lon="6.71275">
        <ele>1565.64</ele>
        <time>2019-09-13T07:29:31Z</time>
      </trkpt>
      <trkpt lat="45.36745" lon="6.71287">
        <ele>1567.09</ele>
        <time>2019-09-13T07:29:51Z</time>
      </trkpt>
      <trkpt lat="45.36749" lon="6.71303">
        <ele>1568.53</ele>
        <time>2019-09-13T07:30:06Z</time>
      </trkpt>
      <trkpt lat="45.3675" lon="6.71315">
        <ele>1569.97</ele>
        <time>2019-09-13T07:30:22Z</time>
      </trkpt>
      <trkpt lat="45.3675" lon="6.71326">
        <ele>1571.89</ele>
        <time>2019-09-13T07:30:38Z</time>
      </trkpt>
      <trkpt lat="45.3675" lon="6.71336">
        <ele>1572.37</ele>
        <time>2019-09-13T07:30:51Z</time>
      </trkpt>
      <trkpt lat="45.3675" lon="6.71346">
        <ele>1573.82</ele>
        <time>2019-09-13T07:31:06Z</time>
      </trkpt>
      <trkpt lat="45.36749" lon="6.71361">
        <ele>1575.74</ele>
        <time>2019-09-13T07:31:22Z</time>
      </trkpt>
      <trkpt lat="45.36751" lon="6.71372">
        <ele>1577.66</ele>
        <time>2019-09-13T07:31:37Z</time>
      </trkpt>
      <trkpt lat="45.36752" lon="6.71385">
        <ele>1578.14</ele>
        <time>2019-09-13T07:31:52Z</time>
      </trkpt>
      <trkpt lat="45.36754" lon="6.71399">
        <ele>1579.1</ele>
        <time>2019-09-13T07:32:06Z</time>
      </trkpt>
      <trkpt lat="45.36755" lon="6.71414">
        <ele>1581.51</ele>
        <time>2019-09-13T07:32:25Z</time>
      </trkpt>
      <trkpt lat="45.36755" lon="6.71421">
        <ele>1582.95</ele>
        <time>2019-09-13T07:32:40Z</time>
      </trkpt>
      <trkpt lat="45.36746" lon="6.7141">
        <ele>1584.39</ele>
        <time>2019-09-13T07:32:56Z</time>
      </trkpt>
      <trkpt lat="45.36739" lon="6.71404">
        <ele>1586.31</ele>
        <time>2019-09-13T07:33:13Z</time>
      </trkpt>
      <trkpt lat="45.36731" lon="6.71402">
        <ele>1588.24</ele>
        <time>2019-09-13T07:33:31Z</time>
      </trkpt>
      <trkpt lat="45.36725" lon="6.714">
        <ele>1590.64</ele>
        <time>2019-09-13T07:33:47Z</time>
      </trkpt>
      <trkpt lat="45.36717" lon="6.71395">
        <ele>1593.04</ele>
        <time>2019-09-13T07:34:04Z</time>
      </trkpt>
      <trkpt lat="45.36713" lon="6.7139">
        <ele>1594.48</ele>
        <time>2019-09-13T07:34:20Z</time>
      </trkpt>
      <trkpt lat="45.36712" lon="6.71402">
        <ele>1596.41</ele>
        <time>2019-09-13T07:34:34Z</time>
      </trkpt>
      <trkpt lat="45.36713" lon="6.71412">
        <ele>1597.85</ele>
        <time>2019-09-13T07:34:48Z</time>
      </trkpt>
      <trkpt lat="45.36715" lon="6.71421">
        <ele>1599.77</ele>
        <time>2019-09-13T07:35:02Z</time>
      </trkpt>
      <trkpt lat="45.36717" lon="6.71428">
        <ele>1601.69</ele>
        <time>2019-09-13T07:35:17Z</time>
      </trkpt>
      <trkpt lat="45.36717" lon="6.71437">
        <ele>1604.1</ele>
        <time>2019-09-13T07:35:33Z</time>
      </trkpt>
      <trkpt lat="45.36718" lon="6.71449">
        <ele>1606.02</ele>
        <time>2019-09-13T07:35:48Z</time>
      </trkpt>
      <trkpt lat="45.36714" lon="6.71453">
        <ele>1607.94</ele>
        <time>2019-09-13T07:36:04Z</time>
      </trkpt>
      <trkpt lat="45.36709" lon="6.71448">
        <ele>1609.86</ele>
        <time>2019-09-13T07:36:19Z</time>
      </trkpt>
      <trkpt lat="45.36703" lon="6.71442">
        <ele>1611.79</ele>
        <time>2019-09-13T07:36:35Z</time>
      </trkpt>
      <trkpt lat="45.36696" lon="6.71438">
        <ele>1614.19</ele>
        <time>2019-09-13T07:36:50Z</time>
      </trkpt>
      <trkpt lat="45.3669" lon="6.71432">
        <ele>1616.11</ele>
        <time>2019-09-13T07:37:05Z</time>
      </trkpt>
      <trkpt lat="45.36685" lon="6.7143">
        <ele>1617.07</ele>
        <time>2019-09-13T07:37:18Z</time>
      </trkpt>
      <trkpt lat="45.36688" lon="6.71443">
        <ele>1619.48</ele>
        <time>2019-09-13T07:37:32Z</time>
      </trkpt>
      <trkpt lat="45.36687" lon="6.71453">
        <ele>1620.92</ele>
        <time>2019-09-13T07:37:47Z</time>
      </trkpt>
      <trkpt lat="45.36688" lon="6.71463">
        <ele>1622.84</ele>
        <time>2019-09-13T07:38:00Z</time>
      </trkpt>
      <trkpt lat="45.3669" lon="6.71471">
        <ele>1624.77</ele>
        <time>2019-09-13T07:38:15Z</time>
      </trkpt>
      <trkpt lat="45.3669" lon="6.7148">
        <ele>1626.69</ele>
        <time>2019-09-13T07:38:29Z</time>
      </trkpt>
      <trkpt lat="45.36693" lon="6.71491">
        <ele>1628.13</ele>
        <time>2019-09-13T07:38:43Z</time>
      </trkpt>
      <trkpt lat="45.36694" lon="6.71501">
        <ele>1630.53</ele>
        <time>2019-09-13T07:38:59Z</time>
      </trkpt>
      <trkpt lat="45.36696" lon="6.71509">
        <ele>1631.49</ele>
        <time>2019-09-13T07:39:11Z</time>
      </trkpt>
      <trkpt lat="45.36705" lon="6.71523">
        <ele>1631.49</ele>
        <time>2019-09-13T07:39:26Z</time>
      </trkpt>
      <trkpt lat="45.36715" lon="6.71536">
        <ele>1631.98</ele>
        <time>2019-09-13T07:39:41Z</time>
      </trkpt>
      <trkpt lat="45.36725" lon="6.71549">
        <ele>1632.46</ele>
        <time>2019-09-13T07:39:56Z</time>
      </trkpt>
      <trkpt lat="45.36738" lon="6.7156">
        <ele>1632.46</ele>
        <time>2019-09-13T07:40:10Z</time>
      </trkpt>
      <trkpt lat="45.36743" lon="6.71566">
        <ele>1632.94</ele>
        <time>2019-09-13T07:40:16Z</time>
      </trkpt>
      <trkpt lat="45.36756" lon="6.71584">
        <ele>1632.94</ele>
        <time>2019-09-13T07:40:32Z</time>
      </trkpt>
      <trkpt lat="45.36772" lon="6.71599">
        <ele>1633.42</ele>
        <time>2019-09-13T07:40:47Z</time>
      </trkpt>
      <trkpt lat="45.36785" lon="6.71612">
        <ele>1633.42</ele>
        <time>2019-09-13T07:40:59Z</time>
      </trkpt>
      <trkpt lat="45.36798" lon="6.71623">
        <ele>1633.42</ele>
        <time>2019-09-13T07:41:12Z</time>
      </trkpt>
      <trkpt lat="45.3681" lon="6.71628">
        <ele>1633.42</ele>
        <time>2019-09-13T07:41:24Z</time>
      </trkpt>
      <trkpt lat="45.3682" lon="6.71637">
        <ele>1633.42</ele>
        <time>2019-09-13T07:41:38Z</time>
      </trkpt>
      <trkpt lat="45.3683" lon="6.71647">
        <ele>1633.42</ele>
        <time>2019-09-13T07:41:51Z</time>
      </trkpt>
      <trkpt lat="45.36833" lon="6.71662">
        <ele>1635.82</ele>
        <time>2019-09-13T07:42:10Z</time>
      </trkpt>
      <trkpt lat="45.36841" lon="6.71671">
        <ele>1638.22</ele>
        <time>2019-09-13T07:42:27Z</time>
      </trkpt>
      <trkpt lat="45.36849" lon="6.71677">
        <ele>1640.63</ele>
        <time>2019-09-13T07:42:41Z</time>
      </trkpt>
      <trkpt lat="45.36843" lon="6.71681">
        <ele>1641.59</ele>
        <time>2019-09-13T07:42:56Z</time>
      </trkpt>
      <trkpt lat="45.36829" lon="6.7168">
        <ele>1643.99</ele>
        <time>2019-09-13T07:43:13Z</time>
      </trkpt>
      <trkpt lat="45.36827" lon="6.71686">
        <ele>1645.43</ele>
        <time>2019-09-13T07:43:28Z</time>
      </trkpt>
      <trkpt lat="45.36827" lon="6.71689">
        <ele>1647.84</ele>
        <time>2019-09-13T07:43:42Z</time>
      </trkpt>
      <trkpt lat="45.36826" lon="6.717">
        <ele>1649.76</ele>
        <time>2019-09-13T07:44:00Z</time>
      </trkpt>
      <trkpt lat="45.36828" lon="6.71706">
        <ele>1651.68</ele>
        <time>2019-09-13T07:44:15Z</time>
      </trkpt>
      <trkpt lat="45.36831" lon="6.71716">
        <ele>1654.09</ele>
        <time>2019-09-13T07:44:30Z</time>
      </trkpt>
      <trkpt lat="45.3684" lon="6.71727">
        <ele>1655.05</ele>
        <time>2019-09-13T07:44:47Z</time>
      </trkpt>
      <trkpt lat="45.36847" lon="6.71728">
        <ele>1654.09</ele>
        <time>2019-09-13T07:44:58Z</time>
      </trkpt>
      <trkpt lat="45.36856" lon="6.71736">
        <ele>1653.12</ele>
        <time>2019-09-13T07:45:14Z</time>
      </trkpt>
      <trkpt lat="45.36856" lon="6.71736">
        <ele>1654.57</ele>
        <time>2019-09-13T07:45:16Z</time>
      </trkpt>
      <trkpt lat="45.3686" lon="6.71752">
        <ele>1656.01</ele>
        <time>2019-09-13T07:45:33Z</time>
      </trkpt>
      <trkpt lat="45.36866" lon="6.7176">
        <ele>1656.49</ele>
        <time>2019-09-13T07:45:48Z</time>
      </trkpt>
      <trkpt lat="45.36871" lon="6.71765">
        <ele>1656.49</ele>
        <time>2019-09-13T07:46:03Z</time>
      </trkpt>
      <trkpt lat="45.36879" lon="6.71771">
        <ele>1656.49</ele>
        <time>2019-09-13T07:46:17Z</time>
      </trkpt>
      <trkpt lat="45.36882" lon="6.71782">
        <ele>1656.49</ele>
        <time>2019-09-13T07:46:33Z</time>
      </trkpt>
      <trkpt lat="45.36887" lon="6.71791">
        <ele>1656.97</ele>
        <time>2019-09-13T07:46:46Z</time>
      </trkpt>
      <trkpt lat="45.36894" lon="6.71802">
        <ele>1656.97</ele>
        <time>2019-09-13T07:46:59Z</time>
      </trkpt>
      <trkpt lat="45.36895" lon="6.7181">
        <ele>1658.89</ele>
        <time>2019-09-13T07:47:12Z</time>
      </trkpt>
      <trkpt lat="45.36898" lon="6.71822">
        <ele>1660.33</ele>
        <time>2019-09-13T07:47:27Z</time>
      </trkpt>
      <trkpt lat="45.36901" lon="6.71832">
        <ele>1660.81</ele>
        <time>2019-09-13T07:47:41Z</time>
      </trkpt>
      <trkpt lat="45.36903" lon="6.71843">
        <ele>1661.3</ele>
        <time>2019-09-13T07:47:56Z</time>
      </trkpt>
      <trkpt lat="45.36905" lon="6.71856">
        <ele>1661.3</ele>
        <time>2019-09-13T07:48:10Z</time>
      </trkpt>
      <trkpt lat="45.36908" lon="6.71868">
        <ele>1659.85</ele>
        <time>2019-09-13T07:48:23Z</time>
      </trkpt>
      <trkpt lat="45.36908" lon="6.71869">
        <ele>1659.85</ele>
        <time>2019-09-13T07:48:24Z</time>
      </trkpt>
      <trkpt lat="45.36907" lon="6.71882">
        <ele>1658.89</ele>
        <time>2019-09-13T07:48:40Z</time>
      </trkpt>
      <trkpt lat="45.36909" lon="6.71896">
        <ele>1657.93</ele>
        <time>2019-09-13T07:48:54Z</time>
      </trkpt>
      <trkpt lat="45.3691" lon="6.71907">
        <ele>1657.45</ele>
        <time>2019-09-13T07:49:05Z</time>
      </trkpt>
      <trkpt lat="45.36909" lon="6.71913">
        <ele>1658.89</ele>
        <time>2019-09-13T07:49:26Z</time>
      </trkpt>
      <trkpt lat="45.36909" lon="6.71914">
        <ele>1658.89</ele>
        <time>2019-09-13T07:49:51Z</time>
      </trkpt>
      <trkpt lat="45.36911" lon="6.71922">
        <ele>1658.89</ele>
        <time>2019-09-13T07:50:05Z</time>
      </trkpt>
      <trkpt lat="45.36911" lon="6.71929">
        <ele>1659.37</ele>
        <time>2019-09-13T07:50:26Z</time>
      </trkpt>
      <trkpt lat="45.36908" lon="6.71933">
        <ele>1659.85</ele>
        <time>2019-09-13T07:50:41Z</time>
      </trkpt>
      <trkpt lat="45.3691" lon="6.71935">
        <ele>1658.41</ele>
        <time>2019-09-13T07:50:46Z</time>
      </trkpt>
      <trkpt lat="45.36916" lon="6.71944">
        <ele>1657.93</ele>
        <time>2019-09-13T07:51:01Z</time>
      </trkpt>
      <trkpt lat="45.36919" lon="6.71954">
        <ele>1657.93</ele>
        <time>2019-09-13T07:51:16Z</time>
      </trkpt>
      <trkpt lat="45.36923" lon="6.71961">
        <ele>1657.45</ele>
        <time>2019-09-13T07:51:31Z</time>
      </trkpt>
      <trkpt lat="45.36926" lon="6.71969">
        <ele>1657.45</ele>
        <time>2019-09-13T07:51:45Z</time>
      </trkpt>
      <trkpt lat="45.3693" lon="6.7198">
        <ele>1658.41</ele>
        <time>2019-09-13T07:52:00Z</time>
      </trkpt>
      <trkpt lat="45.36931" lon="6.71989">
        <ele>1659.37</ele>
        <time>2019-09-13T07:52:14Z</time>
      </trkpt>
      <trkpt lat="45.36934" lon="6.71996">
        <ele>1660.33</ele>
        <time>2019-09-13T07:52:25Z</time>
      </trkpt>
      <trkpt lat="45.36936" lon="6.72005">
        <ele>1660.33</ele>
        <time>2019-09-13T07:52:40Z</time>
      </trkpt>
      <trkpt lat="45.36937" lon="6.72014">
        <ele>1660.33</ele>
        <time>2019-09-13T07:52:56Z</time>
      </trkpt>
      <trkpt lat="45.36941" lon="6.72024">
        <ele>1661.3</ele>
        <time>2019-09-13T07:53:09Z</time>
      </trkpt>
      <trkpt lat="45.36943" lon="6.72035">
        <ele>1661.78</ele>
        <time>2019-09-13T07:53:21Z</time>
      </trkpt>
      <trkpt lat="45.36948" lon="6.72052">
        <ele>1661.78</ele>
        <time>2019-09-13T07:53:36Z</time>
      </trkpt>
      <trkpt lat="45.36951" lon="6.72065">
        <ele>1662.26</ele>
        <time>2019-09-13T07:53:48Z</time>
      </trkpt>
      <trkpt lat="45.36954" lon="6.72079">
        <ele>1662.74</ele>
        <time>2019-09-13T07:54:02Z</time>
      </trkpt>
      <trkpt lat="45.36957" lon="6.72095">
        <ele>1663.7</ele>
        <time>2019-09-13T07:54:18Z</time>
      </trkpt>
      <trkpt lat="45.36959" lon="6.7211">
        <ele>1663.7</ele>
        <time>2019-09-13T07:54:33Z</time>
      </trkpt>
      <trkpt lat="45.36961" lon="6.72117">
        <ele>1663.7</ele>
        <time>2019-09-13T07:54:40Z</time>
      </trkpt>
      <trkpt lat="45.3696" lon="6.72124">
        <ele>1663.7</ele>
        <time>2019-09-13T07:54:46Z</time>
      </trkpt>
      <trkpt lat="45.3696" lon="6.72126">
        <ele>1666.1</ele>
        <time>2019-09-13T07:54:49Z</time>
      </trkpt>
      <trkpt lat="45.36961" lon="6.72127">
        <ele>1663.7</ele>
        <time>2019-09-13T07:54:50Z</time>
      </trkpt>
      <trkpt lat="45.36968" lon="6.72139">
        <ele>1663.7</ele>
        <time>2019-09-13T07:55:03Z</time>
      </trkpt>
      <trkpt lat="45.3697" lon="6.72153">
        <ele>1663.7</ele>
        <time>2019-09-13T07:55:17Z</time>
      </trkpt>
      <trkpt lat="45.3697" lon="6.72165">
        <ele>1663.7</ele>
        <time>2019-09-13T07:55:31Z</time>
      </trkpt>
      <trkpt lat="45.36973" lon="6.7218">
        <ele>1663.7</ele>
        <time>2019-09-13T07:55:45Z</time>
      </trkpt>
      <trkpt lat="45.36974" lon="6.72195">
        <ele>1663.7</ele>
        <time>2019-09-13T07:56:00Z</time>
      </trkpt>
      <trkpt lat="45.36979" lon="6.72207">
        <ele>1663.7</ele>
        <time>2019-09-13T07:56:14Z</time>
      </trkpt>
      <trkpt lat="45.36982" lon="6.72216">
        <ele>1665.14</ele>
        <time>2019-09-13T07:56:25Z</time>
      </trkpt>
      <trkpt lat="45.36987" lon="6.72226">
        <ele>1666.1</ele>
        <time>2019-09-13T07:56:39Z</time>
      </trkpt>
      <trkpt lat="45.36992" lon="6.72233">
        <ele>1665.62</ele>
        <time>2019-09-13T07:56:52Z</time>
      </trkpt>
      <trkpt lat="45.36998" lon="6.72242">
        <ele>1665.62</ele>
        <time>2019-09-13T07:57:07Z</time>
      </trkpt>
      <trkpt lat="45.37003" lon="6.72252">
        <ele>1665.62</ele>
        <time>2019-09-13T07:57:24Z</time>
      </trkpt>
      <trkpt lat="45.37007" lon="6.72261">
        <ele>1666.58</ele>
        <time>2019-09-13T07:57:39Z</time>
      </trkpt>
      <trkpt lat="45.37013" lon="6.7227">
        <ele>1666.58</ele>
        <time>2019-09-13T07:57:51Z</time>
      </trkpt>
      <trkpt lat="45.37018" lon="6.7228">
        <ele>1666.1</ele>
        <time>2019-09-13T07:58:06Z</time>
      </trkpt>
      <trkpt lat="45.37022" lon="6.72286">
        <ele>1666.1</ele>
        <time>2019-09-13T07:58:18Z</time>
      </trkpt>
      <trkpt lat="45.37026" lon="6.72293">
        <ele>1663.7</ele>
        <time>2019-09-13T07:58:34Z</time>
      </trkpt>
      <trkpt lat="45.37029" lon="6.72299">
        <ele>1662.26</ele>
        <time>2019-09-13T07:58:52Z</time>
      </trkpt>
      <trkpt lat="45.37034" lon="6.72305">
        <ele>1661.78</ele>
        <time>2019-09-13T07:59:05Z</time>
      </trkpt>
      <trkpt lat="45.37039" lon="6.72313">
        <ele>1661.3</ele>
        <time>2019-09-13T07:59:23Z</time>
      </trkpt>
      <trkpt lat="45.37041" lon="6.72317">
        <ele>1660.81</ele>
        <time>2019-09-13T07:59:47Z</time>
      </trkpt>
      <trkpt lat="45.37044" lon="6.72322">
        <ele>1661.78</ele>
        <time>2019-09-13T08:00:03Z</time>
      </trkpt>
      <trkpt lat="45.37044" lon="6.72328">
        <ele>1663.7</ele>
        <time>2019-09-13T08:00:21Z</time>
      </trkpt>
      <trkpt lat="45.37042" lon="6.72334">
        <ele>1665.14</ele>
        <time>2019-09-13T08:00:43Z</time>
      </trkpt>
      <trkpt lat="45.37042" lon="6.72339">
        <ele>1665.62</ele>
        <time>2019-09-13T08:00:58Z</time>
      </trkpt>
      <trkpt lat="45.37041" lon="6.72342">
        <ele>1666.1</ele>
        <time>2019-09-13T08:01:18Z</time>
      </trkpt>
      <trkpt lat="45.37037" lon="6.72344">
        <ele>1668.02</ele>
        <time>2019-09-13T08:01:31Z</time>
      </trkpt>
      <trkpt lat="45.37029" lon="6.72339">
        <ele>1670.43</ele>
        <time>2019-09-13T08:01:48Z</time>
      </trkpt>
      <trkpt lat="45.37025" lon="6.72338">
        <ele>1671.39</ele>
        <time>2019-09-13T08:02:04Z</time>
      </trkpt>
      <trkpt lat="45.37015" lon="6.72337">
        <ele>1673.79</ele>
        <time>2019-09-13T08:02:24Z</time>
      </trkpt>
      <trkpt lat="45.37012" lon="6.72343">
        <ele>1675.23</ele>
        <time>2019-09-13T08:02:41Z</time>
      </trkpt>
      <trkpt lat="45.37011" lon="6.72347">
        <ele>1677.16</ele>
        <time>2019-09-13T08:02:58Z</time>
      </trkpt>
      <trkpt lat="45.37009" lon="6.72356">
        <ele>1679.56</ele>
        <time>2019-09-13T08:03:15Z</time>
      </trkpt>
      <trkpt lat="45.37016" lon="6.72362">
        <ele>1680.52</ele>
        <time>2019-09-13T08:03:34Z</time>
      </trkpt>
      <trkpt lat="45.37017" lon="6.72367">
        <ele>1682.44</ele>
        <time>2019-09-13T08:03:53Z</time>
      </trkpt>
      <trkpt lat="45.37008" lon="6.72364">
        <ele>1684.85</ele>
        <time>2019-09-13T08:04:13Z</time>
      </trkpt>
      <trkpt lat="45.37004" lon="6.72367">
        <ele>1686.29</ele>
        <time>2019-09-13T08:04:30Z</time>
      </trkpt>
      <trkpt lat="45.37" lon="6.72369">
        <ele>1687.73</ele>
        <time>2019-09-13T08:04:42Z</time>
      </trkpt>
      <trkpt lat="45.36994" lon="6.72367">
        <ele>1689.65</ele>
        <time>2019-09-13T08:04:58Z</time>
      </trkpt>
      <trkpt lat="45.36986" lon="6.72361">
        <ele>1690.62</ele>
        <time>2019-09-13T08:05:14Z</time>
      </trkpt>
      <trkpt lat="45.36981" lon="6.72358">
        <ele>1690.62</ele>
        <time>2019-09-13T08:05:26Z</time>
      </trkpt>
      <trkpt lat="45.3698" lon="6.72356">
        <ele>1691.1</ele>
        <time>2019-09-13T08:05:30Z</time>
      </trkpt>
      <trkpt lat="45.36974" lon="6.7235">
        <ele>1692.54</ele>
        <time>2019-09-13T08:05:45Z</time>
      </trkpt>
      <trkpt lat="45.36972" lon="6.72346">
        <ele>1693.5</ele>
        <time>2019-09-13T08:05:55Z</time>
      </trkpt>
      <trkpt lat="45.36969" lon="6.72344">
        <ele>1695.42</ele>
        <time>2019-09-13T08:06:09Z</time>
      </trkpt>
      <trkpt lat="45.36963" lon="6.72344">
        <ele>1696.86</ele>
        <time>2019-09-13T08:06:24Z</time>
      </trkpt>
      <trkpt lat="45.36964" lon="6.7235">
        <ele>1699.27</ele>
        <time>2019-09-13T08:06:41Z</time>
      </trkpt>
      <trkpt lat="45.36964" lon="6.72359">
        <ele>1701.67</ele>
        <time>2019-09-13T08:06:59Z</time>
      </trkpt>
      <trkpt lat="45.36961" lon="6.72354">
        <ele>1704.07</ele>
        <time>2019-09-13T08:07:12Z</time>
      </trkpt>
      <trkpt lat="45.36957" lon="6.72351">
        <ele>1705.52</ele>
        <time>2019-09-13T08:07:24Z</time>
      </trkpt>
      <trkpt lat="45.36951" lon="6.72349">
        <ele>1706.96</ele>
        <time>2019-09-13T08:07:40Z</time>
      </trkpt>
      <trkpt lat="45.36947" lon="6.72346">
        <ele>1708.4</ele>
        <time>2019-09-13T08:07:55Z</time>
      </trkpt>
      <trkpt lat="45.36943" lon="6.72346">
        <ele>1710.8</ele>
        <time>2019-09-13T08:08:09Z</time>
      </trkpt>
      <trkpt lat="45.36945" lon="6.72354">
        <ele>1712.25</ele>
        <time>2019-09-13T08:08:26Z</time>
      </trkpt>
      <trkpt lat="45.36939" lon="6.72345">
        <ele>1712.73</ele>
        <time>2019-09-13T08:08:43Z</time>
      </trkpt>
      <trkpt lat="45.36933" lon="6.72347">
        <ele>1715.61</ele>
        <time>2019-09-13T08:08:59Z</time>
      </trkpt>
      <trkpt lat="45.36931" lon="6.72353">
        <ele>1717.53</ele>
        <time>2019-09-13T08:09:14Z</time>
      </trkpt>
      <trkpt lat="45.36933" lon="6.72363">
        <ele>1718.97</ele>
        <time>2019-09-13T08:09:30Z</time>
      </trkpt>
      <trkpt lat="45.36931" lon="6.72369">
        <ele>1720.9</ele>
        <time>2019-09-13T08:09:44Z</time>
      </trkpt>
      <trkpt lat="45.36932" lon="6.72377">
        <ele>1723.3</ele>
        <time>2019-09-13T08:10:00Z</time>
      </trkpt>
      <trkpt lat="45.36929" lon="6.72382">
        <ele>1724.74</ele>
        <time>2019-09-13T08:10:17Z</time>
      </trkpt>
      <trkpt lat="45.36923" lon="6.72379">
        <ele>1727.15</ele>
        <time>2019-09-13T08:10:31Z</time>
      </trkpt>
      <trkpt lat="45.36917" lon="6.72375">
        <ele>1728.59</ele>
        <time>2019-09-13T08:10:46Z</time>
      </trkpt>
      <trkpt lat="45.36911" lon="6.72373">
        <ele>1730.03</ele>
        <time>2019-09-13T08:10:58Z</time>
      </trkpt>
      <trkpt lat="45.36906" lon="6.72373">
        <ele>1731.95</ele>
        <time>2019-09-13T08:11:14Z</time>
      </trkpt>
      <trkpt lat="45.36854" lon="6.72421">
        <ele>1738.2</ele>
        <time>2019-09-13T08:12:04Z</time>
      </trkpt>
      <trkpt lat="45.36853" lon="6.72422">
        <ele>1739.64</ele>
        <time>2019-09-13T08:12:17Z</time>
      </trkpt>
      <trkpt lat="45.3685" lon="6.72414">
        <ele>1742.05</ele>
        <time>2019-09-13T08:12:33Z</time>
      </trkpt>
      <trkpt lat="45.36847" lon="6.72408">
        <ele>1744.45</ele>
        <time>2019-09-13T08:12:50Z</time>
      </trkpt>
      <trkpt lat="45.3685" lon="6.72414">
        <ele>1745.89</ele>
        <time>2019-09-13T08:13:02Z</time>
      </trkpt>
      <trkpt lat="45.36854" lon="6.72423">
        <ele>1747.81</ele>
        <time>2019-09-13T08:13:21Z</time>
      </trkpt>
      <trkpt lat="45.36852" lon="6.72431">
        <ele>1749.74</ele>
        <time>2019-09-13T08:13:35Z</time>
      </trkpt>
      <trkpt lat="45.36841" lon="6.72438">
        <ele>1751.66</ele>
        <time>2019-09-13T08:13:51Z</time>
      </trkpt>
      <trkpt lat="45.36836" lon="6.72445">
        <ele>1752.62</ele>
        <time>2019-09-13T08:14:04Z</time>
      </trkpt>
      <trkpt lat="45.36816" lon="6.72505">
        <ele>1753.58</ele>
        <time>2019-09-13T08:14:33Z</time>
      </trkpt>
      <trkpt lat="45.36816" lon="6.72508">
        <ele>1751.66</ele>
        <time>2019-09-13T08:14:51Z</time>
      </trkpt>
      <trkpt lat="45.36812" lon="6.72503">
        <ele>1750.7</ele>
        <time>2019-09-13T08:15:06Z</time>
      </trkpt>
      <trkpt lat="45.36814" lon="6.72498">
        <ele>1751.66</ele>
        <time>2019-09-13T08:15:19Z</time>
      </trkpt>
      <trkpt lat="45.36806" lon="6.72486">
        <ele>1752.14</ele>
        <time>2019-09-13T08:15:32Z</time>
      </trkpt>
      <trkpt lat="45.36797" lon="6.72476">
        <ele>1753.1</ele>
        <time>2019-09-13T08:15:45Z</time>
      </trkpt>
      <trkpt lat="45.36791" lon="6.72476">
        <ele>1755.5</ele>
        <time>2019-09-13T08:15:59Z</time>
      </trkpt>
      <trkpt lat="45.36786" lon="6.72474">
        <ele>1756.95</ele>
        <time>2019-09-13T08:16:13Z</time>
      </trkpt>
      <trkpt lat="45.36784" lon="6.72474">
        <ele>1758.87</ele>
        <time>2019-09-13T08:16:27Z</time>
      </trkpt>
      <trkpt lat="45.36779" lon="6.72475">
        <ele>1760.31</ele>
        <time>2019-09-13T08:16:41Z</time>
      </trkpt>
      <trkpt lat="45.36772" lon="6.72473">
        <ele>1762.71</ele>
        <time>2019-09-13T08:16:56Z</time>
      </trkpt>
      <trkpt lat="45.36766" lon="6.72469">
        <ele>1764.16</ele>
        <time>2019-09-13T08:17:10Z</time>
      </trkpt>
      <trkpt lat="45.36764" lon="6.72471">
        <ele>1765.6</ele>
        <time>2019-09-13T08:17:25Z</time>
      </trkpt>
      <trkpt lat="45.36761" lon="6.72476">
        <ele>1768.48</ele>
        <time>2019-09-13T08:17:45Z</time>
      </trkpt>
      <trkpt lat="45.36761" lon="6.72482">
        <ele>1770.89</ele>
        <time>2019-09-13T08:18:04Z</time>
      </trkpt>
      <trkpt lat="45.36755" lon="6.72486">
        <ele>1773.77</ele>
        <time>2019-09-13T08:18:23Z</time>
      </trkpt>
      <trkpt lat="45.3675" lon="6.72485">
        <ele>1775.69</ele>
        <time>2019-09-13T08:18:41Z</time>
      </trkpt>
      <trkpt lat="45.36738" lon="6.72474">
        <ele>1777.61</ele>
        <time>2019-09-13T08:18:57Z</time>
      </trkpt>
      <trkpt lat="45.36736" lon="6.72476">
        <ele>1779.54</ele>
        <time>2019-09-13T08:19:11Z</time>
      </trkpt>
      <trkpt lat="45.3674" lon="6.72487">
        <ele>1781.46</ele>
        <time>2019-09-13T08:19:26Z</time>
      </trkpt>
      <trkpt lat="45.36739" lon="6.72489">
        <ele>1783.38</ele>
        <time>2019-09-13T08:19:42Z</time>
      </trkpt>
      <trkpt lat="45.36735" lon="6.72487">
        <ele>1785.31</ele>
        <time>2019-09-13T08:19:55Z</time>
      </trkpt>
      <trkpt lat="45.36734" lon="6.72489">
        <ele>1785.79</ele>
        <time>2019-09-13T08:20:11Z</time>
      </trkpt>
      <trkpt lat="45.36736" lon="6.72491">
        <ele>1785.79</ele>
        <time>2019-09-13T08:20:28Z</time>
      </trkpt>
      <trkpt lat="45.36739" lon="6.7249">
        <ele>1785.79</ele>
        <time>2019-09-13T08:20:51Z</time>
      </trkpt>
      <trkpt lat="45.36859" lon="6.72475">
        <ele>1785.31</ele>
        <time>2019-09-13T08:21:19Z</time>
      </trkpt>
      <trkpt lat="45.36864" lon="6.72477">
        <ele>1785.79</ele>
        <time>2019-09-13T08:21:51Z</time>
      </trkpt>
      <trkpt lat="45.36863" lon="6.72477">
        <ele>1786.27</ele>
        <time>2019-09-13T08:22:20Z</time>
      </trkpt>
      <trkpt lat="45.36859" lon="6.72473">
        <ele>1787.23</ele>
        <time>2019-09-13T08:22:36Z</time>
      </trkpt>
      <trkpt lat="45.36858" lon="6.72481">
        <ele>1790.11</ele>
        <time>2019-09-13T08:22:53Z</time>
      </trkpt>
      <trkpt lat="45.3686" lon="6.72486">
        <ele>1792.52</ele>
        <time>2019-09-13T08:23:07Z</time>
      </trkpt>
      <trkpt lat="45.36855" lon="6.72482">
        <ele>1793.96</ele>
        <time>2019-09-13T08:23:19Z</time>
      </trkpt>
      <trkpt lat="45.3685" lon="6.72481">
        <ele>1795.88</ele>
        <time>2019-09-13T08:23:34Z</time>
      </trkpt>
      <trkpt lat="45.36847" lon="6.72484">
        <ele>1798.28</ele>
        <time>2019-09-13T08:23:50Z</time>
      </trkpt>
      <trkpt lat="45.36847" lon="6.72491">
        <ele>1801.65</ele>
        <time>2019-09-13T08:24:08Z</time>
      </trkpt>
      <trkpt lat="45.36852" lon="6.72496">
        <ele>1803.09</ele>
        <time>2019-09-13T08:24:23Z</time>
      </trkpt>
      <trkpt lat="45.36855" lon="6.72502">
        <ele>1805.49</ele>
        <time>2019-09-13T08:24:39Z</time>
      </trkpt>
      <trkpt lat="45.36851" lon="6.72502">
        <ele>1806.94</ele>
        <time>2019-09-13T08:24:52Z</time>
      </trkpt>
      <trkpt lat="45.36848" lon="6.72506">
        <ele>1809.34</ele>
        <time>2019-09-13T08:25:08Z</time>
      </trkpt>
      <trkpt lat="45.36852" lon="6.72513">
        <ele>1812.22</ele>
        <time>2019-09-13T08:25:28Z</time>
      </trkpt>
      <trkpt lat="45.36858" lon="6.72518">
        <ele>1814.63</ele>
        <time>2019-09-13T08:25:45Z</time>
      </trkpt>
      <trkpt lat="45.36863" lon="6.72523">
        <ele>1816.55</ele>
        <time>2019-09-13T08:25:59Z</time>
      </trkpt>
      <trkpt lat="45.36861" lon="6.72528">
        <ele>1819.43</ele>
        <time>2019-09-13T08:26:20Z</time>
      </trkpt>
      <trkpt lat="45.36857" lon="6.72532">
        <ele>1821.35</ele>
        <time>2019-09-13T08:26:35Z</time>
      </trkpt>
      <trkpt lat="45.36859" lon="6.7254">
        <ele>1823.76</ele>
        <time>2019-09-13T08:26:54Z</time>
      </trkpt>
      <trkpt lat="45.36853" lon="6.7254">
        <ele>1826.16</ele>
        <time>2019-09-13T08:27:12Z</time>
      </trkpt>
      <trkpt lat="45.36847" lon="6.72542">
        <ele>1828.56</ele>
        <time>2019-09-13T08:27:27Z</time>
      </trkpt>
      <trkpt lat="45.36849" lon="6.72546">
        <ele>1830.01</ele>
        <time>2019-09-13T08:27:42Z</time>
      </trkpt>
      <trkpt lat="45.36848" lon="6.72553">
        <ele>1832.41</ele>
        <time>2019-09-13T08:27:57Z</time>
      </trkpt>
      <trkpt lat="45.36845" lon="6.72555">
        <ele>1833.85</ele>
        <time>2019-09-13T08:28:10Z</time>
      </trkpt>
      <trkpt lat="45.36842" lon="6.72556">
        <ele>1835.77</ele>
        <time>2019-09-13T08:28:25Z</time>
      </trkpt>
      <trkpt lat="45.3684" lon="6.72557">
        <ele>1838.18</ele>
        <time>2019-09-13T08:28:42Z</time>
      </trkpt>
      <trkpt lat="45.36836" lon="6.72555">
        <ele>1840.1</ele>
        <time>2019-09-13T08:28:56Z</time>
      </trkpt>
      <trkpt lat="45.3683" lon="6.72555">
        <ele>1842.5</ele>
        <time>2019-09-13T08:29:12Z</time>
      </trkpt>
      <trkpt lat="45.36826" lon="6.72552">
        <ele>1843.95</ele>
        <time>2019-09-13T08:29:27Z</time>
      </trkpt>
      <trkpt lat="45.36819" lon="6.72553">
        <ele>1846.35</ele>
        <time>2019-09-13T08:29:43Z</time>
      </trkpt>
      <trkpt lat="45.36816" lon="6.72549">
        <ele>1847.79</ele>
        <time>2019-09-13T08:29:56Z</time>
      </trkpt>
      <trkpt lat="45.36811" lon="6.72547">
        <ele>1850.19</ele>
        <time>2019-09-13T08:30:10Z</time>
      </trkpt>
      <trkpt lat="45.36806" lon="6.72548">
        <ele>1851.64</ele>
        <time>2019-09-13T08:30:25Z</time>
      </trkpt>
      <trkpt lat="45.36803" lon="6.7255">
        <ele>1853.56</ele>
        <time>2019-09-13T08:30:39Z</time>
      </trkpt>
      <trkpt lat="45.36798" lon="6.72554">
        <ele>1855</ele>
        <time>2019-09-13T08:30:55Z</time>
      </trkpt>
      <trkpt lat="45.36792" lon="6.72556">
        <ele>1856.44</ele>
        <time>2019-09-13T08:31:09Z</time>
      </trkpt>
      <trkpt lat="45.36789" lon="6.72557">
        <ele>1857.89</ele>
        <time>2019-09-13T08:31:21Z</time>
      </trkpt>
      <trkpt lat="45.36793" lon="6.72562">
        <ele>1860.77</ele>
        <time>2019-09-13T08:31:36Z</time>
      </trkpt>
      <trkpt lat="45.36794" lon="6.72568">
        <ele>1862.21</ele>
        <time>2019-09-13T08:31:52Z</time>
      </trkpt>
      <trkpt lat="45.36793" lon="6.72571">
        <ele>1864.13</ele>
        <time>2019-09-13T08:32:07Z</time>
      </trkpt>
      <trkpt lat="45.36787" lon="6.72571">
        <ele>1866.54</ele>
        <time>2019-09-13T08:32:24Z</time>
      </trkpt>
      <trkpt lat="45.36784" lon="6.72575">
        <ele>1868.46</ele>
        <time>2019-09-13T08:32:41Z</time>
      </trkpt>
      <trkpt lat="45.36785" lon="6.72579">
        <ele>1870.86</ele>
        <time>2019-09-13T08:32:58Z</time>
      </trkpt>
      <trkpt lat="45.36788" lon="6.72584">
        <ele>1872.3</ele>
        <time>2019-09-13T08:33:13Z</time>
      </trkpt>
      <trkpt lat="45.36787" lon="6.72587">
        <ele>1873.27</ele>
        <time>2019-09-13T08:33:34Z</time>
      </trkpt>
      <trkpt lat="45.36781" lon="6.72581">
        <ele>1874.23</ele>
        <time>2019-09-13T08:33:50Z</time>
      </trkpt>
      <trkpt lat="45.36778" lon="6.7258">
        <ele>1875.67</ele>
        <time>2019-09-13T08:34:02Z</time>
      </trkpt>
      <trkpt lat="45.36774" lon="6.72574">
        <ele>1877.59</ele>
        <time>2019-09-13T08:34:18Z</time>
      </trkpt>
      <trkpt lat="45.36771" lon="6.72573">
        <ele>1879.51</ele>
        <time>2019-09-13T08:34:32Z</time>
      </trkpt>
      <trkpt lat="45.36768" lon="6.72572">
        <ele>1881.44</ele>
        <time>2019-09-13T08:34:46Z</time>
      </trkpt>
      <trkpt lat="45.36763" lon="6.7257">
        <ele>1882.88</ele>
        <time>2019-09-13T08:35:00Z</time>
      </trkpt>
      <trkpt lat="45.36758" lon="6.72573">
        <ele>1885.28</ele>
        <time>2019-09-13T08:35:15Z</time>
      </trkpt>
      <trkpt lat="45.36753" lon="6.72568">
        <ele>1886.24</ele>
        <time>2019-09-13T08:35:29Z</time>
      </trkpt>
      <trkpt lat="45.3675" lon="6.72569">
        <ele>1888.17</ele>
        <time>2019-09-13T08:35:47Z</time>
      </trkpt>
      <trkpt lat="45.36746" lon="6.7257">
        <ele>1889.13</ele>
        <time>2019-09-13T08:36:00Z</time>
      </trkpt>
      <trkpt lat="45.36743" lon="6.72567">
        <ele>1891.53</ele>
        <time>2019-09-13T08:36:16Z</time>
      </trkpt>
      <trkpt lat="45.36739" lon="6.72565">
        <ele>1893.45</ele>
        <time>2019-09-13T08:36:32Z</time>
      </trkpt>
      <trkpt lat="45.36737" lon="6.72568">
        <ele>1894.42</ele>
        <time>2019-09-13T08:36:45Z</time>
      </trkpt>
      <trkpt lat="45.36737" lon="6.72573">
        <ele>1896.82</ele>
        <time>2019-09-13T08:37:02Z</time>
      </trkpt>
      <trkpt lat="45.36736" lon="6.72576">
        <ele>1898.74</ele>
        <time>2019-09-13T08:37:16Z</time>
      </trkpt>
      <trkpt lat="45.36733" lon="6.72577">
        <ele>1900.18</ele>
        <time>2019-09-13T08:37:30Z</time>
      </trkpt>
      <trkpt lat="45.36731" lon="6.72573">
        <ele>1902.59</ele>
        <time>2019-09-13T08:37:43Z</time>
      </trkpt>
      <trkpt lat="45.36732" lon="6.7257">
        <ele>1904.03</ele>
        <time>2019-09-13T08:37:58Z</time>
      </trkpt>
      <trkpt lat="45.36727" lon="6.72566">
        <ele>1904.99</ele>
        <time>2019-09-13T08:38:11Z</time>
      </trkpt>
      <trkpt lat="45.36725" lon="6.72572">
        <ele>1906.43</ele>
        <time>2019-09-13T08:38:26Z</time>
      </trkpt>
      <trkpt lat="45.36725" lon="6.72578">
        <ele>1908.83</ele>
        <time>2019-09-13T08:38:40Z</time>
      </trkpt>
      <trkpt lat="45.36726" lon="6.72581">
        <ele>1909.8</ele>
        <time>2019-09-13T08:38:58Z</time>
      </trkpt>
      <trkpt lat="45.36727" lon="6.72588">
        <ele>1911.72</ele>
        <time>2019-09-13T08:39:12Z</time>
      </trkpt>
      <trkpt lat="45.36729" lon="6.72595">
        <ele>1913.64</ele>
        <time>2019-09-13T08:39:30Z</time>
      </trkpt>
      <trkpt lat="45.3673" lon="6.726">
        <ele>1916.04</ele>
        <time>2019-09-13T08:39:47Z</time>
      </trkpt>
      <trkpt lat="45.36724" lon="6.72599">
        <ele>1917.97</ele>
        <time>2019-09-13T08:40:03Z</time>
      </trkpt>
      <trkpt lat="45.36716" lon="6.72595">
        <ele>1919.89</ele>
        <time>2019-09-13T08:40:21Z</time>
      </trkpt>
      <trkpt lat="45.36711" lon="6.72592">
        <ele>1921.81</ele>
        <time>2019-09-13T08:40:39Z</time>
      </trkpt>
      <trkpt lat="45.3671" lon="6.72596">
        <ele>1923.25</ele>
        <time>2019-09-13T08:40:54Z</time>
      </trkpt>
      <trkpt lat="45.3671" lon="6.72601">
        <ele>1925.66</ele>
        <time>2019-09-13T08:41:12Z</time>
      </trkpt>
      <trkpt lat="45.36708" lon="6.72603">
        <ele>1927.58</ele>
        <time>2019-09-13T08:41:28Z</time>
      </trkpt>
      <trkpt lat="45.367" lon="6.72603">
        <ele>1929.5</ele>
        <time>2019-09-13T08:41:41Z</time>
      </trkpt>
      <trkpt lat="45.36701" lon="6.72607">
        <ele>1931.91</ele>
        <time>2019-09-13T08:41:57Z</time>
      </trkpt>
      <trkpt lat="45.36699" lon="6.7261">
        <ele>1932.87</ele>
        <time>2019-09-13T08:42:10Z</time>
      </trkpt>
      <trkpt lat="45.36696" lon="6.72609">
        <ele>1934.31</ele>
        <time>2019-09-13T08:42:23Z</time>
      </trkpt>
      <trkpt lat="45.36692" lon="6.72606">
        <ele>1936.23</ele>
        <time>2019-09-13T08:42:37Z</time>
      </trkpt>
      <trkpt lat="45.3669" lon="6.72605">
        <ele>1938.16</ele>
        <time>2019-09-13T08:42:52Z</time>
      </trkpt>
      <trkpt lat="45.36686" lon="6.72602">
        <ele>1939.12</ele>
        <time>2019-09-13T08:43:04Z</time>
      </trkpt>
      <trkpt lat="45.36685" lon="6.72596">
        <ele>1940.56</ele>
        <time>2019-09-13T08:43:17Z</time>
      </trkpt>
      <trkpt lat="45.3668" lon="6.72593">
        <ele>1942</ele>
        <time>2019-09-13T08:43:31Z</time>
      </trkpt>
      <trkpt lat="45.36674" lon="6.72591">
        <ele>1943.92</ele>
        <time>2019-09-13T08:43:47Z</time>
      </trkpt>
      <trkpt lat="45.36674" lon="6.72594">
        <ele>1944.88</ele>
        <time>2019-09-13T08:44:00Z</time>
      </trkpt>
      <trkpt lat="45.36678" lon="6.72598">
        <ele>1946.33</ele>
        <time>2019-09-13T08:44:15Z</time>
      </trkpt>
      <trkpt lat="45.36681" lon="6.72603">
        <ele>1948.25</ele>
        <time>2019-09-13T08:44:29Z</time>
      </trkpt>
      <trkpt lat="45.36682" lon="6.72609">
        <ele>1950.17</ele>
        <time>2019-09-13T08:44:43Z</time>
      </trkpt>
      <trkpt lat="45.36685" lon="6.72616">
        <ele>1952.57</ele>
        <time>2019-09-13T08:44:57Z</time>
      </trkpt>
      <trkpt lat="45.36685" lon="6.72619">
        <ele>1954.02</ele>
        <time>2019-09-13T08:45:11Z</time>
      </trkpt>
      <trkpt lat="45.36682" lon="6.72623">
        <ele>1954.98</ele>
        <time>2019-09-13T08:45:26Z</time>
      </trkpt>
      <trkpt lat="45.36686" lon="6.72629">
        <ele>1957.38</ele>
        <time>2019-09-13T08:45:43Z</time>
      </trkpt>
      <trkpt lat="45.36685" lon="6.72635">
        <ele>1959.78</ele>
        <time>2019-09-13T08:45:59Z</time>
      </trkpt>
      <trkpt lat="45.36687" lon="6.72639">
        <ele>1960.75</ele>
        <time>2019-09-13T08:46:13Z</time>
      </trkpt>
      <trkpt lat="45.36683" lon="6.72635">
        <ele>1962.67</ele>
        <time>2019-09-13T08:46:30Z</time>
      </trkpt>
      <trkpt lat="45.36681" lon="6.72638">
        <ele>1964.11</ele>
        <time>2019-09-13T08:46:45Z</time>
      </trkpt>
      <trkpt lat="45.36683" lon="6.72637">
        <ele>1966.03</ele>
        <time>2019-09-13T08:47:02Z</time>
      </trkpt>
      <trkpt lat="45.36681" lon="6.72639">
        <ele>1967.48</ele>
        <time>2019-09-13T08:47:18Z</time>
      </trkpt>
      <trkpt lat="45.36679" lon="6.72641">
        <ele>1969.88</ele>
        <time>2019-09-13T08:47:32Z</time>
      </trkpt>
      <trkpt lat="45.36676" lon="6.72642">
        <ele>1971.32</ele>
        <time>2019-09-13T08:47:45Z</time>
      </trkpt>
      <trkpt lat="45.3668" lon="6.72649">
        <ele>1973.24</ele>
        <time>2019-09-13T08:48:00Z</time>
      </trkpt>
      <trkpt lat="45.36681" lon="6.72655">
        <ele>1974.69</ele>
        <time>2019-09-13T08:48:19Z</time>
      </trkpt>
      <trkpt lat="45.36684" lon="6.72656">
        <ele>1975.65</ele>
        <time>2019-09-13T08:48:31Z</time>
      </trkpt>
      <trkpt lat="45.36686" lon="6.7265">
        <ele>1976.13</ele>
        <time>2019-09-13T08:48:43Z</time>
      </trkpt>
      <trkpt lat="45.3669" lon="6.72655">
        <ele>1977.57</ele>
        <time>2019-09-13T08:49:02Z</time>
      </trkpt>
      <trkpt lat="45.36689" lon="6.72647">
        <ele>1979.97</ele>
        <time>2019-09-13T08:49:16Z</time>
      </trkpt>
      <trkpt lat="45.36691" lon="6.72652">
        <ele>1981.41</ele>
        <time>2019-09-13T08:49:34Z</time>
      </trkpt>
      <trkpt lat="45.36686" lon="6.72654">
        <ele>1982.86</ele>
        <time>2019-09-13T08:49:50Z</time>
      </trkpt>
      <trkpt lat="45.3669" lon="6.72654">
        <ele>1984.3</ele>
        <time>2019-09-13T08:50:08Z</time>
      </trkpt>
      <trkpt lat="45.36689" lon="6.72656">
        <ele>1985.26</ele>
        <time>2019-09-13T08:50:31Z</time>
      </trkpt>
      <trkpt lat="45.36685" lon="6.72657">
        <ele>1986.7</ele>
        <time>2019-09-13T08:50:46Z</time>
      </trkpt>
      <trkpt lat="45.36687" lon="6.72654">
        <ele>1988.62</ele>
        <time>2019-09-13T08:51:01Z</time>
      </trkpt>
      <trkpt lat="45.3669" lon="6.72655">
        <ele>1990.07</ele>
        <time>2019-09-13T08:51:18Z</time>
      </trkpt>
      <trkpt lat="45.36688" lon="6.72658">
        <ele>1991.99</ele>
        <time>2019-09-13T08:51:37Z</time>
      </trkpt>
      <trkpt lat="45.36692" lon="6.72662">
        <ele>1993.91</ele>
        <time>2019-09-13T08:51:56Z</time>
      </trkpt>
      <trkpt lat="45.3669" lon="6.72668">
        <ele>1995.83</ele>
        <time>2019-09-13T08:52:12Z</time>
      </trkpt>
      <trkpt lat="45.3669" lon="6.7267">
        <ele>1997.76</ele>
        <time>2019-09-13T08:52:27Z</time>
      </trkpt>
      <trkpt lat="45.36691" lon="6.72672">
        <ele>1998.72</ele>
        <time>2019-09-13T08:52:40Z</time>
      </trkpt>
      <trkpt lat="45.36695" lon="6.72672">
        <ele>2000.64</ele>
        <time>2019-09-13T08:52:54Z</time>
      </trkpt>
      <trkpt lat="45.367" lon="6.72665">
        <ele>2002.08</ele>
        <time>2019-09-13T08:53:08Z</time>
      </trkpt>
      <trkpt lat="45.36701" lon="6.72663">
        <ele>2002.56</ele>
        <time>2019-09-13T08:53:23Z</time>
      </trkpt>
      <trkpt lat="45.36701" lon="6.72662">
        <ele>2002.08</ele>
        <time>2019-09-13T08:53:28Z</time>
      </trkpt>
      <trkpt lat="45.367" lon="6.72662">
        <ele>2002.08</ele>
        <time>2019-09-13T08:53:33Z</time>
      </trkpt>
      <trkpt lat="45.36701" lon="6.72664">
        <ele>2004.01</ele>
        <time>2019-09-13T08:53:48Z</time>
      </trkpt>
      <trkpt lat="45.36701" lon="6.72664">
        <ele>2004.01</ele>
        <time>2019-09-13T08:53:49Z</time>
      </trkpt>
      <trkpt lat="45.36701" lon="6.72665">
        <ele>2002.08</ele>
        <time>2019-09-13T08:54:08Z</time>
      </trkpt>
      <trkpt lat="45.367" lon="6.72662">
        <ele>2002.56</ele>
        <time>2019-09-13T08:54:40Z</time>
      </trkpt>
      <trkpt lat="45.36704" lon="6.72665">
        <ele>2002.56</ele>
        <time>2019-09-13T08:55:10Z</time>
      </trkpt>
      <trkpt lat="45.36702" lon="6.72666">
        <ele>2002.56</ele>
        <time>2019-09-13T08:55:43Z</time>
      </trkpt>
      <trkpt lat="45.36702" lon="6.72663">
        <ele>2003.04</ele>
        <time>2019-09-13T08:56:15Z</time>
      </trkpt>
      <trkpt lat="45.36704" lon="6.72663">
        <ele>2002.56</ele>
        <time>2019-09-13T08:56:42Z</time>
      </trkpt>
      <trkpt lat="45.36702" lon="6.72663">
        <ele>2003.04</ele>
        <time>2019-09-13T08:57:06Z</time>
      </trkpt>
      <trkpt lat="45.36701" lon="6.72662">
        <ele>2003.04</ele>
        <time>2019-09-13T08:57:37Z</time>
      </trkpt>
      <trkpt lat="45.367" lon="6.72662">
        <ele>2003.52</ele>
        <time>2019-09-13T08:58:09Z</time>
      </trkpt>
      <trkpt lat="45.36698" lon="6.72663">
        <ele>2003.52</ele>
        <time>2019-09-13T08:58:37Z</time>
      </trkpt>
      <trkpt lat="45.36702" lon="6.72663">
        <ele>2003.52</ele>
        <time>2019-09-13T08:59:05Z</time>
      </trkpt>
      <trkpt lat="45.36704" lon="6.72665">
        <ele>2004.01</ele>
        <time>2019-09-13T08:59:35Z</time>
      </trkpt>
      <trkpt lat="45.36706" lon="6.72661">
        <ele>2003.52</ele>
        <time>2019-09-13T09:00:04Z</time>
      </trkpt>
      <trkpt lat="45.36706" lon="6.72665">
        <ele>2004.01</ele>
        <time>2019-09-13T09:00:30Z</time>
      </trkpt>
      <trkpt lat="45.36704" lon="6.72667">
        <ele>2004.97</ele>
        <time>2019-09-13T09:00:47Z</time>
      </trkpt>
      <trkpt lat="45.36705" lon="6.7267">
        <ele>2005.45</ele>
        <time>2019-09-13T09:01:00Z</time>
      </trkpt>
      <trkpt lat="45.36707" lon="6.72674">
        <ele>2005.93</ele>
        <time>2019-09-13T09:01:15Z</time>
      </trkpt>
      <trkpt lat="45.36706" lon="6.7267">
        <ele>2005.93</ele>
        <time>2019-09-13T09:01:34Z</time>
      </trkpt>
      <trkpt lat="45.367" lon="6.72666">
        <ele>2006.41</ele>
        <time>2019-09-13T09:01:52Z</time>
      </trkpt>
      <trkpt lat="45.36698" lon="6.72668">
        <ele>2006.41</ele>
        <time>2019-09-13T09:02:09Z</time>
      </trkpt>
      <trkpt lat="45.36693" lon="6.72676">
        <ele>2007.37</ele>
        <time>2019-09-13T09:02:21Z</time>
      </trkpt>
      <trkpt lat="45.36695" lon="6.72679">
        <ele>2009.29</ele>
        <time>2019-09-13T09:02:34Z</time>
      </trkpt>
      <trkpt lat="45.36697" lon="6.72685">
        <ele>2011.22</ele>
        <time>2019-09-13T09:02:49Z</time>
      </trkpt>
      <trkpt lat="45.36694" lon="6.72687">
        <ele>2012.66</ele>
        <time>2019-09-13T09:03:04Z</time>
      </trkpt>
      <trkpt lat="45.36692" lon="6.72689">
        <ele>2014.58</ele>
        <time>2019-09-13T09:03:18Z</time>
      </trkpt>
      <trkpt lat="45.36691" lon="6.72696">
        <ele>2016.02</ele>
        <time>2019-09-13T09:03:31Z</time>
      </trkpt>
      <trkpt lat="45.36688" lon="6.72698">
        <ele>2017.46</ele>
        <time>2019-09-13T09:03:43Z</time>
      </trkpt>
      <trkpt lat="45.36695" lon="6.72699">
        <ele>2019.87</ele>
        <time>2019-09-13T09:03:59Z</time>
      </trkpt>
      <trkpt lat="45.367" lon="6.72703">
        <ele>2022.27</ele>
        <time>2019-09-13T09:04:15Z</time>
      </trkpt>
      <trkpt lat="45.36699" lon="6.72707">
        <ele>2023.71</ele>
        <time>2019-09-13T09:04:30Z</time>
      </trkpt>
      <trkpt lat="45.36704" lon="6.72708">
        <ele>2025.15</ele>
        <time>2019-09-13T09:04:41Z</time>
      </trkpt>
      <trkpt lat="45.36707" lon="6.72712">
        <ele>2027.56</ele>
        <time>2019-09-13T09:04:57Z</time>
      </trkpt>
      <trkpt lat="45.36703" lon="6.72716">
        <ele>2029</ele>
        <time>2019-09-13T09:05:10Z</time>
      </trkpt>
      <trkpt lat="45.36699" lon="6.72722">
        <ele>2030.92</ele>
        <time>2019-09-13T09:05:24Z</time>
      </trkpt>
      <trkpt lat="45.36694" lon="6.72728">
        <ele>2032.84</ele>
        <time>2019-09-13T09:05:42Z</time>
      </trkpt>
      <trkpt lat="45.36693" lon="6.72732">
        <ele>2034.29</ele>
        <time>2019-09-13T09:05:55Z</time>
      </trkpt>
      <trkpt lat="45.36694" lon="6.72735">
        <ele>2035.73</ele>
        <time>2019-09-13T09:06:07Z</time>
      </trkpt>
      <trkpt lat="45.36694" lon="6.72737">
        <ele>2037.17</ele>
        <time>2019-09-13T09:06:20Z</time>
      </trkpt>
      <trkpt lat="45.36693" lon="6.72743">
        <ele>2039.57</ele>
        <time>2019-09-13T09:06:37Z</time>
      </trkpt>
      <trkpt lat="45.36696" lon="6.72746">
        <ele>2041.02</ele>
        <time>2019-09-13T09:06:52Z</time>
      </trkpt>
      <trkpt lat="45.36701" lon="6.72752">
        <ele>2043.42</ele>
        <time>2019-09-13T09:07:07Z</time>
      </trkpt>
      <trkpt lat="45.36704" lon="6.72757">
        <ele>2044.86</ele>
        <time>2019-09-13T09:07:21Z</time>
      </trkpt>
      <trkpt lat="45.36712" lon="6.72763">
        <ele>2046.78</ele>
        <time>2019-09-13T09:07:37Z</time>
      </trkpt>
      <trkpt lat="45.36711" lon="6.72768">
        <ele>2048.23</ele>
        <time>2019-09-13T09:07:51Z</time>
      </trkpt>
      <trkpt lat="45.36707" lon="6.7277">
        <ele>2050.63</ele>
        <time>2019-09-13T09:08:08Z</time>
      </trkpt>
      <trkpt lat="45.36703" lon="6.7277">
        <ele>2052.07</ele>
        <time>2019-09-13T09:08:23Z</time>
      </trkpt>
      <trkpt lat="45.36703" lon="6.72777">
        <ele>2053.99</ele>
        <time>2019-09-13T09:08:38Z</time>
      </trkpt>
      <trkpt lat="45.367" lon="6.72779">
        <ele>2056.4</ele>
        <time>2019-09-13T09:08:52Z</time>
      </trkpt>
      <trkpt lat="45.36697" lon="6.72783">
        <ele>2057.84</ele>
        <time>2019-09-13T09:09:06Z</time>
      </trkpt>
      <trkpt lat="45.36696" lon="6.72788">
        <ele>2059.76</ele>
        <time>2019-09-13T09:09:22Z</time>
      </trkpt>
      <trkpt lat="45.36693" lon="6.7279">
        <ele>2061.2</ele>
        <time>2019-09-13T09:09:32Z</time>
      </trkpt>
      <trkpt lat="45.36691" lon="6.72789">
        <ele>2062.65</ele>
        <time>2019-09-13T09:09:45Z</time>
      </trkpt>
      <trkpt lat="45.36688" lon="6.72788">
        <ele>2063.61</ele>
        <time>2019-09-13T09:09:59Z</time>
      </trkpt>
      <trkpt lat="45.36685" lon="6.72786">
        <ele>2065.53</ele>
        <time>2019-09-13T09:10:13Z</time>
      </trkpt>
      <trkpt lat="45.36685" lon="6.72784">
        <ele>2066.01</ele>
        <time>2019-09-13T09:10:26Z</time>
      </trkpt>
      <trkpt lat="45.36684" lon="6.7278">
        <ele>2067.93</ele>
        <time>2019-09-13T09:10:41Z</time>
      </trkpt>
      <trkpt lat="45.36681" lon="6.72777">
        <ele>2069.38</ele>
        <time>2019-09-13T09:10:51Z</time>
      </trkpt>
      <trkpt lat="45.3668" lon="6.72772">
        <ele>2069.38</ele>
        <time>2019-09-13T09:10:56Z</time>
      </trkpt>
      <trkpt lat="45.36675" lon="6.72768">
        <ele>2069.38</ele>
        <time>2019-09-13T09:11:10Z</time>
      </trkpt>
      <trkpt lat="45.36668" lon="6.72767">
        <ele>2071.3</ele>
        <time>2019-09-13T09:11:27Z</time>
      </trkpt>
      <trkpt lat="45.36664" lon="6.72765">
        <ele>2073.22</ele>
        <time>2019-09-13T09:11:43Z</time>
      </trkpt>
      <trkpt lat="45.3666" lon="6.72756">
        <ele>2075.14</ele>
        <time>2019-09-13T09:12:00Z</time>
      </trkpt>
      <trkpt lat="45.36659" lon="6.72762">
        <ele>2077.55</ele>
        <time>2019-09-13T09:12:16Z</time>
      </trkpt>
      <trkpt lat="45.36652" lon="6.72759">
        <ele>2078.99</ele>
        <time>2019-09-13T09:12:31Z</time>
      </trkpt>
      <trkpt lat="45.36648" lon="6.72754">
        <ele>2080.43</ele>
        <time>2019-09-13T09:12:46Z</time>
      </trkpt>
      <trkpt lat="45.36645" lon="6.72749">
        <ele>2081.39</ele>
        <time>2019-09-13T09:12:59Z</time>
      </trkpt>
      <trkpt lat="45.36642" lon="6.72751">
        <ele>2082.83</ele>
        <time>2019-09-13T09:13:14Z</time>
      </trkpt>
      <trkpt lat="45.36638" lon="6.72743">
        <ele>2084.76</ele>
        <time>2019-09-13T09:13:30Z</time>
      </trkpt>
      <trkpt lat="45.36635" lon="6.72743">
        <ele>2086.2</ele>
        <time>2019-09-13T09:13:43Z</time>
      </trkpt>
      <trkpt lat="45.36631" lon="6.72747">
        <ele>2088.12</ele>
        <time>2019-09-13T09:13:54Z</time>
      </trkpt>
      <trkpt lat="45.36627" lon="6.72752">
        <ele>2089.08</ele>
        <time>2019-09-13T09:14:08Z</time>
      </trkpt>
      <trkpt lat="45.36624" lon="6.72752">
        <ele>2091</ele>
        <time>2019-09-13T09:14:25Z</time>
      </trkpt>
      <trkpt lat="45.36619" lon="6.72752">
        <ele>2093.41</ele>
        <time>2019-09-13T09:14:40Z</time>
      </trkpt>
      <trkpt lat="45.36619" lon="6.72761">
        <ele>2095.33</ele>
        <time>2019-09-13T09:14:56Z</time>
      </trkpt>
      <trkpt lat="45.36618" lon="6.72769">
        <ele>2096.77</ele>
        <time>2019-09-13T09:15:13Z</time>
      </trkpt>
      <trkpt lat="45.36615" lon="6.72773">
        <ele>2098.7</ele>
        <time>2019-09-13T09:15:26Z</time>
      </trkpt>
      <trkpt lat="45.36615" lon="6.7278">
        <ele>2101.1</ele>
        <time>2019-09-13T09:15:42Z</time>
      </trkpt>
      <trkpt lat="45.36608" lon="6.72779">
        <ele>2102.06</ele>
        <time>2019-09-13T09:15:57Z</time>
      </trkpt>
      <trkpt lat="45.36609" lon="6.72787">
        <ele>2103.5</ele>
        <time>2019-09-13T09:16:11Z</time>
      </trkpt>
      <trkpt lat="45.36611" lon="6.7279">
        <ele>2104.94</ele>
        <time>2019-09-13T09:16:26Z</time>
      </trkpt>
      <trkpt lat="45.3661" lon="6.72795">
        <ele>2107.35</ele>
        <time>2019-09-13T09:16:39Z</time>
      </trkpt>
      <trkpt lat="45.36611" lon="6.72801">
        <ele>2108.79</ele>
        <time>2019-09-13T09:16:53Z</time>
      </trkpt>
      <trkpt lat="45.36609" lon="6.72807">
        <ele>2110.71</ele>
        <time>2019-09-13T09:17:08Z</time>
      </trkpt>
      <trkpt lat="45.36607" lon="6.72811">
        <ele>2112.15</ele>
        <time>2019-09-13T09:17:22Z</time>
      </trkpt>
      <trkpt lat="45.36608" lon="6.72816">
        <ele>2114.56</ele>
        <time>2019-09-13T09:17:37Z</time>
      </trkpt>
      <trkpt lat="45.36608" lon="6.72821">
        <ele>2116</ele>
        <time>2019-09-13T09:17:52Z</time>
      </trkpt>
      <trkpt lat="45.36609" lon="6.72825">
        <ele>2117.44</ele>
        <time>2019-09-13T09:18:06Z</time>
      </trkpt>
      <trkpt lat="45.3661" lon="6.72828">
        <ele>2119.36</ele>
        <time>2019-09-13T09:18:23Z</time>
      </trkpt>
      <trkpt lat="45.36604" lon="6.72831">
        <ele>2121.29</ele>
        <time>2019-09-13T09:18:37Z</time>
      </trkpt>
      <trkpt lat="45.36605" lon="6.72838">
        <ele>2123.21</ele>
        <time>2019-09-13T09:18:55Z</time>
      </trkpt>
      <trkpt lat="45.36606" lon="6.72841">
        <ele>2125.61</ele>
        <time>2019-09-13T09:19:12Z</time>
      </trkpt>
      <trkpt lat="45.36604" lon="6.72844">
        <ele>2127.53</ele>
        <time>2019-09-13T09:19:27Z</time>
      </trkpt>
      <trkpt lat="45.36603" lon="6.72848">
        <ele>2128.5</ele>
        <time>2019-09-13T09:19:43Z</time>
      </trkpt>
      <trkpt lat="45.36603" lon="6.72854">
        <ele>2130.42</ele>
        <time>2019-09-13T09:19:58Z</time>
      </trkpt>
      <trkpt lat="45.36602" lon="6.72857">
        <ele>2131.86</ele>
        <time>2019-09-13T09:20:13Z</time>
      </trkpt>
      <trkpt lat="45.36606" lon="6.7286">
        <ele>2133.78</ele>
        <time>2019-09-13T09:20:28Z</time>
      </trkpt>
      <trkpt lat="45.36605" lon="6.72864">
        <ele>2135.23</ele>
        <time>2019-09-13T09:20:42Z</time>
      </trkpt>
      <trkpt lat="45.36603" lon="6.72867">
        <ele>2136.67</ele>
        <time>2019-09-13T09:21:00Z</time>
      </trkpt>
      <trkpt lat="45.366" lon="6.7287">
        <ele>2138.11</ele>
        <time>2019-09-13T09:21:15Z</time>
      </trkpt>
      <trkpt lat="45.36601" lon="6.72874">
        <ele>2139.55</ele>
        <time>2019-09-13T09:21:27Z</time>
      </trkpt>
      <trkpt lat="45.366" lon="6.72879">
        <ele>2141.95</ele>
        <time>2019-09-13T09:21:44Z</time>
      </trkpt>
      <trkpt lat="45.36601" lon="6.72878">
        <ele>2141.95</ele>
        <time>2019-09-13T09:22:00Z</time>
      </trkpt>
      <trkpt lat="45.36597" lon="6.72878">
        <ele>2143.4</ele>
        <time>2019-09-13T09:22:12Z</time>
      </trkpt>
      <trkpt lat="45.36592" lon="6.72874">
        <ele>2143.88</ele>
        <time>2019-09-13T09:22:24Z</time>
      </trkpt>
      <trkpt lat="45.3659" lon="6.72868">
        <ele>2144.84</ele>
        <time>2019-09-13T09:22:35Z</time>
      </trkpt>
      <trkpt lat="45.36588" lon="6.72864">
        <ele>2144.84</ele>
        <time>2019-09-13T09:22:47Z</time>
      </trkpt>
      <trkpt lat="45.36586" lon="6.7287">
        <ele>2147.24</ele>
        <time>2019-09-13T09:23:03Z</time>
      </trkpt>
      <trkpt lat="45.36584" lon="6.72875">
        <ele>2149.16</ele>
        <time>2019-09-13T09:23:18Z</time>
      </trkpt>
      <trkpt lat="45.36584" lon="6.72878">
        <ele>2151.09</ele>
        <time>2019-09-13T09:23:35Z</time>
      </trkpt>
      <trkpt lat="45.36585" lon="6.72874">
        <ele>2151.57</ele>
        <time>2019-09-13T09:23:47Z</time>
      </trkpt>
      <trkpt lat="45.3658" lon="6.72867">
        <ele>2151.57</ele>
        <time>2019-09-13T09:24:02Z</time>
      </trkpt>
      <trkpt lat="45.36574" lon="6.7286">
        <ele>2153.01</ele>
        <time>2019-09-13T09:24:18Z</time>
      </trkpt>
      <trkpt lat="45.36571" lon="6.72858">
        <ele>2153.97</ele>
        <time>2019-09-13T09:24:31Z</time>
      </trkpt>
      <trkpt lat="45.36569" lon="6.7286">
        <ele>2154.93</ele>
        <time>2019-09-13T09:24:49Z</time>
      </trkpt>
      <trkpt lat="45.36569" lon="6.72868">
        <ele>2156.86</ele>
        <time>2019-09-13T09:25:01Z</time>
      </trkpt>
      <trkpt lat="45.3657" lon="6.72877">
        <ele>2157.82</ele>
        <time>2019-09-13T09:25:16Z</time>
      </trkpt>
      <trkpt lat="45.36574" lon="6.72884">
        <ele>2158.3</ele>
        <time>2019-09-13T09:25:31Z</time>
      </trkpt>
      <trkpt lat="45.36576" lon="6.72891">
        <ele>2160.22</ele>
        <time>2019-09-13T09:25:46Z</time>
      </trkpt>
      <trkpt lat="45.36574" lon="6.72894">
        <ele>2162.14</ele>
        <time>2019-09-13T09:26:01Z</time>
      </trkpt>
      <trkpt lat="45.36571" lon="6.72898">
        <ele>2163.58</ele>
        <time>2019-09-13T09:26:16Z</time>
      </trkpt>
      <trkpt lat="45.36569" lon="6.72901">
        <ele>2165.03</ele>
        <time>2019-09-13T09:26:29Z</time>
      </trkpt>
      <trkpt lat="45.36568" lon="6.72906">
        <ele>2166.95</ele>
        <time>2019-09-13T09:26:46Z</time>
      </trkpt>
      <trkpt lat="45.36568" lon="6.72907">
        <ele>2166.95</ele>
        <time>2019-09-13T09:26:48Z</time>
      </trkpt>
      <trkpt lat="45.36572" lon="6.72912">
        <ele>2167.91</ele>
        <time>2019-09-13T09:27:01Z</time>
      </trkpt>
      <trkpt lat="45.36572" lon="6.72914">
        <ele>2168.87</ele>
        <time>2019-09-13T09:27:13Z</time>
      </trkpt>
      <trkpt lat="45.36569" lon="6.72915">
        <ele>2169.35</ele>
        <time>2019-09-13T09:27:28Z</time>
      </trkpt>
      <trkpt lat="45.36567" lon="6.72917">
        <ele>2171.27</ele>
        <time>2019-09-13T09:27:42Z</time>
      </trkpt>
      <trkpt lat="45.36564" lon="6.72909">
        <ele>2172.24</ele>
        <time>2019-09-13T09:27:54Z</time>
      </trkpt>
      <trkpt lat="45.36561" lon="6.72904">
        <ele>2174.16</ele>
        <time>2019-09-13T09:28:09Z</time>
      </trkpt>
      <trkpt lat="45.36559" lon="6.729">
        <ele>2175.6</ele>
        <time>2019-09-13T09:28:21Z</time>
      </trkpt>
      <trkpt lat="45.36555" lon="6.72894">
        <ele>2177.52</ele>
        <time>2019-09-13T09:28:36Z</time>
      </trkpt>
      <trkpt lat="45.36551" lon="6.72888">
        <ele>2178.48</ele>
        <time>2019-09-13T09:28:50Z</time>
      </trkpt>
      <trkpt lat="45.36549" lon="6.7289">
        <ele>2179.93</ele>
        <time>2019-09-13T09:29:03Z</time>
      </trkpt>
      <trkpt lat="45.36547" lon="6.72892">
        <ele>2181.37</ele>
        <time>2019-09-13T09:29:17Z</time>
      </trkpt>
      <trkpt lat="45.36548" lon="6.72903">
        <ele>2183.29</ele>
        <time>2019-09-13T09:29:32Z</time>
      </trkpt>
      <trkpt lat="45.36545" lon="6.72898">
        <ele>2184.25</ele>
        <time>2019-09-13T09:29:49Z</time>
      </trkpt>
      <trkpt lat="45.36542" lon="6.72888">
        <ele>2185.69</ele>
        <time>2019-09-13T09:30:05Z</time>
      </trkpt>
      <trkpt lat="45.36537" lon="6.72891">
        <ele>2187.62</ele>
        <time>2019-09-13T09:30:19Z</time>
      </trkpt>
      <trkpt lat="45.36531" lon="6.72895">
        <ele>2189.06</ele>
        <time>2019-09-13T09:30:36Z</time>
      </trkpt>
      <trkpt lat="45.36524" lon="6.72896">
        <ele>2190.02</ele>
        <time>2019-09-13T09:30:50Z</time>
      </trkpt>
      <trkpt lat="45.36516" lon="6.72903">
        <ele>2190.5</ele>
        <time>2019-09-13T09:31:04Z</time>
      </trkpt>
      <trkpt lat="45.36509" lon="6.72911">
        <ele>2191.94</ele>
        <time>2019-09-13T09:31:19Z</time>
      </trkpt>
      <trkpt lat="45.36509" lon="6.72919">
        <ele>2194.35</ele>
        <time>2019-09-13T09:31:37Z</time>
      </trkpt>
      <trkpt lat="45.36511" lon="6.72924">
        <ele>2195.31</ele>
        <time>2019-09-13T09:31:52Z</time>
      </trkpt>
      <trkpt lat="45.36509" lon="6.72928">
        <ele>2196.75</ele>
        <time>2019-09-13T09:32:04Z</time>
      </trkpt>
      <trkpt lat="45.36509" lon="6.72932">
        <ele>2198.67</ele>
        <time>2019-09-13T09:32:19Z</time>
      </trkpt>
      <trkpt lat="45.36514" lon="6.72934">
        <ele>2200.11</ele>
        <time>2019-09-13T09:32:31Z</time>
      </trkpt>
      <trkpt lat="45.36512" lon="6.7294">
        <ele>2201.56</ele>
        <time>2019-09-13T09:32:45Z</time>
      </trkpt>
      <trkpt lat="45.3651" lon="6.72943">
        <ele>2203</ele>
        <time>2019-09-13T09:33:01Z</time>
      </trkpt>
      <trkpt lat="45.3651" lon="6.72946">
        <ele>2203.48</ele>
        <time>2019-09-13T09:33:15Z</time>
      </trkpt>
      <trkpt lat="45.36509" lon="6.7295">
        <ele>2204.92</ele>
        <time>2019-09-13T09:33:29Z</time>
      </trkpt>
      <trkpt lat="45.36511" lon="6.72955">
        <ele>2206.36</ele>
        <time>2019-09-13T09:33:45Z</time>
      </trkpt>
      <trkpt lat="45.36513" lon="6.72959">
        <ele>2207.32</ele>
        <time>2019-09-13T09:34:01Z</time>
      </trkpt>
      <trkpt lat="45.36514" lon="6.72963">
        <ele>2208.29</ele>
        <time>2019-09-13T09:34:13Z</time>
      </trkpt>
      <trkpt lat="45.36518" lon="6.72968">
        <ele>2209.73</ele>
        <time>2019-09-13T09:34:26Z</time>
      </trkpt>
      <trkpt lat="45.36517" lon="6.72971">
        <ele>2211.65</ele>
        <time>2019-09-13T09:34:38Z</time>
      </trkpt>
      <trkpt lat="45.36519" lon="6.72977">
        <ele>2212.61</ele>
        <time>2019-09-13T09:34:51Z</time>
      </trkpt>
      <trkpt lat="45.36517" lon="6.72973">
        <ele>2213.09</ele>
        <time>2019-09-13T09:35:09Z</time>
      </trkpt>
      <trkpt lat="45.36515" lon="6.72972">
        <ele>2214.05</ele>
        <time>2019-09-13T09:35:32Z</time>
      </trkpt>
      <trkpt lat="45.36513" lon="6.72973">
        <ele>2214.53</ele>
        <time>2019-09-13T09:35:51Z</time>
      </trkpt>
      <trkpt lat="45.36505" lon="6.72972">
        <ele>2215.98</ele>
        <time>2019-09-13T09:36:06Z</time>
      </trkpt>
      <trkpt lat="45.36504" lon="6.72977">
        <ele>2217.42</ele>
        <time>2019-09-13T09:36:22Z</time>
      </trkpt>
      <trkpt lat="45.36502" lon="6.72977">
        <ele>2218.38</ele>
        <time>2019-09-13T09:36:39Z</time>
      </trkpt>
      <trkpt lat="45.36502" lon="6.72982">
        <ele>2219.82</ele>
        <time>2019-09-13T09:36:50Z</time>
      </trkpt>
      <trkpt lat="45.365" lon="6.72987">
        <ele>2221.26</ele>
        <time>2019-09-13T09:37:04Z</time>
      </trkpt>
      <trkpt lat="45.36498" lon="6.7299">
        <ele>2223.19</ele>
        <time>2019-09-13T09:37:18Z</time>
      </trkpt>
      <trkpt lat="45.36499" lon="6.72991">
        <ele>2224.15</ele>
        <time>2019-09-13T09:37:29Z</time>
      </trkpt>
      <trkpt lat="45.36499" lon="6.72996">
        <ele>2226.55</ele>
        <time>2019-09-13T09:37:47Z</time>
      </trkpt>
      <trkpt lat="45.36501" lon="6.72999">
        <ele>2227.99</ele>
        <time>2019-09-13T09:38:00Z</time>
      </trkpt>
      <trkpt lat="45.365" lon="6.73001">
        <ele>2229.43</ele>
        <time>2019-09-13T09:38:14Z</time>
      </trkpt>
      <trkpt lat="45.365" lon="6.73005">
        <ele>2231.36</ele>
        <time>2019-09-13T09:38:30Z</time>
      </trkpt>
      <trkpt lat="45.36503" lon="6.73006">
        <ele>2231.84</ele>
        <time>2019-09-13T09:38:43Z</time>
      </trkpt>
      <trkpt lat="45.36502" lon="6.73008">
        <ele>2232.32</ele>
        <time>2019-09-13T09:39:04Z</time>
      </trkpt>
      <trkpt lat="45.36503" lon="6.73008">
        <ele>2232.32</ele>
        <time>2019-09-13T09:39:23Z</time>
      </trkpt>
      <trkpt lat="45.36506" lon="6.73006">
        <ele>2232.8</ele>
        <time>2019-09-13T09:39:53Z</time>
      </trkpt>
      <trkpt lat="45.36503" lon="6.73005">
        <ele>2232.8</ele>
        <time>2019-09-13T09:40:12Z</time>
      </trkpt>
      <trkpt lat="45.36503" lon="6.73007">
        <ele>2232.8</ele>
        <time>2019-09-13T09:40:34Z</time>
      </trkpt>
      <trkpt lat="45.36501" lon="6.73006">
        <ele>2232.8</ele>
        <time>2019-09-13T09:40:55Z</time>
      </trkpt>
      <trkpt lat="45.36502" lon="6.73005">
        <ele>2233.28</ele>
        <time>2019-09-13T09:41:13Z</time>
      </trkpt>
      <trkpt lat="45.36505" lon="6.73005">
        <ele>2233.28</ele>
        <time>2019-09-13T09:41:27Z</time>
      </trkpt>
      <trkpt lat="45.36501" lon="6.73008">
        <ele>2233.28</ele>
        <time>2019-09-13T09:41:42Z</time>
      </trkpt>
      <trkpt lat="45.36499" lon="6.73009">
        <ele>2233.28</ele>
        <time>2019-09-13T09:42:00Z</time>
      </trkpt>
      <trkpt lat="45.365" lon="6.7301">
        <ele>2233.28</ele>
        <time>2019-09-13T09:42:16Z</time>
      </trkpt>
      <trkpt lat="45.365" lon="6.73009">
        <ele>2234.24</ele>
        <time>2019-09-13T09:42:38Z</time>
      </trkpt>
      <trkpt lat="45.365" lon="6.73008">
        <ele>2232.8</ele>
        <time>2019-09-13T09:42:40Z</time>
      </trkpt>
      <trkpt lat="45.36499" lon="6.73006">
        <ele>2232.8</ele>
        <time>2019-09-13T09:43:04Z</time>
      </trkpt>
      <trkpt lat="45.365" lon="6.73006">
        <ele>2232.8</ele>
        <time>2019-09-13T09:43:19Z</time>
      </trkpt>
      <trkpt lat="45.36501" lon="6.7301">
        <ele>2234.24</ele>
        <time>2019-09-13T09:43:33Z</time>
      </trkpt>
      <trkpt lat="45.36497" lon="6.73011">
        <ele>2236.16</ele>
        <time>2019-09-13T09:43:47Z</time>
      </trkpt>
      <trkpt lat="45.36502" lon="6.7302">
        <ele>2238.57</ele>
        <time>2019-09-13T09:44:03Z</time>
      </trkpt>
      <trkpt lat="45.36505" lon="6.73026">
        <ele>2240.49</ele>
        <time>2019-09-13T09:44:18Z</time>
      </trkpt>
      <trkpt lat="45.36502" lon="6.73028">
        <ele>2242.41</ele>
        <time>2019-09-13T09:44:34Z</time>
      </trkpt>
      <trkpt lat="45.36494" lon="6.73025">
        <ele>2243.85</ele>
        <time>2019-09-13T09:44:47Z</time>
      </trkpt>
      <trkpt lat="45.36491" lon="6.73022">
        <ele>2245.3</ele>
        <time>2019-09-13T09:45:01Z</time>
      </trkpt>
      <trkpt lat="45.36486" lon="6.73018">
        <ele>2246.26</ele>
        <time>2019-09-13T09:45:14Z</time>
      </trkpt>
      <trkpt lat="45.36483" lon="6.73016">
        <ele>2247.7</ele>
        <time>2019-09-13T09:45:26Z</time>
      </trkpt>
      <trkpt lat="45.3648" lon="6.73017">
        <ele>2249.14</ele>
        <time>2019-09-13T09:45:42Z</time>
      </trkpt>
      <trkpt lat="45.3648" lon="6.73024">
        <ele>2251.06</ele>
        <time>2019-09-13T09:45:55Z</time>
      </trkpt>
      <trkpt lat="45.36478" lon="6.73031">
        <ele>2252.99</ele>
        <time>2019-09-13T09:46:10Z</time>
      </trkpt>
      <trkpt lat="45.36478" lon="6.73037">
        <ele>2253.95</ele>
        <time>2019-09-13T09:46:21Z</time>
      </trkpt>
      <trkpt lat="45.36481" lon="6.73045">
        <ele>2255.87</ele>
        <time>2019-09-13T09:46:37Z</time>
      </trkpt>
      <trkpt lat="45.3648" lon="6.73045">
        <ele>2257.79</ele>
        <time>2019-09-13T09:46:53Z</time>
      </trkpt>
      <trkpt lat="45.36476" lon="6.73046">
        <ele>2258.75</ele>
        <time>2019-09-13T09:47:08Z</time>
      </trkpt>
      <trkpt lat="45.36471" lon="6.73042">
        <ele>2260.2</ele>
        <time>2019-09-13T09:47:23Z</time>
      </trkpt>
      <trkpt lat="45.36472" lon="6.73047">
        <ele>2261.16</ele>
        <time>2019-09-13T09:47:36Z</time>
      </trkpt>
      <trkpt lat="45.36474" lon="6.73056">
        <ele>2263.08</ele>
        <time>2019-09-13T09:47:51Z</time>
      </trkpt>
      <trkpt lat="45.36475" lon="6.73067">
        <ele>2264.52</ele>
        <time>2019-09-13T09:48:07Z</time>
      </trkpt>
      <trkpt lat="45.36476" lon="6.73075">
        <ele>2265.96</ele>
        <time>2019-09-13T09:48:19Z</time>
      </trkpt>
      <trkpt lat="45.36481" lon="6.73082">
        <ele>2266.93</ele>
        <time>2019-09-13T09:48:32Z</time>
      </trkpt>
      <trkpt lat="45.36488" lon="6.7309">
        <ele>2267.41</ele>
        <time>2019-09-13T09:48:46Z</time>
      </trkpt>
      <trkpt lat="45.36488" lon="6.73101">
        <ele>2268.85</ele>
        <time>2019-09-13T09:49:02Z</time>
      </trkpt>
      <trkpt lat="45.36491" lon="6.7311">
        <ele>2270.29</ele>
        <time>2019-09-13T09:49:15Z</time>
      </trkpt>
      <trkpt lat="45.3649" lon="6.73117">
        <ele>2271.73</ele>
        <time>2019-09-13T09:49:29Z</time>
      </trkpt>
      <trkpt lat="45.36495" lon="6.73122">
        <ele>2273.17</ele>
        <time>2019-09-13T09:49:42Z</time>
      </trkpt>
      <trkpt lat="45.36502" lon="6.73124">
        <ele>2274.62</ele>
        <time>2019-09-13T09:50:02Z</time>
      </trkpt>
      <trkpt lat="45.36506" lon="6.73132">
        <ele>2277.02</ele>
        <time>2019-09-13T09:50:20Z</time>
      </trkpt>
      <trkpt lat="45.36499" lon="6.73134">
        <ele>2278.46</ele>
        <time>2019-09-13T09:50:35Z</time>
      </trkpt>
      <trkpt lat="45.36496" lon="6.73143">
        <ele>2280.38</ele>
        <time>2019-09-13T09:50:48Z</time>
      </trkpt>
      <trkpt lat="45.36498" lon="6.73152">
        <ele>2281.35</ele>
        <time>2019-09-13T09:51:04Z</time>
      </trkpt>
      <trkpt lat="45.36501" lon="6.7316">
        <ele>2283.27</ele>
        <time>2019-09-13T09:51:20Z</time>
      </trkpt>
      <trkpt lat="45.36505" lon="6.73164">
        <ele>2284.71</ele>
        <time>2019-09-13T09:51:35Z</time>
      </trkpt>
      <trkpt lat="45.36502" lon="6.73165">
        <ele>2286.63</ele>
        <time>2019-09-13T09:51:51Z</time>
      </trkpt>
      <trkpt lat="45.36501" lon="6.73173">
        <ele>2288.08</ele>
        <time>2019-09-13T09:52:03Z</time>
      </trkpt>
      <trkpt lat="45.36504" lon="6.73176">
        <ele>2289.04</ele>
        <time>2019-09-13T09:52:17Z</time>
      </trkpt>
      <trkpt lat="45.36506" lon="6.73178">
        <ele>2290.48</ele>
        <time>2019-09-13T09:52:29Z</time>
      </trkpt>
      <trkpt lat="45.36507" lon="6.73186">
        <ele>2291.92</ele>
        <time>2019-09-13T09:52:44Z</time>
      </trkpt>
      <trkpt lat="45.36506" lon="6.73193">
        <ele>2292.88</ele>
        <time>2019-09-13T09:52:57Z</time>
      </trkpt>
      <trkpt lat="45.36506" lon="6.73196">
        <ele>2294.8</ele>
        <time>2019-09-13T09:53:12Z</time>
      </trkpt>
      <trkpt lat="45.36505" lon="6.732">
        <ele>2296.73</ele>
        <time>2019-09-13T09:53:28Z</time>
      </trkpt>
      <trkpt lat="45.36507" lon="6.73205">
        <ele>2297.69</ele>
        <time>2019-09-13T09:53:41Z</time>
      </trkpt>
      <trkpt lat="45.36508" lon="6.73208">
        <ele>2299.13</ele>
        <time>2019-09-13T09:53:59Z</time>
      </trkpt>
      <trkpt lat="45.36507" lon="6.73216">
        <ele>2300.57</ele>
        <time>2019-09-13T09:54:12Z</time>
      </trkpt>
      <trkpt lat="45.3651" lon="6.73221">
        <ele>2302.01</ele>
        <time>2019-09-13T09:54:31Z</time>
      </trkpt>
      <trkpt lat="45.36512" lon="6.73228">
        <ele>2303.46</ele>
        <time>2019-09-13T09:54:49Z</time>
      </trkpt>
      <trkpt lat="45.36513" lon="6.73232">
        <ele>2304.42</ele>
        <time>2019-09-13T09:55:02Z</time>
      </trkpt>
      <trkpt lat="45.36517" lon="6.73236">
        <ele>2306.34</ele>
        <time>2019-09-13T09:55:17Z</time>
      </trkpt>
      <trkpt lat="45.36522" lon="6.73239">
        <ele>2308.26</ele>
        <time>2019-09-13T09:55:32Z</time>
      </trkpt>
      <trkpt lat="45.36524" lon="6.73245">
        <ele>2308.74</ele>
        <time>2019-09-13T09:55:44Z</time>
      </trkpt>
      <trkpt lat="45.36526" lon="6.73251">
        <ele>2310.67</ele>
        <time>2019-09-13T09:55:57Z</time>
      </trkpt>
      <trkpt lat="45.36522" lon="6.73255">
        <ele>2311.63</ele>
        <time>2019-09-13T09:56:14Z</time>
      </trkpt>
      <trkpt lat="45.36519" lon="6.73266">
        <ele>2313.07</ele>
        <time>2019-09-13T09:56:29Z</time>
      </trkpt>
      <trkpt lat="45.36518" lon="6.73275">
        <ele>2314.51</ele>
        <time>2019-09-13T09:56:46Z</time>
      </trkpt>
      <trkpt lat="45.36511" lon="6.73274">
        <ele>2315.95</ele>
        <time>2019-09-13T09:57:01Z</time>
      </trkpt>
      <trkpt lat="45.36508" lon="6.73277">
        <ele>2316.91</ele>
        <time>2019-09-13T09:57:14Z</time>
      </trkpt>
      <trkpt lat="45.36505" lon="6.7328">
        <ele>2318.84</ele>
        <time>2019-09-13T09:57:29Z</time>
      </trkpt>
      <trkpt lat="45.36504" lon="6.73279">
        <ele>2319.8</ele>
        <time>2019-09-13T09:57:40Z</time>
      </trkpt>
      <trkpt lat="45.36502" lon="6.73281">
        <ele>2321.24</ele>
        <time>2019-09-13T09:57:53Z</time>
      </trkpt>
      <trkpt lat="45.36498" lon="6.73278">
        <ele>2322.68</ele>
        <time>2019-09-13T09:58:07Z</time>
      </trkpt>
      <trkpt lat="45.36493" lon="6.73273">
        <ele>2323.64</ele>
        <time>2019-09-13T09:58:24Z</time>
      </trkpt>
      <trkpt lat="45.36483" lon="6.73268">
        <ele>2324.12</ele>
        <time>2019-09-13T09:58:40Z</time>
      </trkpt>
      <trkpt lat="45.36474" lon="6.73266">
        <ele>2325.09</ele>
        <time>2019-09-13T09:58:57Z</time>
      </trkpt>
      <trkpt lat="45.36464" lon="6.73265">
        <ele>2326.05</ele>
        <time>2019-09-13T09:59:14Z</time>
      </trkpt>
      <trkpt lat="45.36455" lon="6.73261">
        <ele>2327.49</ele>
        <time>2019-09-13T09:59:30Z</time>
      </trkpt>
      <trkpt lat="45.36449" lon="6.73261">
        <ele>2329.41</ele>
        <time>2019-09-13T09:59:48Z</time>
      </trkpt>
      <trkpt lat="45.36443" lon="6.7326">
        <ele>2330.37</ele>
        <time>2019-09-13T10:00:02Z</time>
      </trkpt>
      <trkpt lat="45.36433" lon="6.73262">
        <ele>2331.33</ele>
        <time>2019-09-13T10:00:19Z</time>
      </trkpt>
      <trkpt lat="45.36424" lon="6.73268">
        <ele>2331.81</ele>
        <time>2019-09-13T10:00:34Z</time>
      </trkpt>
      <trkpt lat="45.36419" lon="6.73279">
        <ele>2333.74</ele>
        <time>2019-09-13T10:00:54Z</time>
      </trkpt>
      <trkpt lat="45.36418" lon="6.73285">
        <ele>2335.18</ele>
        <time>2019-09-13T10:01:08Z</time>
      </trkpt>
      <trkpt lat="45.36423" lon="6.73291">
        <ele>2336.62</ele>
        <time>2019-09-13T10:01:23Z</time>
      </trkpt>
      <trkpt lat="45.36424" lon="6.73295">
        <ele>2338.06</ele>
        <time>2019-09-13T10:01:41Z</time>
      </trkpt>
      <trkpt lat="45.36417" lon="6.73296">
        <ele>2339.51</ele>
        <time>2019-09-13T10:01:55Z</time>
      </trkpt>
      <trkpt lat="45.3641" lon="6.73301">
        <ele>2340.95</ele>
        <time>2019-09-13T10:02:12Z</time>
      </trkpt>
      <trkpt lat="45.36406" lon="6.73305">
        <ele>2342.39</ele>
        <time>2019-09-13T10:02:27Z</time>
      </trkpt>
      <trkpt lat="45.36401" lon="6.73306">
        <ele>2343.83</ele>
        <time>2019-09-13T10:02:42Z</time>
      </trkpt>
      <trkpt lat="45.36408" lon="6.73313">
        <ele>2345.27</ele>
        <time>2019-09-13T10:02:55Z</time>
      </trkpt>
      <trkpt lat="45.36414" lon="6.73313">
        <ele>2346.72</ele>
        <time>2019-09-13T10:03:11Z</time>
      </trkpt>
      <trkpt lat="45.36408" lon="6.7332">
        <ele>2348.64</ele>
        <time>2019-09-13T10:03:26Z</time>
      </trkpt>
      <trkpt lat="45.36403" lon="6.73324">
        <ele>2350.56</ele>
        <time>2019-09-13T10:03:42Z</time>
      </trkpt>
      <trkpt lat="45.36398" lon="6.73329">
        <ele>2352</ele>
        <time>2019-09-13T10:03:56Z</time>
      </trkpt>
      <trkpt lat="45.36394" lon="6.73337">
        <ele>2352.96</ele>
        <time>2019-09-13T10:04:13Z</time>
      </trkpt>
      <trkpt lat="45.36388" lon="6.73336">
        <ele>2354.89</ele>
        <time>2019-09-13T10:04:29Z</time>
      </trkpt>
      <trkpt lat="45.36382" lon="6.7334">
        <ele>2356.33</ele>
        <time>2019-09-13T10:04:44Z</time>
      </trkpt>
      <trkpt lat="45.36377" lon="6.73345">
        <ele>2358.25</ele>
        <time>2019-09-13T10:05:02Z</time>
      </trkpt>
      <trkpt lat="45.36372" lon="6.73344">
        <ele>2359.69</ele>
        <time>2019-09-13T10:05:18Z</time>
      </trkpt>
      <trkpt lat="45.36366" lon="6.73346">
        <ele>2361.62</ele>
        <time>2019-09-13T10:05:35Z</time>
      </trkpt>
      <trkpt lat="45.36362" lon="6.73346">
        <ele>2363.06</ele>
        <time>2019-09-13T10:05:51Z</time>
      </trkpt>
      <trkpt lat="45.36358" lon="6.73344">
        <ele>2364.5</ele>
        <time>2019-09-13T10:06:03Z</time>
      </trkpt>
      <trkpt lat="45.36352" lon="6.7334">
        <ele>2365.46</ele>
        <time>2019-09-13T10:06:16Z</time>
      </trkpt>
      <trkpt lat="45.36347" lon="6.73329">
        <ele>2366.42</ele>
        <time>2019-09-13T10:06:32Z</time>
      </trkpt>
      <trkpt lat="45.36338" lon="6.7333">
        <ele>2367.38</ele>
        <time>2019-09-13T10:06:47Z</time>
      </trkpt>
      <trkpt lat="45.3633" lon="6.73317">
        <ele>2368.35</ele>
        <time>2019-09-13T10:07:03Z</time>
      </trkpt>
      <trkpt lat="45.36323" lon="6.73306">
        <ele>2370.27</ele>
        <time>2019-09-13T10:07:21Z</time>
      </trkpt>
      <trkpt lat="45.36317" lon="6.73292">
        <ele>2370.75</ele>
        <time>2019-09-13T10:07:37Z</time>
      </trkpt>
      <trkpt lat="45.3631" lon="6.73281">
        <ele>2372.19</ele>
        <time>2019-09-13T10:07:53Z</time>
      </trkpt>
      <trkpt lat="45.36305" lon="6.73276">
        <ele>2373.63</ele>
        <time>2019-09-13T10:08:08Z</time>
      </trkpt>
      <trkpt lat="45.36304" lon="6.73266">
        <ele>2376.04</ele>
        <time>2019-09-13T10:08:29Z</time>
      </trkpt>
      <trkpt lat="45.363" lon="6.73256">
        <ele>2377.48</ele>
        <time>2019-09-13T10:08:46Z</time>
      </trkpt>
      <trkpt lat="45.36297" lon="6.7326">
        <ele>2379.4</ele>
        <time>2019-09-13T10:08:59Z</time>
      </trkpt>
      <trkpt lat="45.36293" lon="6.73264">
        <ele>2380.84</ele>
        <time>2019-09-13T10:09:12Z</time>
      </trkpt>
      <trkpt lat="45.36287" lon="6.73272">
        <ele>2382.28</ele>
        <time>2019-09-13T10:09:28Z</time>
      </trkpt>
      <trkpt lat="45.36284" lon="6.73278">
        <ele>2384.69</ele>
        <time>2019-09-13T10:09:43Z</time>
      </trkpt>
      <trkpt lat="45.36283" lon="6.73286">
        <ele>2386.61</ele>
        <time>2019-09-13T10:10:00Z</time>
      </trkpt>
      <trkpt lat="45.36282" lon="6.73292">
        <ele>2388.53</ele>
        <time>2019-09-13T10:10:15Z</time>
      </trkpt>
      <trkpt lat="45.36279" lon="6.733">
        <ele>2389.49</ele>
        <time>2019-09-13T10:10:27Z</time>
      </trkpt>
      <trkpt lat="45.3628" lon="6.73312">
        <ele>2391.42</ele>
        <time>2019-09-13T10:10:45Z</time>
      </trkpt>
      <trkpt lat="45.36278" lon="6.73322">
        <ele>2393.34</ele>
        <time>2019-09-13T10:11:02Z</time>
      </trkpt>
      <trkpt lat="45.36276" lon="6.73324">
        <ele>2394.3</ele>
        <time>2019-09-13T10:11:14Z</time>
      </trkpt>
      <trkpt lat="45.36274" lon="6.7333">
        <ele>2395.26</ele>
        <time>2019-09-13T10:11:30Z</time>
      </trkpt>
      <trkpt lat="45.3627" lon="6.73337">
        <ele>2397.18</ele>
        <time>2019-09-13T10:11:46Z</time>
      </trkpt>
      <trkpt lat="45.36266" lon="6.73327">
        <ele>2398.15</ele>
        <time>2019-09-13T10:12:02Z</time>
      </trkpt>
      <trkpt lat="45.36264" lon="6.7331">
        <ele>2398.15</ele>
        <time>2019-09-13T10:12:19Z</time>
      </trkpt>
      <trkpt lat="45.36258" lon="6.73298">
        <ele>2399.11</ele>
        <time>2019-09-13T10:12:34Z</time>
      </trkpt>
      <trkpt lat="45.36254" lon="6.73287">
        <ele>2401.03</ele>
        <time>2019-09-13T10:12:50Z</time>
      </trkpt>
      <trkpt lat="45.3625" lon="6.73276">
        <ele>2402.95</ele>
        <time>2019-09-13T10:13:08Z</time>
      </trkpt>
      <trkpt lat="45.36246" lon="6.73268">
        <ele>2405.36</ele>
        <time>2019-09-13T10:13:24Z</time>
      </trkpt>
      <trkpt lat="45.3624" lon="6.73252">
        <ele>2405.36</ele>
        <time>2019-09-13T10:13:42Z</time>
      </trkpt>
      <trkpt lat="45.36233" lon="6.7324">
        <ele>2405.36</ele>
        <time>2019-09-13T10:13:56Z</time>
      </trkpt>
      <trkpt lat="45.36227" lon="6.73228">
        <ele>2405.84</ele>
        <time>2019-09-13T10:14:11Z</time>
      </trkpt>
      <trkpt lat="45.36224" lon="6.73217">
        <ele>2406.8</ele>
        <time>2019-09-13T10:14:25Z</time>
      </trkpt>
      <trkpt lat="45.36223" lon="6.73207">
        <ele>2407.76</ele>
        <time>2019-09-13T10:14:38Z</time>
      </trkpt>
      <trkpt lat="45.36221" lon="6.73193">
        <ele>2409.68</ele>
        <time>2019-09-13T10:14:55Z</time>
      </trkpt>
      <trkpt lat="45.3622" lon="6.73182">
        <ele>2410.64</ele>
        <time>2019-09-13T10:15:09Z</time>
      </trkpt>
      <trkpt lat="45.36217" lon="6.73172">
        <ele>2412.09</ele>
        <time>2019-09-13T10:15:24Z</time>
      </trkpt>
      <trkpt lat="45.36215" lon="6.7316">
        <ele>2413.53</ele>
        <time>2019-09-13T10:15:40Z</time>
      </trkpt>
      <trkpt lat="45.36215" lon="6.73152">
        <ele>2414.49</ele>
        <time>2019-09-13T10:15:58Z</time>
      </trkpt>
      <trkpt lat="45.36216" lon="6.73143">
        <ele>2416.41</ele>
        <time>2019-09-13T10:16:13Z</time>
      </trkpt>
      <trkpt lat="45.36218" lon="6.73137">
        <ele>2417.85</ele>
        <time>2019-09-13T10:16:29Z</time>
      </trkpt>
      <trkpt lat="45.36219" lon="6.73131">
        <ele>2419.78</ele>
        <time>2019-09-13T10:16:44Z</time>
      </trkpt>
      <trkpt lat="45.3622" lon="6.73125">
        <ele>2421.22</ele>
        <time>2019-09-13T10:16:57Z</time>
      </trkpt>
      <trkpt lat="45.36218" lon="6.73121">
        <ele>2422.66</ele>
        <time>2019-09-13T10:17:10Z</time>
      </trkpt>
      <trkpt lat="45.3622" lon="6.73112">
        <ele>2424.58</ele>
        <time>2019-09-13T10:17:27Z</time>
      </trkpt>
      <trkpt lat="45.36221" lon="6.73107">
        <ele>2426.02</ele>
        <time>2019-09-13T10:17:42Z</time>
      </trkpt>
      <trkpt lat="45.36221" lon="6.731">
        <ele>2427.95</ele>
        <time>2019-09-13T10:17:56Z</time>
      </trkpt>
      <trkpt lat="45.36221" lon="6.73089">
        <ele>2429.87</ele>
        <time>2019-09-13T10:18:15Z</time>
      </trkpt>
      <trkpt lat="45.36219" lon="6.73077">
        <ele>2432.75</ele>
        <time>2019-09-13T10:18:37Z</time>
      </trkpt>
      <trkpt lat="45.36215" lon="6.73066">
        <ele>2434.2</ele>
        <time>2019-09-13T10:18:55Z</time>
      </trkpt>
      <trkpt lat="45.36213" lon="6.73057">
        <ele>2436.6</ele>
        <time>2019-09-13T10:19:14Z</time>
      </trkpt>
      <trkpt lat="45.36208" lon="6.73051">
        <ele>2438.52</ele>
        <time>2019-09-13T10:19:30Z</time>
      </trkpt>
      <trkpt lat="45.36202" lon="6.73043">
        <ele>2440.92</ele>
        <time>2019-09-13T10:19:51Z</time>
      </trkpt>
      <trkpt lat="45.36205" lon="6.73037">
        <ele>2441.89</ele>
        <time>2019-09-13T10:20:11Z</time>
      </trkpt>
      <trkpt lat="45.36205" lon="6.73033">
        <ele>2441.89</ele>
        <time>2019-09-13T10:20:26Z</time>
      </trkpt>
      <trkpt lat="45.36205" lon="6.73029">
        <ele>2442.37</ele>
        <time>2019-09-13T10:20:39Z</time>
      </trkpt>
      <trkpt lat="45.36203" lon="6.73032">
        <ele>2444.29</ele>
        <time>2019-09-13T10:20:56Z</time>
      </trkpt>
      <trkpt lat="45.36201" lon="6.73026">
        <ele>2445.25</ele>
        <time>2019-09-13T10:21:11Z</time>
      </trkpt>
      <trkpt lat="45.362" lon="6.73022">
        <ele>2446.69</ele>
        <time>2019-09-13T10:21:28Z</time>
      </trkpt>
      <trkpt lat="45.36197" lon="6.73018">
        <ele>2448.13</ele>
        <time>2019-09-13T10:21:44Z</time>
      </trkpt>
      <trkpt lat="45.36191" lon="6.73013">
        <ele>2450.06</ele>
        <time>2019-09-13T10:21:59Z</time>
      </trkpt>
      <trkpt lat="45.3619" lon="6.73008">
        <ele>2451.5</ele>
        <time>2019-09-13T10:22:16Z</time>
      </trkpt>
      <trkpt lat="45.36186" lon="6.73001">
        <ele>2453.42</ele>
        <time>2019-09-13T10:22:31Z</time>
      </trkpt>
      <trkpt lat="45.3618" lon="6.72996">
        <ele>2454.86</ele>
        <time>2019-09-13T10:22:47Z</time>
      </trkpt>
      <trkpt lat="45.36173" lon="6.72987">
        <ele>2456.79</ele>
        <time>2019-09-13T10:23:04Z</time>
      </trkpt>
      <trkpt lat="45.36169" lon="6.72976">
        <ele>2457.75</ele>
        <time>2019-09-13T10:23:21Z</time>
      </trkpt>
      <trkpt lat="45.36164" lon="6.7297">
        <ele>2459.67</ele>
        <time>2019-09-13T10:23:35Z</time>
      </trkpt>
      <trkpt lat="45.36161" lon="6.72966">
        <ele>2461.59</ele>
        <time>2019-09-13T10:23:51Z</time>
      </trkpt>
      <trkpt lat="45.36158" lon="6.72962">
        <ele>2463.52</ele>
        <time>2019-09-13T10:24:07Z</time>
      </trkpt>
      <trkpt lat="45.36155" lon="6.72954">
        <ele>2465.92</ele>
        <time>2019-09-13T10:24:26Z</time>
      </trkpt>
      <trkpt lat="45.36152" lon="6.72952">
        <ele>2467.84</ele>
        <time>2019-09-13T10:24:39Z</time>
      </trkpt>
      <trkpt lat="45.3615" lon="6.72947">
        <ele>2469.76</ele>
        <time>2019-09-13T10:24:54Z</time>
      </trkpt>
      <trkpt lat="45.36146" lon="6.72942">
        <ele>2471.21</ele>
        <time>2019-09-13T10:25:09Z</time>
      </trkpt>
      <trkpt lat="45.36144" lon="6.72937">
        <ele>2473.13</ele>
        <time>2019-09-13T10:25:21Z</time>
      </trkpt>
      <trkpt lat="45.36143" lon="6.72934">
        <ele>2474.09</ele>
        <time>2019-09-13T10:25:35Z</time>
      </trkpt>
      <trkpt lat="45.36142" lon="6.72927">
        <ele>2475.53</ele>
        <time>2019-09-13T10:25:48Z</time>
      </trkpt>
      <trkpt lat="45.3614" lon="6.72922">
        <ele>2476.97</ele>
        <time>2019-09-13T10:26:02Z</time>
      </trkpt>
      <trkpt lat="45.36138" lon="6.72914">
        <ele>2478.42</ele>
        <time>2019-09-13T10:26:17Z</time>
      </trkpt>
      <trkpt lat="45.36134" lon="6.72906">
        <ele>2479.38</ele>
        <time>2019-09-13T10:26:33Z</time>
      </trkpt>
      <trkpt lat="45.36129" lon="6.72897">
        <ele>2480.34</ele>
        <time>2019-09-13T10:26:49Z</time>
      </trkpt>
      <trkpt lat="45.36123" lon="6.72891">
        <ele>2481.78</ele>
        <time>2019-09-13T10:27:03Z</time>
      </trkpt>
      <trkpt lat="45.36122" lon="6.72884">
        <ele>2483.7</ele>
        <time>2019-09-13T10:27:17Z</time>
      </trkpt>
      <trkpt lat="45.36119" lon="6.72878">
        <ele>2484.66</ele>
        <time>2019-09-13T10:27:30Z</time>
      </trkpt>
      <trkpt lat="45.36117" lon="6.72875">
        <ele>2485.15</ele>
        <time>2019-09-13T10:27:45Z</time>
      </trkpt>
      <trkpt lat="45.36116" lon="6.72877">
        <ele>2485.15</ele>
        <time>2019-09-13T10:28:01Z</time>
      </trkpt>
      <trkpt lat="45.36116" lon="6.72873">
        <ele>2485.15</ele>
        <time>2019-09-13T10:28:30Z</time>
      </trkpt>
      <trkpt lat="45.36116" lon="6.72873">
        <ele>2485.63</ele>
        <time>2019-09-13T10:28:48Z</time>
      </trkpt>
      <trkpt lat="45.36118" lon="6.72873">
        <ele>2485.63</ele>
        <time>2019-09-13T10:29:03Z</time>
      </trkpt>
      <trkpt lat="45.36117" lon="6.72872">
        <ele>2485.63</ele>
        <time>2019-09-13T10:29:23Z</time>
      </trkpt>
      <trkpt lat="45.36116" lon="6.72874">
        <ele>2485.63</ele>
        <time>2019-09-13T10:29:38Z</time>
      </trkpt>
      <trkpt lat="45.36116" lon="6.72873">
        <ele>2486.11</ele>
        <time>2019-09-13T10:29:58Z</time>
      </trkpt>
      <trkpt lat="45.36115" lon="6.72871">
        <ele>2486.11</ele>
        <time>2019-09-13T10:30:19Z</time>
      </trkpt>
      <trkpt lat="45.36113" lon="6.72872">
        <ele>2486.11</ele>
        <time>2019-09-13T10:30:43Z</time>
      </trkpt>
      <trkpt lat="45.36112" lon="6.72863">
        <ele>2486.11</ele>
        <time>2019-09-13T10:31:05Z</time>
      </trkpt>
      <trkpt lat="45.36111" lon="6.7286">
        <ele>2486.11</ele>
        <time>2019-09-13T10:31:08Z</time>
      </trkpt>
      <trkpt lat="45.36108" lon="6.72852">
        <ele>2485.15</ele>
        <time>2019-09-13T10:31:14Z</time>
      </trkpt>
      <trkpt lat="45.36102" lon="6.72834">
        <ele>2485.15</ele>
        <time>2019-09-13T10:31:30Z</time>
      </trkpt>
      <trkpt lat="45.36094" lon="6.7282">
        <ele>2484.18</ele>
        <time>2019-09-13T10:31:44Z</time>
      </trkpt>
      <trkpt lat="45.36082" lon="6.72811">
        <ele>2483.22</ele>
        <time>2019-09-13T10:32:00Z</time>
      </trkpt>
      <trkpt lat="45.36069" lon="6.72804">
        <ele>2482.74</ele>
        <time>2019-09-13T10:32:16Z</time>
      </trkpt>
      <trkpt lat="45.36066" lon="6.72801">
        <ele>2484.18</ele>
        <time>2019-09-13T10:32:21Z</time>
      </trkpt>
      <trkpt lat="45.36055" lon="6.72793">
        <ele>2486.59</ele>
        <time>2019-09-13T10:32:38Z</time>
      </trkpt>
      <trkpt lat="45.36044" lon="6.72786">
        <ele>2488.03</ele>
        <time>2019-09-13T10:32:55Z</time>
      </trkpt>
      <trkpt lat="45.36036" lon="6.7278">
        <ele>2489.95</ele>
        <time>2019-09-13T10:33:10Z</time>
      </trkpt>
      <trkpt lat="45.36028" lon="6.72774">
        <ele>2491.87</ele>
        <time>2019-09-13T10:33:27Z</time>
      </trkpt>
      <trkpt lat="45.36017" lon="6.72773">
        <ele>2492.84</ele>
        <time>2019-09-13T10:33:41Z</time>
      </trkpt>
      <trkpt lat="45.36016" lon="6.72772">
        <ele>2492.84</ele>
        <time>2019-09-13T10:33:42Z</time>
      </trkpt>
      <trkpt lat="45.36005" lon="6.72771">
        <ele>2494.28</ele>
        <time>2019-09-13T10:33:57Z</time>
      </trkpt>
      <trkpt lat="45.35996" lon="6.72769">
        <ele>2495.72</ele>
        <time>2019-09-13T10:34:10Z</time>
      </trkpt>
      <trkpt lat="45.35984" lon="6.72765">
        <ele>2496.68</ele>
        <time>2019-09-13T10:34:25Z</time>
      </trkpt>
      <trkpt lat="45.35976" lon="6.7276">
        <ele>2498.6</ele>
        <time>2019-09-13T10:34:38Z</time>
      </trkpt>
      <trkpt lat="45.35964" lon="6.72757">
        <ele>2499.08</ele>
        <time>2019-09-13T10:34:55Z</time>
      </trkpt>
      <trkpt lat="45.3595" lon="6.72747">
        <ele>2499.08</ele>
        <time>2019-09-13T10:35:12Z</time>
      </trkpt>
      <trkpt lat="45.35939" lon="6.72733">
        <ele>2499.08</ele>
        <time>2019-09-13T10:35:27Z</time>
      </trkpt>
      <trkpt lat="45.35934" lon="6.72727">
        <ele>2499.08</ele>
        <time>2019-09-13T10:35:33Z</time>
      </trkpt>
      <trkpt lat="45.35918" lon="6.72721">
        <ele>2499.08</ele>
        <time>2019-09-13T10:35:50Z</time>
      </trkpt>
      <trkpt lat="45.35902" lon="6.72719">
        <ele>2499.08</ele>
        <time>2019-09-13T10:36:06Z</time>
      </trkpt>
      <trkpt lat="45.3589" lon="6.72719">
        <ele>2500.53</ele>
        <time>2019-09-13T10:36:19Z</time>
      </trkpt>
      <trkpt lat="45.3588" lon="6.72726">
        <ele>2501.97</ele>
        <time>2019-09-13T10:36:34Z</time>
      </trkpt>
      <trkpt lat="45.35877" lon="6.72736">
        <ele>2503.89</ele>
        <time>2019-09-13T10:36:49Z</time>
      </trkpt>
      <trkpt lat="45.35872" lon="6.7275">
        <ele>2504.37</ele>
        <time>2019-09-13T10:37:04Z</time>
      </trkpt>
      <trkpt lat="45.35869" lon="6.72754">
        <ele>2503.41</ele>
        <time>2019-09-13T10:37:17Z</time>
      </trkpt>
      <trkpt lat="45.35861" lon="6.72754">
        <ele>2500.05</ele>
        <time>2019-09-13T10:37:33Z</time>
      </trkpt>
      <trkpt lat="45.35855" lon="6.72753">
        <ele>2498.6</ele>
        <time>2019-09-13T10:37:51Z</time>
      </trkpt>
      <trkpt lat="45.35847" lon="6.72754">
        <ele>2496.2</ele>
        <time>2019-09-13T10:38:06Z</time>
      </trkpt>
      <trkpt lat="45.35841" lon="6.72753">
        <ele>2494.28</ele>
        <time>2019-09-13T10:38:20Z</time>
      </trkpt>
      <trkpt lat="45.35836" lon="6.72748">
        <ele>2492.36</ele>
        <time>2019-09-13T10:38:36Z</time>
      </trkpt>
      <trkpt lat="45.35831" lon="6.72746">
        <ele>2490.43</ele>
        <time>2019-09-13T10:38:51Z</time>
      </trkpt>
      <trkpt lat="45.35827" lon="6.72741">
        <ele>2488.99</ele>
        <time>2019-09-13T10:39:03Z</time>
      </trkpt>
      <trkpt lat="45.35822" lon="6.72739">
        <ele>2488.51</ele>
        <time>2019-09-13T10:39:09Z</time>
      </trkpt>
      <trkpt lat="45.35817" lon="6.72738">
        <ele>2488.03</ele>
        <time>2019-09-13T10:39:23Z</time>
      </trkpt>
      <trkpt lat="45.35809" lon="6.72736">
        <ele>2485.63</ele>
        <time>2019-09-13T10:39:37Z</time>
      </trkpt>
      <trkpt lat="45.35807" lon="6.72726">
        <ele>2484.66</ele>
        <time>2019-09-13T10:39:51Z</time>
      </trkpt>
      <trkpt lat="45.35806" lon="6.72715">
        <ele>2482.74</ele>
        <time>2019-09-13T10:40:04Z</time>
      </trkpt>
      <trkpt lat="45.35802" lon="6.72701">
        <ele>2480.82</ele>
        <time>2019-09-13T10:40:19Z</time>
      </trkpt>
      <trkpt lat="45.35795" lon="6.72689">
        <ele>2478.9</ele>
        <time>2019-09-13T10:40:36Z</time>
      </trkpt>
      <trkpt lat="45.35786" lon="6.72675">
        <ele>2476.49</ele>
        <time>2019-09-13T10:40:54Z</time>
      </trkpt>
      <trkpt lat="45.35776" lon="6.72665">
        <ele>2474.57</ele>
        <time>2019-09-13T10:41:08Z</time>
      </trkpt>
      <trkpt lat="45.3576" lon="6.72653">
        <ele>2473.61</ele>
        <time>2019-09-13T10:41:24Z</time>
      </trkpt>
      <trkpt lat="45.35743" lon="6.72642">
        <ele>2472.65</ele>
        <time>2019-09-13T10:41:42Z</time>
      </trkpt>
      <trkpt lat="45.35727" lon="6.72632">
        <ele>2472.17</ele>
        <time>2019-09-13T10:41:58Z</time>
      </trkpt>
      <trkpt lat="45.35723" lon="6.72631">
        <ele>2471.69</ele>
        <time>2019-09-13T10:42:02Z</time>
      </trkpt>
      <trkpt lat="45.35716" lon="6.72626">
        <ele>2471.69</ele>
        <time>2019-09-13T10:42:11Z</time>
      </trkpt>
      <trkpt lat="45.35702" lon="6.72619">
        <ele>2473.13</ele>
        <time>2019-09-13T10:42:27Z</time>
      </trkpt>
      <trkpt lat="45.35692" lon="6.72609">
        <ele>2474.57</ele>
        <time>2019-09-13T10:42:43Z</time>
      </trkpt>
      <trkpt lat="45.35686" lon="6.726">
        <ele>2476.97</ele>
        <time>2019-09-13T10:42:58Z</time>
      </trkpt>
      <trkpt lat="45.35682" lon="6.72589">
        <ele>2479.38</ele>
        <time>2019-09-13T10:43:16Z</time>
      </trkpt>
      <trkpt lat="45.35677" lon="6.72584">
        <ele>2481.3</ele>
        <time>2019-09-13T10:43:30Z</time>
      </trkpt>
      <trkpt lat="45.35671" lon="6.72579">
        <ele>2483.7</ele>
        <time>2019-09-13T10:43:50Z</time>
      </trkpt>
      <trkpt lat="45.35667" lon="6.7257">
        <ele>2486.11</ele>
        <time>2019-09-13T10:44:11Z</time>
      </trkpt>
      <trkpt lat="45.35665" lon="6.72567">
        <ele>2487.07</ele>
        <time>2019-09-13T10:44:24Z</time>
      </trkpt>
      <trkpt lat="45.35661" lon="6.72563">
        <ele>2488.51</ele>
        <time>2019-09-13T10:44:42Z</time>
      </trkpt>
      <trkpt lat="45.35661" lon="6.72554">
        <ele>2490.43</ele>
        <time>2019-09-13T10:44:57Z</time>
      </trkpt>
      <trkpt lat="45.35659" lon="6.72547">
        <ele>2492.84</ele>
        <time>2019-09-13T10:45:16Z</time>
      </trkpt>
      <trkpt lat="45.35652" lon="6.72542">
        <ele>2494.76</ele>
        <time>2019-09-13T10:45:32Z</time>
      </trkpt>
      <trkpt lat="45.35646" lon="6.72535">
        <ele>2496.68</ele>
        <time>2019-09-13T10:45:49Z</time>
      </trkpt>
      <trkpt lat="45.35637" lon="6.72535">
        <ele>2497.16</ele>
        <time>2019-09-13T10:46:03Z</time>
      </trkpt>
      <trkpt lat="45.35629" lon="6.72531">
        <ele>2499.08</ele>
        <time>2019-09-13T10:46:19Z</time>
      </trkpt>
      <trkpt lat="45.35623" lon="6.72523">
        <ele>2501.01</ele>
        <time>2019-09-13T10:46:35Z</time>
      </trkpt>
      <trkpt lat="45.3561" lon="6.72522">
        <ele>2501.97</ele>
        <time>2019-09-13T10:46:52Z</time>
      </trkpt>
      <trkpt lat="45.35604" lon="6.72515">
        <ele>2503.41</ele>
        <time>2019-09-13T10:47:06Z</time>
      </trkpt>
      <trkpt lat="45.35595" lon="6.7251">
        <ele>2503.89</ele>
        <time>2019-09-13T10:47:20Z</time>
      </trkpt>
      <trkpt lat="45.35587" lon="6.72506">
        <ele>2505.33</ele>
        <time>2019-09-13T10:47:34Z</time>
      </trkpt>
      <trkpt lat="45.35582" lon="6.72496">
        <ele>2507.26</ele>
        <time>2019-09-13T10:47:48Z</time>
      </trkpt>
      <trkpt lat="45.35576" lon="6.72494">
        <ele>2508.7</ele>
        <time>2019-09-13T10:48:01Z</time>
      </trkpt>
      <trkpt lat="45.35569" lon="6.72489">
        <ele>2511.1</ele>
        <time>2019-09-13T10:48:18Z</time>
      </trkpt>
      <trkpt lat="45.35562" lon="6.72485">
        <ele>2513.02</ele>
        <time>2019-09-13T10:48:36Z</time>
      </trkpt>
      <trkpt lat="45.3556" lon="6.72482">
        <ele>2514.47</ele>
        <time>2019-09-13T10:48:51Z</time>
      </trkpt>
      <trkpt lat="45.35562" lon="6.72471">
        <ele>2516.39</ele>
        <time>2019-09-13T10:49:06Z</time>
      </trkpt>
      <trkpt lat="45.35566" lon="6.72467">
        <ele>2518.31</ele>
        <time>2019-09-13T10:49:24Z</time>
      </trkpt>
      <trkpt lat="45.35567" lon="6.72459">
        <ele>2519.75</ele>
        <time>2019-09-13T10:49:36Z</time>
      </trkpt>
      <trkpt lat="45.35561" lon="6.72461">
        <ele>2521.68</ele>
        <time>2019-09-13T10:49:55Z</time>
      </trkpt>
      <trkpt lat="45.35558" lon="6.72458">
        <ele>2523.12</ele>
        <time>2019-09-13T10:50:09Z</time>
      </trkpt>
      <trkpt lat="45.35552" lon="6.72454">
        <ele>2524.56</ele>
        <time>2019-09-13T10:50:25Z</time>
      </trkpt>
      <trkpt lat="45.35551" lon="6.72448">
        <ele>2526.48</ele>
        <time>2019-09-13T10:50:42Z</time>
      </trkpt>
      <trkpt lat="45.35553" lon="6.7244">
        <ele>2527.92</ele>
        <time>2019-09-13T10:50:56Z</time>
      </trkpt>
      <trkpt lat="45.35551" lon="6.72437">
        <ele>2529.85</ele>
        <time>2019-09-13T10:51:15Z</time>
      </trkpt>
      <trkpt lat="45.35548" lon="6.72434">
        <ele>2531.29</ele>
        <time>2019-09-13T10:51:28Z</time>
      </trkpt>
      <trkpt lat="45.35542" lon="6.72434">
        <ele>2533.21</ele>
        <time>2019-09-13T10:51:42Z</time>
      </trkpt>
      <trkpt lat="45.35534" lon="6.72432">
        <ele>2534.17</ele>
        <time>2019-09-13T10:51:57Z</time>
      </trkpt>
      <trkpt lat="45.35525" lon="6.7243">
        <ele>2535.61</ele>
        <time>2019-09-13T10:52:15Z</time>
      </trkpt>
      <trkpt lat="45.35521" lon="6.72424">
        <ele>2536.58</ele>
        <time>2019-09-13T10:52:32Z</time>
      </trkpt>
      <trkpt lat="45.35514" lon="6.72422">
        <ele>2538.02</ele>
        <time>2019-09-13T10:52:43Z</time>
      </trkpt>
      <trkpt lat="45.35503" lon="6.72426">
        <ele>2538.02</ele>
        <time>2019-09-13T10:52:56Z</time>
      </trkpt>
      <trkpt lat="45.35492" lon="6.72436">
        <ele>2538.5</ele>
        <time>2019-09-13T10:53:12Z</time>
      </trkpt>
      <trkpt lat="45.35484" lon="6.72442">
        <ele>2539.94</ele>
        <time>2019-09-13T10:53:26Z</time>
      </trkpt>
      <trkpt lat="45.35479" lon="6.7245">
        <ele>2541.86</ele>
        <time>2019-09-13T10:53:41Z</time>
      </trkpt>
      <trkpt lat="45.35476" lon="6.72446">
        <ele>2543.79</ele>
        <time>2019-09-13T10:53:57Z</time>
      </trkpt>
      <trkpt lat="45.35472" lon="6.72443">
        <ele>2545.23</ele>
        <time>2019-09-13T10:54:12Z</time>
      </trkpt>
      <trkpt lat="45.35462" lon="6.72442">
        <ele>2547.63</ele>
        <time>2019-09-13T10:54:30Z</time>
      </trkpt>
      <trkpt lat="45.35455" lon="6.72444">
        <ele>2549.55</ele>
        <time>2019-09-13T10:54:46Z</time>
      </trkpt>
      <trkpt lat="45.35451" lon="6.72444">
        <ele>2551</ele>
        <time>2019-09-13T10:55:01Z</time>
      </trkpt>
      <trkpt lat="45.35446" lon="6.72445">
        <ele>2553.4</ele>
        <time>2019-09-13T10:55:17Z</time>
      </trkpt>
      <trkpt lat="45.35439" lon="6.72449">
        <ele>2555.32</ele>
        <time>2019-09-13T10:55:33Z</time>
      </trkpt>
      <trkpt lat="45.3543" lon="6.7245">
        <ele>2557.73</ele>
        <time>2019-09-13T10:55:49Z</time>
      </trkpt>
      <trkpt lat="45.35425" lon="6.72455">
        <ele>2559.17</ele>
        <time>2019-09-13T10:56:04Z</time>
      </trkpt>
      <trkpt lat="45.35418" lon="6.72456">
        <ele>2561.09</ele>
        <time>2019-09-13T10:56:18Z</time>
      </trkpt>
      <trkpt lat="45.35408" lon="6.72458">
        <ele>2563.01</ele>
        <time>2019-09-13T10:56:34Z</time>
      </trkpt>
      <trkpt lat="45.35398" lon="6.72455">
        <ele>2565.42</ele>
        <time>2019-09-13T10:56:54Z</time>
      </trkpt>
      <trkpt lat="45.35389" lon="6.72454">
        <ele>2566.86</ele>
        <time>2019-09-13T10:57:10Z</time>
      </trkpt>
      <trkpt lat="45.35382" lon="6.72449">
        <ele>2569.26</ele>
        <time>2019-09-13T10:57:27Z</time>
      </trkpt>
      <trkpt lat="45.35374" lon="6.7244">
        <ele>2572.14</ele>
        <time>2019-09-13T10:57:47Z</time>
      </trkpt>
      <trkpt lat="45.35367" lon="6.72431">
        <ele>2574.07</ele>
        <time>2019-09-13T10:58:03Z</time>
      </trkpt>
      <trkpt lat="45.3536" lon="6.72421">
        <ele>2575.99</ele>
        <time>2019-09-13T10:58:21Z</time>
      </trkpt>
      <trkpt lat="45.35352" lon="6.72418">
        <ele>2577.43</ele>
        <time>2019-09-13T10:58:36Z</time>
      </trkpt>
      <trkpt lat="45.35343" lon="6.72418">
        <ele>2579.35</ele>
        <time>2019-09-13T10:58:51Z</time>
      </trkpt>
      <trkpt lat="45.35336" lon="6.72423">
        <ele>2579.84</ele>
        <time>2019-09-13T10:59:05Z</time>
      </trkpt>
      <trkpt lat="45.35332" lon="6.72414">
        <ele>2581.28</ele>
        <time>2019-09-13T10:59:20Z</time>
      </trkpt>
      <trkpt lat="45.35327" lon="6.72407">
        <ele>2582.72</ele>
        <time>2019-09-13T10:59:33Z</time>
      </trkpt>
      <trkpt lat="45.35325" lon="6.72405">
        <ele>2583.2</ele>
        <time>2019-09-13T10:59:50Z</time>
      </trkpt>
      <trkpt lat="45.35326" lon="6.72406">
        <ele>2583.2</ele>
        <time>2019-09-13T10:59:54Z</time>
      </trkpt>
      <trkpt lat="45.35325" lon="6.72415">
        <ele>2584.16</ele>
        <time>2019-09-13T12:10:14Z</time>
      </trkpt>
      <trkpt lat="45.35325" lon="6.72415">
        <ele>2586.08</ele>
        <time>2019-09-13T12:10:18Z</time>
      </trkpt>
      <trkpt lat="45.35325" lon="6.72416">
        <ele>2588.97</ele>
        <time>2019-09-13T12:10:23Z</time>
      </trkpt>
      <trkpt lat="45.35326" lon="6.72415">
        <ele>2592.33</ele>
        <time>2019-09-13T12:10:34Z</time>
      </trkpt>
      <trkpt lat="45.35326" lon="6.72415">
        <ele>2595.22</ele>
        <time>2019-09-13T12:10:44Z</time>
      </trkpt>
      <trkpt lat="45.35329" lon="6.72414">
        <ele>2595.7</ele>
        <time>2019-09-13T12:11:01Z</time>
      </trkpt>
      <trkpt lat="45.3533" lon="6.72412">
        <ele>2597.62</ele>
        <time>2019-09-13T12:11:18Z</time>
      </trkpt>
      <trkpt lat="45.35329" lon="6.72412">
        <ele>2574.55</ele>
        <time>2019-09-13T12:11:27Z</time>
      </trkpt>
      <trkpt lat="45.35329" lon="6.72412">
        <ele>2599.06</ele>
        <time>2019-09-13T12:11:28Z</time>
      </trkpt>
      <trkpt lat="45.35329" lon="6.72413">
        <ele>2599.54</ele>
        <time>2019-09-13T12:11:29Z</time>
      </trkpt>
      <trkpt lat="45.35328" lon="6.72413">
        <ele>2596.18</ele>
        <time>2019-09-13T12:11:33Z</time>
      </trkpt>
      <trkpt lat="45.35328" lon="6.72413">
        <ele>2601.46</ele>
        <time>2019-09-13T12:11:34Z</time>
      </trkpt>
      <trkpt lat="45.35328" lon="6.72406">
        <ele>2599.06</ele>
        <time>2019-09-13T12:11:51Z</time>
      </trkpt>
      <trkpt lat="45.35326" lon="6.72414">
        <ele>2599.06</ele>
        <time>2019-09-13T12:12:11Z</time>
      </trkpt>
      <trkpt lat="45.35325" lon="6.72415">
        <ele>2599.06</ele>
        <time>2019-09-13T12:12:27Z</time>
      </trkpt>
      <trkpt lat="45.35325" lon="6.72413">
        <ele>2599.06</ele>
        <time>2019-09-13T12:13:01Z</time>
      </trkpt>
      <trkpt lat="45.35325" lon="6.72409">
        <ele>2599.06</ele>
        <time>2019-09-13T12:13:20Z</time>
      </trkpt>
      <trkpt lat="45.35323" lon="6.72407">
        <ele>2600.5</ele>
        <time>2019-09-13T12:13:37Z</time>
      </trkpt>
      <trkpt lat="45.35324" lon="6.7241">
        <ele>2600.98</ele>
        <time>2019-09-13T12:13:59Z</time>
      </trkpt>
      <trkpt lat="45.35323" lon="6.72406">
        <ele>2600.98</ele>
        <time>2019-09-13T12:14:05Z</time>
      </trkpt>
      <trkpt lat="45.35311" lon="6.7241">
        <ele>2602.91</ele>
        <time>2019-09-13T12:14:19Z</time>
      </trkpt>
      <trkpt lat="45.35308" lon="6.72411">
        <ele>2603.39</ele>
        <time>2019-09-13T12:14:23Z</time>
      </trkpt>
      <trkpt lat="45.35296" lon="6.72413">
        <ele>2604.83</ele>
        <time>2019-09-13T12:14:39Z</time>
      </trkpt>
      <trkpt lat="45.35285" lon="6.72408">
        <ele>2606.27</ele>
        <time>2019-09-13T12:14:54Z</time>
      </trkpt>
      <trkpt lat="45.35273" lon="6.72406">
        <ele>2606.75</ele>
        <time>2019-09-13T12:15:07Z</time>
      </trkpt>
      <trkpt lat="45.35258" lon="6.72405">
        <ele>2606.75</ele>
        <time>2019-09-13T12:15:24Z</time>
      </trkpt>
      <trkpt lat="45.35251" lon="6.724">
        <ele>2606.75</ele>
        <time>2019-09-13T12:15:32Z</time>
      </trkpt>
      <trkpt lat="45.35239" lon="6.72386">
        <ele>2608.19</ele>
        <time>2019-09-13T12:15:48Z</time>
      </trkpt>
      <trkpt lat="45.35231" lon="6.72377">
        <ele>2609.16</ele>
        <time>2019-09-13T12:16:01Z</time>
      </trkpt>
      <trkpt lat="45.35222" lon="6.72366">
        <ele>2610.12</ele>
        <time>2019-09-13T12:16:15Z</time>
      </trkpt>
      <trkpt lat="45.35211" lon="6.72357">
        <ele>2610.12</ele>
        <time>2019-09-13T12:16:30Z</time>
      </trkpt>
      <trkpt lat="45.35209" lon="6.72354">
        <ele>2610.12</ele>
        <time>2019-09-13T12:16:33Z</time>
      </trkpt>
      <trkpt lat="45.35198" lon="6.72343">
        <ele>2611.56</ele>
        <time>2019-09-13T12:16:49Z</time>
      </trkpt>
      <trkpt lat="45.35195" lon="6.72338">
        <ele>2611.56</ele>
        <time>2019-09-13T12:16:53Z</time>
      </trkpt>
      <trkpt lat="45.35194" lon="6.72336">
        <ele>2610.12</ele>
        <time>2019-09-13T12:16:55Z</time>
      </trkpt>
      <trkpt lat="45.35182" lon="6.72325">
        <ele>2610.12</ele>
        <time>2019-09-13T12:17:10Z</time>
      </trkpt>
      <trkpt lat="45.35178" lon="6.72322">
        <ele>2610.12</ele>
        <time>2019-09-13T12:17:15Z</time>
      </trkpt>
      <trkpt lat="45.35168" lon="6.72306">
        <ele>2608.67</ele>
        <time>2019-09-13T12:17:30Z</time>
      </trkpt>
      <trkpt lat="45.35157" lon="6.72294">
        <ele>2607.23</ele>
        <time>2019-09-13T12:17:43Z</time>
      </trkpt>
      <trkpt lat="45.3515" lon="6.72281">
        <ele>2605.79</ele>
        <time>2019-09-13T12:17:56Z</time>
      </trkpt>
      <trkpt lat="45.3515" lon="6.72278">
        <ele>2604.83</ele>
        <time>2019-09-13T12:17:59Z</time>
      </trkpt>
      <trkpt lat="45.35147" lon="6.72274">
        <ele>2604.35</ele>
        <time>2019-09-13T12:18:03Z</time>
      </trkpt>
      <trkpt lat="45.35145" lon="6.72255">
        <ele>2600.98</ele>
        <time>2019-09-13T12:18:19Z</time>
      </trkpt>
      <trkpt lat="45.35145" lon="6.72242">
        <ele>2599.06</ele>
        <time>2019-09-13T12:18:33Z</time>
      </trkpt>
      <trkpt lat="45.35145" lon="6.72227">
        <ele>2595.7</ele>
        <time>2019-09-13T12:18:46Z</time>
      </trkpt>
      <trkpt lat="45.35141" lon="6.72216">
        <ele>2592.81</ele>
        <time>2019-09-13T12:19:01Z</time>
      </trkpt>
      <trkpt lat="45.3514" lon="6.72215">
        <ele>2592.33</ele>
        <time>2019-09-13T12:19:17Z</time>
      </trkpt>
      <trkpt lat="45.35141" lon="6.72215">
        <ele>2592.33</ele>
        <time>2019-09-13T12:19:35Z</time>
      </trkpt>
      <trkpt lat="45.35136" lon="6.72212">
        <ele>2590.89</ele>
        <time>2019-09-13T12:19:54Z</time>
      </trkpt>
      <trkpt lat="45.35129" lon="6.72206">
        <ele>2589.45</ele>
        <time>2019-09-13T12:20:03Z</time>
      </trkpt>
      <trkpt lat="45.35121" lon="6.72204">
        <ele>2587.53</ele>
        <time>2019-09-13T12:20:17Z</time>
      </trkpt>
      <trkpt lat="45.35126" lon="6.72193">
        <ele>2584.16</ele>
        <time>2019-09-13T12:20:31Z</time>
      </trkpt>
      <trkpt lat="45.35128" lon="6.72185">
        <ele>2581.76</ele>
        <time>2019-09-13T12:20:45Z</time>
      </trkpt>
      <trkpt lat="45.35127" lon="6.72185">
        <ele>2581.28</ele>
        <time>2019-09-13T12:20:46Z</time>
      </trkpt>
      <trkpt lat="45.35119" lon="6.72185">
        <ele>2579.84</ele>
        <time>2019-09-13T12:20:53Z</time>
      </trkpt>
      <trkpt lat="45.35103" lon="6.72182">
        <ele>2577.91</ele>
        <time>2019-09-13T12:21:11Z</time>
      </trkpt>
      <trkpt lat="45.35103" lon="6.72181">
        <ele>2576.95</ele>
        <time>2019-09-13T12:21:13Z</time>
      </trkpt>
      <trkpt lat="45.35114" lon="6.72173">
        <ele>2573.59</ele>
        <time>2019-09-13T12:21:30Z</time>
      </trkpt>
      <trkpt lat="45.35108" lon="6.72168">
        <ele>2570.7</ele>
        <time>2019-09-13T12:21:45Z</time>
      </trkpt>
      <trkpt lat="45.35107" lon="6.72162">
        <ele>2569.26</ele>
        <time>2019-09-13T12:22:01Z</time>
      </trkpt>
      <trkpt lat="45.351" lon="6.72161">
        <ele>2566.86</ele>
        <time>2019-09-13T12:22:14Z</time>
      </trkpt>
      <trkpt lat="45.35091" lon="6.72158">
        <ele>2563.49</ele>
        <time>2019-09-13T12:22:28Z</time>
      </trkpt>
      <trkpt lat="45.35086" lon="6.72154">
        <ele>2561.57</ele>
        <time>2019-09-13T12:22:42Z</time>
      </trkpt>
      <trkpt lat="45.35082" lon="6.72153">
        <ele>2558.21</ele>
        <time>2019-09-13T12:22:52Z</time>
      </trkpt>
      <trkpt lat="45.35082" lon="6.72153">
        <ele>2563.01</ele>
        <time>2019-09-13T12:22:53Z</time>
      </trkpt>
      <trkpt lat="45.35082" lon="6.72154">
        <ele>2560.61</ele>
        <time>2019-09-13T12:22:55Z</time>
      </trkpt>
      <trkpt lat="45.35079" lon="6.72152">
        <ele>2560.13</ele>
        <time>2019-09-13T12:22:58Z</time>
      </trkpt>
      <trkpt lat="45.35075" lon="6.72151">
        <ele>2559.17</ele>
        <time>2019-09-13T12:23:03Z</time>
      </trkpt>
      <trkpt lat="45.35067" lon="6.72153">
        <ele>2558.69</ele>
        <time>2019-09-13T12:23:12Z</time>
      </trkpt>
      <trkpt lat="45.35065" lon="6.72156">
        <ele>2558.69</ele>
        <time>2019-09-13T12:23:16Z</time>
      </trkpt>
      <trkpt lat="45.3506" lon="6.72158">
        <ele>2559.65</ele>
        <time>2019-09-13T12:23:20Z</time>
      </trkpt>
      <trkpt lat="45.35057" lon="6.7216">
        <ele>2556.28</ele>
        <time>2019-09-13T12:23:25Z</time>
      </trkpt>
      <trkpt lat="45.35055" lon="6.7216">
        <ele>2560.61</ele>
        <time>2019-09-13T12:23:27Z</time>
      </trkpt>
      <trkpt lat="45.35055" lon="6.7216">
        <ele>2560.61</ele>
        <time>2019-09-13T12:23:28Z</time>
      </trkpt>
      <trkpt lat="45.35039" lon="6.72171">
        <ele>2555.32</ele>
        <time>2019-09-13T12:23:44Z</time>
      </trkpt>
      <trkpt lat="45.35038" lon="6.72172">
        <ele>2561.09</ele>
        <time>2019-09-13T12:23:45Z</time>
      </trkpt>
      <trkpt lat="45.35037" lon="6.72172">
        <ele>2557.73</ele>
        <time>2019-09-13T12:23:46Z</time>
      </trkpt>
      <trkpt lat="45.35026" lon="6.72173">
        <ele>2558.69</ele>
        <time>2019-09-13T12:24:01Z</time>
      </trkpt>
      <trkpt lat="45.35009" lon="6.72177">
        <ele>2556.28</ele>
        <time>2019-09-13T12:24:16Z</time>
      </trkpt>
      <trkpt lat="45.35005" lon="6.72173">
        <ele>2555.8</ele>
        <time>2019-09-13T12:24:20Z</time>
      </trkpt>
      <trkpt lat="45.34996" lon="6.72176">
        <ele>2557.24</ele>
        <time>2019-09-13T12:24:31Z</time>
      </trkpt>
      <trkpt lat="45.34984" lon="6.72176">
        <ele>2558.21</ele>
        <time>2019-09-13T12:24:45Z</time>
      </trkpt>
      <trkpt lat="45.3498" lon="6.72181">
        <ele>2558.21</ele>
        <time>2019-09-13T12:24:50Z</time>
      </trkpt>
      <trkpt lat="45.34975" lon="6.72183">
        <ele>2557.73</ele>
        <time>2019-09-13T12:24:55Z</time>
      </trkpt>
      <trkpt lat="45.34966" lon="6.72181">
        <ele>2557.73</ele>
        <time>2019-09-13T12:25:09Z</time>
      </trkpt>
      <trkpt lat="45.34964" lon="6.7218">
        <ele>2556.28</ele>
        <time>2019-09-13T12:25:12Z</time>
      </trkpt>
      <trkpt lat="45.34962" lon="6.7218">
        <ele>2556.28</ele>
        <time>2019-09-13T12:25:14Z</time>
      </trkpt>
      <trkpt lat="45.34959" lon="6.72184">
        <ele>2555.32</ele>
        <time>2019-09-13T12:25:18Z</time>
      </trkpt>
      <trkpt lat="45.34954" lon="6.72187">
        <ele>2555.32</ele>
        <time>2019-09-13T12:25:22Z</time>
      </trkpt>
      <trkpt lat="45.34938" lon="6.72185">
        <ele>2553.88</ele>
        <time>2019-09-13T12:25:40Z</time>
      </trkpt>
      <trkpt lat="45.34926" lon="6.72186">
        <ele>2551</ele>
        <time>2019-09-13T12:25:56Z</time>
      </trkpt>
      <trkpt lat="45.34909" lon="6.72197">
        <ele>2548.11</ele>
        <time>2019-09-13T12:26:14Z</time>
      </trkpt>
      <trkpt lat="45.34898" lon="6.72214">
        <ele>2546.19</ele>
        <time>2019-09-13T12:26:29Z</time>
      </trkpt>
      <trkpt lat="45.34891" lon="6.72214">
        <ele>2544.27</ele>
        <time>2019-09-13T12:26:43Z</time>
      </trkpt>
      <trkpt lat="45.34883" lon="6.72213">
        <ele>2541.38</ele>
        <time>2019-09-13T12:26:57Z</time>
      </trkpt>
      <trkpt lat="45.34873" lon="6.72223">
        <ele>2539.46</ele>
        <time>2019-09-13T12:27:11Z</time>
      </trkpt>
      <trkpt lat="45.34861" lon="6.72227">
        <ele>2537.54</ele>
        <time>2019-09-13T12:27:26Z</time>
      </trkpt>
      <trkpt lat="45.34849" lon="6.72235">
        <ele>2535.61</ele>
        <time>2019-09-13T12:27:40Z</time>
      </trkpt>
      <trkpt lat="45.34835" lon="6.72241">
        <ele>2532.73</ele>
        <time>2019-09-13T12:27:57Z</time>
      </trkpt>
      <trkpt lat="45.34823" lon="6.7224">
        <ele>2529.85</ele>
        <time>2019-09-13T12:28:15Z</time>
      </trkpt>
      <trkpt lat="45.34815" lon="6.72243">
        <ele>2527.92</ele>
        <time>2019-09-13T12:28:30Z</time>
      </trkpt>
      <trkpt lat="45.34812" lon="6.72243">
        <ele>2525.52</ele>
        <time>2019-09-13T12:28:41Z</time>
      </trkpt>
      <trkpt lat="45.34806" lon="6.72247">
        <ele>2524.08</ele>
        <time>2019-09-13T12:28:51Z</time>
      </trkpt>
      <trkpt lat="45.34805" lon="6.72247">
        <ele>2523.6</ele>
        <time>2019-09-13T12:28:52Z</time>
      </trkpt>
      <trkpt lat="45.34801" lon="6.72251">
        <ele>2522.64</ele>
        <time>2019-09-13T12:28:56Z</time>
      </trkpt>
      <trkpt lat="45.34797" lon="6.72256">
        <ele>2521.68</ele>
        <time>2019-09-13T12:29:01Z</time>
      </trkpt>
      <trkpt lat="45.34775" lon="6.72271">
        <ele>2519.27</ele>
        <time>2019-09-13T12:29:22Z</time>
      </trkpt>
      <trkpt lat="45.34763" lon="6.72276">
        <ele>2515.91</ele>
        <time>2019-09-13T12:29:40Z</time>
      </trkpt>
      <trkpt lat="45.34759" lon="6.72283">
        <ele>2514.95</ele>
        <time>2019-09-13T12:29:49Z</time>
      </trkpt>
      <trkpt lat="45.34746" lon="6.7229">
        <ele>2512.54</ele>
        <time>2019-09-13T12:30:03Z</time>
      </trkpt>
      <trkpt lat="45.34739" lon="6.72295">
        <ele>2509.66</ele>
        <time>2019-09-13T12:30:17Z</time>
      </trkpt>
      <trkpt lat="45.34733" lon="6.72296">
        <ele>2508.7</ele>
        <time>2019-09-13T12:30:29Z</time>
      </trkpt>
      <trkpt lat="45.3472" lon="6.72301">
        <ele>2506.29</ele>
        <time>2019-09-13T12:30:46Z</time>
      </trkpt>
      <trkpt lat="45.34711" lon="6.72307">
        <ele>2503.41</ele>
        <time>2019-09-13T12:31:00Z</time>
      </trkpt>
      <trkpt lat="45.34703" lon="6.72319">
        <ele>2500.53</ele>
        <time>2019-09-13T12:31:15Z</time>
      </trkpt>
      <trkpt lat="45.347" lon="6.7231">
        <ele>2498.6</ele>
        <time>2019-09-13T12:31:27Z</time>
      </trkpt>
      <trkpt lat="45.347" lon="6.72308">
        <ele>2498.12</ele>
        <time>2019-09-13T12:31:29Z</time>
      </trkpt>
      <trkpt lat="45.34701" lon="6.72293">
        <ele>2495.72</ele>
        <time>2019-09-13T12:31:43Z</time>
      </trkpt>
      <trkpt lat="45.34693" lon="6.72299">
        <ele>2493.8</ele>
        <time>2019-09-13T12:31:57Z</time>
      </trkpt>
      <trkpt lat="45.34685" lon="6.72308">
        <ele>2490.91</ele>
        <time>2019-09-13T12:32:13Z</time>
      </trkpt>
      <trkpt lat="45.34684" lon="6.72299">
        <ele>2488.99</ele>
        <time>2019-09-13T12:32:25Z</time>
      </trkpt>
      <trkpt lat="45.34678" lon="6.72301">
        <ele>2486.11</ele>
        <time>2019-09-13T12:32:39Z</time>
      </trkpt>
      <trkpt lat="45.34673" lon="6.72309">
        <ele>2483.7</ele>
        <time>2019-09-13T12:32:49Z</time>
      </trkpt>
      <trkpt lat="45.34666" lon="6.72319">
        <ele>2482.26</ele>
        <time>2019-09-13T12:33:05Z</time>
      </trkpt>
      <trkpt lat="45.34665" lon="6.7231">
        <ele>2480.82</ele>
        <time>2019-09-13T12:33:15Z</time>
      </trkpt>
      <trkpt lat="45.34666" lon="6.72297">
        <ele>2478.9</ele>
        <time>2019-09-13T12:33:28Z</time>
      </trkpt>
      <trkpt lat="45.34666" lon="6.72292">
        <ele>2478.9</ele>
        <time>2019-09-13T12:33:31Z</time>
      </trkpt>
      <trkpt lat="45.34664" lon="6.72282">
        <ele>2477.45</ele>
        <time>2019-09-13T12:33:40Z</time>
      </trkpt>
      <trkpt lat="45.34657" lon="6.72296">
        <ele>2475.05</ele>
        <time>2019-09-13T12:33:54Z</time>
      </trkpt>
      <trkpt lat="45.34651" lon="6.72294">
        <ele>2471.69</ele>
        <time>2019-09-13T12:34:07Z</time>
      </trkpt>
      <trkpt lat="45.34649" lon="6.72278">
        <ele>2469.28</ele>
        <time>2019-09-13T12:34:23Z</time>
      </trkpt>
      <trkpt lat="45.34645" lon="6.72267">
        <ele>2467.84</ele>
        <time>2019-09-13T12:34:38Z</time>
      </trkpt>
      <trkpt lat="45.34639" lon="6.72273">
        <ele>2465.44</ele>
        <time>2019-09-13T12:34:50Z</time>
      </trkpt>
      <trkpt lat="45.34633" lon="6.72276">
        <ele>2463.04</ele>
        <time>2019-09-13T12:35:04Z</time>
      </trkpt>
      <trkpt lat="45.3463" lon="6.72278">
        <ele>2462.55</ele>
        <time>2019-09-13T12:35:10Z</time>
      </trkpt>
      <trkpt lat="45.34626" lon="6.72287">
        <ele>2461.59</ele>
        <time>2019-09-13T12:35:17Z</time>
      </trkpt>
      <trkpt lat="45.34621" lon="6.72296">
        <ele>2460.63</ele>
        <time>2019-09-13T12:35:29Z</time>
      </trkpt>
      <trkpt lat="45.3462" lon="6.72298">
        <ele>2460.63</ele>
        <time>2019-09-13T12:35:31Z</time>
      </trkpt>
      <trkpt lat="45.34616" lon="6.72308">
        <ele>2459.19</ele>
        <time>2019-09-13T12:35:41Z</time>
      </trkpt>
      <trkpt lat="45.34609" lon="6.72318">
        <ele>2458.71</ele>
        <time>2019-09-13T12:35:55Z</time>
      </trkpt>
      <trkpt lat="45.34608" lon="6.7232">
        <ele>2458.23</ele>
        <time>2019-09-13T12:35:57Z</time>
      </trkpt>
      <trkpt lat="45.34599" lon="6.72327">
        <ele>2458.23</ele>
        <time>2019-09-13T12:36:10Z</time>
      </trkpt>
      <trkpt lat="45.34595" lon="6.72332">
        <ele>2457.75</ele>
        <time>2019-09-13T12:36:20Z</time>
      </trkpt>
      <trkpt lat="45.34589" lon="6.7234">
        <ele>2455.82</ele>
        <time>2019-09-13T12:36:34Z</time>
      </trkpt>
      <trkpt lat="45.34587" lon="6.72332">
        <ele>2454.38</ele>
        <time>2019-09-13T12:36:45Z</time>
      </trkpt>
      <trkpt lat="45.3459" lon="6.72329">
        <ele>2454.38</ele>
        <time>2019-09-13T12:36:51Z</time>
      </trkpt>
      <trkpt lat="45.34592" lon="6.72313">
        <ele>2451.98</ele>
        <time>2019-09-13T12:37:07Z</time>
      </trkpt>
      <trkpt lat="45.34587" lon="6.72313">
        <ele>2450.06</ele>
        <time>2019-09-13T12:37:20Z</time>
      </trkpt>
      <trkpt lat="45.34581" lon="6.72307">
        <ele>2448.62</ele>
        <time>2019-09-13T12:37:31Z</time>
      </trkpt>
      <trkpt lat="45.34577" lon="6.72318">
        <ele>2447.17</ele>
        <time>2019-09-13T12:37:43Z</time>
      </trkpt>
      <trkpt lat="45.34571" lon="6.72323">
        <ele>2446.21</ele>
        <time>2019-09-13T12:37:51Z</time>
      </trkpt>
      <trkpt lat="45.34559" lon="6.72337">
        <ele>2444.29</ele>
        <time>2019-09-13T12:38:09Z</time>
      </trkpt>
      <trkpt lat="45.34554" lon="6.72341">
        <ele>2443.33</ele>
        <time>2019-09-13T12:38:15Z</time>
      </trkpt>
      <trkpt lat="45.34538" lon="6.72341">
        <ele>2441.89</ele>
        <time>2019-09-13T12:38:33Z</time>
      </trkpt>
      <trkpt lat="45.34527" lon="6.72345">
        <ele>2439</ele>
        <time>2019-09-13T12:38:48Z</time>
      </trkpt>
      <trkpt lat="45.34525" lon="6.72344">
        <ele>2438.04</ele>
        <time>2019-09-13T12:38:56Z</time>
      </trkpt>
      <trkpt lat="45.34523" lon="6.72349">
        <ele>2438.04</ele>
        <time>2019-09-13T12:39:00Z</time>
      </trkpt>
      <trkpt lat="45.34515" lon="6.72357">
        <ele>2435.64</ele>
        <time>2019-09-13T12:39:14Z</time>
      </trkpt>
      <trkpt lat="45.34511" lon="6.72372">
        <ele>2434.2</ele>
        <time>2019-09-13T12:39:29Z</time>
      </trkpt>
      <trkpt lat="45.34509" lon="6.72373">
        <ele>2433.23</ele>
        <time>2019-09-13T12:39:41Z</time>
      </trkpt>
      <trkpt lat="45.34507" lon="6.72373">
        <ele>2432.75</ele>
        <time>2019-09-13T12:39:43Z</time>
      </trkpt>
      <trkpt lat="45.34504" lon="6.72379">
        <ele>2431.31</ele>
        <time>2019-09-13T12:39:50Z</time>
      </trkpt>
      <trkpt lat="45.34498" lon="6.72388">
        <ele>2429.87</ele>
        <time>2019-09-13T12:40:05Z</time>
      </trkpt>
      <trkpt lat="45.34495" lon="6.72391">
        <ele>2428.43</ele>
        <time>2019-09-13T12:40:10Z</time>
      </trkpt>
      <trkpt lat="45.34491" lon="6.72397">
        <ele>2427.47</ele>
        <time>2019-09-13T12:40:17Z</time>
      </trkpt>
      <trkpt lat="45.34489" lon="6.72403">
        <ele>2426.99</ele>
        <time>2019-09-13T12:40:22Z</time>
      </trkpt>
      <trkpt lat="45.34488" lon="6.72414">
        <ele>2425.54</ele>
        <time>2019-09-13T12:40:35Z</time>
      </trkpt>
      <trkpt lat="45.34485" lon="6.72418">
        <ele>2423.62</ele>
        <time>2019-09-13T12:40:48Z</time>
      </trkpt>
      <trkpt lat="45.34483" lon="6.72432">
        <ele>2420.74</ele>
        <time>2019-09-13T12:40:59Z</time>
      </trkpt>
      <trkpt lat="45.34482" lon="6.72435">
        <ele>2420.26</ele>
        <time>2019-09-13T12:41:01Z</time>
      </trkpt>
      <trkpt lat="45.34478" lon="6.72438">
        <ele>2417.37</ele>
        <time>2019-09-13T12:41:18Z</time>
      </trkpt>
      <trkpt lat="45.34473" lon="6.72444">
        <ele>2414.97</ele>
        <time>2019-09-13T12:41:31Z</time>
      </trkpt>
      <trkpt lat="45.3447" lon="6.72447">
        <ele>2413.53</ele>
        <time>2019-09-13T12:41:44Z</time>
      </trkpt>
      <trkpt lat="45.34468" lon="6.72447">
        <ele>2412.57</ele>
        <time>2019-09-13T12:41:50Z</time>
      </trkpt>
      <trkpt lat="45.34465" lon="6.7246">
        <ele>2410.64</ele>
        <time>2019-09-13T12:42:03Z</time>
      </trkpt>
      <trkpt lat="45.34458" lon="6.7247">
        <ele>2407.76</ele>
        <time>2019-09-13T12:42:17Z</time>
      </trkpt>
      <trkpt lat="45.34453" lon="6.7248">
        <ele>2405.84</ele>
        <time>2019-09-13T12:42:32Z</time>
      </trkpt>
      <trkpt lat="45.3445" lon="6.72487">
        <ele>2404.39</ele>
        <time>2019-09-13T12:42:44Z</time>
      </trkpt>
      <trkpt lat="45.34449" lon="6.72488">
        <ele>2403.91</ele>
        <time>2019-09-13T12:42:46Z</time>
      </trkpt>
      <trkpt lat="45.3444" lon="6.72499">
        <ele>2401.03</ele>
        <time>2019-09-13T12:43:02Z</time>
      </trkpt>
      <trkpt lat="45.34436" lon="6.72503">
        <ele>2398.63</ele>
        <time>2019-09-13T12:43:16Z</time>
      </trkpt>
      <trkpt lat="45.34434" lon="6.72496">
        <ele>2397.18</ele>
        <time>2019-09-13T12:43:28Z</time>
      </trkpt>
      <trkpt lat="45.34432" lon="6.72495">
        <ele>2395.26</ele>
        <time>2019-09-13T12:43:43Z</time>
      </trkpt>
      <trkpt lat="45.34427" lon="6.725">
        <ele>2393.82</ele>
        <time>2019-09-13T12:43:55Z</time>
      </trkpt>
      <trkpt lat="45.34425" lon="6.7249">
        <ele>2391.42</ele>
        <time>2019-09-13T12:44:08Z</time>
      </trkpt>
      <trkpt lat="45.34427" lon="6.72477">
        <ele>2388.53</ele>
        <time>2019-09-13T12:44:23Z</time>
      </trkpt>
      <trkpt lat="45.34426" lon="6.72468">
        <ele>2386.61</ele>
        <time>2019-09-13T12:44:37Z</time>
      </trkpt>
      <trkpt lat="45.34427" lon="6.72456">
        <ele>2384.21</ele>
        <time>2019-09-13T12:44:53Z</time>
      </trkpt>
      <trkpt lat="45.34422" lon="6.72465">
        <ele>2382.76</ele>
        <time>2019-09-13T12:45:05Z</time>
      </trkpt>
      <trkpt lat="45.34418" lon="6.7246">
        <ele>2380.84</ele>
        <time>2019-09-13T12:45:17Z</time>
      </trkpt>
      <trkpt lat="45.34419" lon="6.7245">
        <ele>2378.92</ele>
        <time>2019-09-13T12:45:31Z</time>
      </trkpt>
      <trkpt lat="45.34415" lon="6.72442">
        <ele>2377</ele>
        <time>2019-09-13T12:45:45Z</time>
      </trkpt>
      <trkpt lat="45.34412" lon="6.72443">
        <ele>2375.07</ele>
        <time>2019-09-13T12:45:58Z</time>
      </trkpt>
      <trkpt lat="45.34408" lon="6.72437">
        <ele>2372.19</ele>
        <time>2019-09-13T12:46:14Z</time>
      </trkpt>
      <trkpt lat="45.34399" lon="6.7244">
        <ele>2369.79</ele>
        <time>2019-09-13T12:46:30Z</time>
      </trkpt>
      <trkpt lat="45.34391" lon="6.72443">
        <ele>2367.38</ele>
        <time>2019-09-13T12:46:45Z</time>
      </trkpt>
      <trkpt lat="45.3439" lon="6.72443">
        <ele>2366.42</ele>
        <time>2019-09-13T12:46:47Z</time>
      </trkpt>
      <trkpt lat="45.34382" lon="6.72452">
        <ele>2365.46</ele>
        <time>2019-09-13T12:47:00Z</time>
      </trkpt>
      <trkpt lat="45.34374" lon="6.72461">
        <ele>2363.54</ele>
        <time>2019-09-13T12:47:15Z</time>
      </trkpt>
      <trkpt lat="45.34367" lon="6.7246">
        <ele>2361.14</ele>
        <time>2019-09-13T12:47:30Z</time>
      </trkpt>
      <trkpt lat="45.34363" lon="6.72448">
        <ele>2358.25</ele>
        <time>2019-09-13T12:47:45Z</time>
      </trkpt>
      <trkpt lat="45.34358" lon="6.72449">
        <ele>2356.33</ele>
        <time>2019-09-13T12:47:59Z</time>
      </trkpt>
      <trkpt lat="45.34358" lon="6.72448">
        <ele>2356.33</ele>
        <time>2019-09-13T12:48:00Z</time>
      </trkpt>
      <trkpt lat="45.3436" lon="6.72433">
        <ele>2354.41</ele>
        <time>2019-09-13T12:48:16Z</time>
      </trkpt>
      <trkpt lat="45.34354" lon="6.72434">
        <ele>2352.48</ele>
        <time>2019-09-13T12:48:30Z</time>
      </trkpt>
      <trkpt lat="45.34349" lon="6.72445">
        <ele>2350.56</ele>
        <time>2019-09-13T12:48:45Z</time>
      </trkpt>
      <trkpt lat="45.34349" lon="6.7246">
        <ele>2348.64</ele>
        <time>2019-09-13T12:49:00Z</time>
      </trkpt>
      <trkpt lat="45.34346" lon="6.72468">
        <ele>2347.68</ele>
        <time>2019-09-13T12:49:10Z</time>
      </trkpt>
      <trkpt lat="45.34342" lon="6.72474">
        <ele>2345.75</ele>
        <time>2019-09-13T12:49:24Z</time>
      </trkpt>
      <trkpt lat="45.34338" lon="6.72471">
        <ele>2344.31</ele>
        <time>2019-09-13T12:49:36Z</time>
      </trkpt>
      <trkpt lat="45.34335" lon="6.7247">
        <ele>2342.39</ele>
        <time>2019-09-13T12:49:49Z</time>
      </trkpt>
      <trkpt lat="45.34332" lon="6.72481">
        <ele>2340.47</ele>
        <time>2019-09-13T12:50:02Z</time>
      </trkpt>
      <trkpt lat="45.34331" lon="6.72483">
        <ele>2339.99</ele>
        <time>2019-09-13T12:50:05Z</time>
      </trkpt>
      <trkpt lat="45.3433" lon="6.72485">
        <ele>2339.99</ele>
        <time>2019-09-13T12:50:07Z</time>
      </trkpt>
      <trkpt lat="45.34317" lon="6.72496">
        <ele>2337.1</ele>
        <time>2019-09-13T12:50:24Z</time>
      </trkpt>
      <trkpt lat="45.34314" lon="6.72492">
        <ele>2334.7</ele>
        <time>2019-09-13T12:50:36Z</time>
      </trkpt>
      <trkpt lat="45.34316" lon="6.72475">
        <ele>2331.81</ele>
        <time>2019-09-13T12:50:53Z</time>
      </trkpt>
      <trkpt lat="45.34312" lon="6.72467">
        <ele>2329.89</ele>
        <time>2019-09-13T12:51:06Z</time>
      </trkpt>
      <trkpt lat="45.34311" lon="6.72458">
        <ele>2327.97</ele>
        <time>2019-09-13T12:51:20Z</time>
      </trkpt>
      <trkpt lat="45.3431" lon="6.72451">
        <ele>2326.53</ele>
        <time>2019-09-13T12:51:35Z</time>
      </trkpt>
      <trkpt lat="45.34307" lon="6.72443">
        <ele>2324.61</ele>
        <time>2019-09-13T12:51:48Z</time>
      </trkpt>
      <trkpt lat="45.34304" lon="6.72431">
        <ele>2321.24</ele>
        <time>2019-09-13T12:52:02Z</time>
      </trkpt>
      <trkpt lat="45.34304" lon="6.72424">
        <ele>2319.32</ele>
        <time>2019-09-13T12:52:16Z</time>
      </trkpt>
      <trkpt lat="45.34304" lon="6.72413">
        <ele>2316.91</ele>
        <time>2019-09-13T12:52:30Z</time>
      </trkpt>
      <trkpt lat="45.34306" lon="6.724">
        <ele>2314.99</ele>
        <time>2019-09-13T12:52:48Z</time>
      </trkpt>
      <trkpt lat="45.34303" lon="6.72398">
        <ele>2314.03</ele>
        <time>2019-09-13T12:53:04Z</time>
      </trkpt>
      <trkpt lat="45.34299" lon="6.72399">
        <ele>2313.07</ele>
        <time>2019-09-13T12:53:19Z</time>
      </trkpt>
      <trkpt lat="45.34299" lon="6.72393">
        <ele>2311.15</ele>
        <time>2019-09-13T12:53:35Z</time>
      </trkpt>
      <trkpt lat="45.34299" lon="6.72385">
        <ele>2309.22</ele>
        <time>2019-09-13T12:53:48Z</time>
      </trkpt>
      <trkpt lat="45.34291" lon="6.72392">
        <ele>2306.82</ele>
        <time>2019-09-13T12:54:02Z</time>
      </trkpt>
      <trkpt lat="45.34292" lon="6.72381">
        <ele>2305.38</ele>
        <time>2019-09-13T12:54:13Z</time>
      </trkpt>
      <trkpt lat="45.34298" lon="6.72366">
        <ele>2303.46</ele>
        <time>2019-09-13T12:54:27Z</time>
      </trkpt>
      <trkpt lat="45.34301" lon="6.72355">
        <ele>2301.05</ele>
        <time>2019-09-13T12:54:42Z</time>
      </trkpt>
      <trkpt lat="45.34295" lon="6.72357">
        <ele>2299.13</ele>
        <time>2019-09-13T12:54:55Z</time>
      </trkpt>
      <trkpt lat="45.34295" lon="6.72347">
        <ele>2296.25</ele>
        <time>2019-09-13T12:55:11Z</time>
      </trkpt>
      <trkpt lat="45.34295" lon="6.72337">
        <ele>2293.84</ele>
        <time>2019-09-13T12:55:26Z</time>
      </trkpt>
      <trkpt lat="45.34292" lon="6.72338">
        <ele>2292.4</ele>
        <time>2019-09-13T12:55:38Z</time>
      </trkpt>
      <trkpt lat="45.34292" lon="6.7233">
        <ele>2290</ele>
        <time>2019-09-13T12:55:52Z</time>
      </trkpt>
      <trkpt lat="45.34293" lon="6.72316">
        <ele>2287.59</ele>
        <time>2019-09-13T12:56:07Z</time>
      </trkpt>
      <trkpt lat="45.34295" lon="6.72302">
        <ele>2285.19</ele>
        <time>2019-09-13T12:56:23Z</time>
      </trkpt>
      <trkpt lat="45.34299" lon="6.72294">
        <ele>2283.27</ele>
        <time>2019-09-13T12:56:37Z</time>
      </trkpt>
      <trkpt lat="45.34298" lon="6.72282">
        <ele>2280.87</ele>
        <time>2019-09-13T12:56:52Z</time>
      </trkpt>
      <trkpt lat="45.34296" lon="6.72274">
        <ele>2278.94</ele>
        <time>2019-09-13T12:57:06Z</time>
      </trkpt>
      <trkpt lat="45.34296" lon="6.72259">
        <ele>2276.06</ele>
        <time>2019-09-13T12:57:22Z</time>
      </trkpt>
      <trkpt lat="45.34303" lon="6.72251">
        <ele>2273.66</ele>
        <time>2019-09-13T12:57:35Z</time>
      </trkpt>
      <trkpt lat="45.34304" lon="6.72239">
        <ele>2271.25</ele>
        <time>2019-09-13T12:57:48Z</time>
      </trkpt>
      <trkpt lat="45.34309" lon="6.72219">
        <ele>2267.89</ele>
        <time>2019-09-13T12:58:06Z</time>
      </trkpt>
      <trkpt lat="45.3431" lon="6.72203">
        <ele>2265.48</ele>
        <time>2019-09-13T12:58:23Z</time>
      </trkpt>
      <trkpt lat="45.34312" lon="6.72189">
        <ele>2262.12</ele>
        <time>2019-09-13T12:58:37Z</time>
      </trkpt>
      <trkpt lat="45.34313" lon="6.72173">
        <ele>2258.75</ele>
        <time>2019-09-13T12:58:52Z</time>
      </trkpt>
      <trkpt lat="45.34315" lon="6.72159">
        <ele>2256.35</ele>
        <time>2019-09-13T12:59:08Z</time>
      </trkpt>
      <trkpt lat="45.34317" lon="6.72145">
        <ele>2252.99</ele>
        <time>2019-09-13T12:59:22Z</time>
      </trkpt>
      <trkpt lat="45.3432" lon="6.72131">
        <ele>2249.62</ele>
        <time>2019-09-13T12:59:37Z</time>
      </trkpt>
      <trkpt lat="45.34323" lon="6.72117">
        <ele>2246.74</ele>
        <time>2019-09-13T12:59:52Z</time>
      </trkpt>
      <trkpt lat="45.34326" lon="6.72106">
        <ele>2243.37</ele>
        <time>2019-09-13T13:00:07Z</time>
      </trkpt>
      <trkpt lat="45.3433" lon="6.72098">
        <ele>2240.97</ele>
        <time>2019-09-13T13:00:21Z</time>
      </trkpt>
      <trkpt lat="45.34332" lon="6.7209">
        <ele>2239.53</ele>
        <time>2019-09-13T13:00:35Z</time>
      </trkpt>
      <trkpt lat="45.34331" lon="6.72083">
        <ele>2236.64</ele>
        <time>2019-09-13T13:00:50Z</time>
      </trkpt>
      <trkpt lat="45.34326" lon="6.72085">
        <ele>2235.2</ele>
        <time>2019-09-13T13:01:04Z</time>
      </trkpt>
      <trkpt lat="45.34322" lon="6.72085">
        <ele>2233.76</ele>
        <time>2019-09-13T13:01:17Z</time>
      </trkpt>
      <trkpt lat="45.34312" lon="6.7209">
        <ele>2230.4</ele>
        <time>2019-09-13T13:01:34Z</time>
      </trkpt>
      <trkpt lat="45.34307" lon="6.72092">
        <ele>2227.51</ele>
        <time>2019-09-13T13:01:48Z</time>
      </trkpt>
      <trkpt lat="45.34303" lon="6.72094">
        <ele>2226.07</ele>
        <time>2019-09-13T13:02:02Z</time>
      </trkpt>
      <trkpt lat="45.34292" lon="6.72094">
        <ele>2223.67</ele>
        <time>2019-09-13T13:02:14Z</time>
      </trkpt>
      <trkpt lat="45.34281" lon="6.72098">
        <ele>2220.3</ele>
        <time>2019-09-13T13:02:28Z</time>
      </trkpt>
      <trkpt lat="45.34279" lon="6.72085">
        <ele>2217.9</ele>
        <time>2019-09-13T13:02:42Z</time>
      </trkpt>
      <trkpt lat="45.34281" lon="6.72068">
        <ele>2215.01</ele>
        <time>2019-09-13T13:02:58Z</time>
      </trkpt>
      <trkpt lat="45.34288" lon="6.72049">
        <ele>2212.61</ele>
        <time>2019-09-13T13:03:15Z</time>
      </trkpt>
      <trkpt lat="45.34292" lon="6.72042">
        <ele>2211.17</ele>
        <time>2019-09-13T13:03:22Z</time>
      </trkpt>
      <trkpt lat="45.34294" lon="6.72031">
        <ele>2210.21</ele>
        <time>2019-09-13T13:03:32Z</time>
      </trkpt>
      <trkpt lat="45.34296" lon="6.72013">
        <ele>2208.77</ele>
        <time>2019-09-13T13:03:48Z</time>
      </trkpt>
      <trkpt lat="45.34296" lon="6.72011">
        <ele>2207.81</ele>
        <time>2019-09-13T13:04:03Z</time>
      </trkpt>
      <trkpt lat="45.34298" lon="6.72011">
        <ele>2207.81</ele>
        <time>2019-09-13T13:04:21Z</time>
      </trkpt>
      <trkpt lat="45.343" lon="6.72013">
        <ele>2207.32</ele>
        <time>2019-09-13T13:04:44Z</time>
      </trkpt>
      <trkpt lat="45.34299" lon="6.72014">
        <ele>2205.4</ele>
        <time>2019-09-13T13:05:03Z</time>
      </trkpt>
      <trkpt lat="45.34299" lon="6.72014">
        <ele>2208.29</ele>
        <time>2019-09-13T13:05:06Z</time>
      </trkpt>
      <trkpt lat="45.34298" lon="6.72013">
        <ele>2206.84</ele>
        <time>2019-09-13T13:05:15Z</time>
      </trkpt>
      <trkpt lat="45.34298" lon="6.7201">
        <ele>2206.84</ele>
        <time>2019-09-13T13:05:41Z</time>
      </trkpt>
      <trkpt lat="45.34299" lon="6.7201">
        <ele>2206.36</ele>
        <time>2019-09-13T13:06:13Z</time>
      </trkpt>
      <trkpt lat="45.34297" lon="6.72009">
        <ele>2206.36</ele>
        <time>2019-09-13T13:06:31Z</time>
      </trkpt>
      <trkpt lat="45.34295" lon="6.72008">
        <ele>2205.88</ele>
        <time>2019-09-13T13:06:55Z</time>
      </trkpt>
      <trkpt lat="45.34295" lon="6.72009">
        <ele>2205.88</ele>
        <time>2019-09-13T13:07:18Z</time>
      </trkpt>
      <trkpt lat="45.34297" lon="6.72008">
        <ele>2205.88</ele>
        <time>2019-09-13T13:07:35Z</time>
      </trkpt>
      <trkpt lat="45.343" lon="6.7201">
        <ele>2205.4</ele>
        <time>2019-09-13T13:07:59Z</time>
      </trkpt>
      <trkpt lat="45.34301" lon="6.7201">
        <ele>2205.4</ele>
        <time>2019-09-13T13:08:17Z</time>
      </trkpt>
      <trkpt lat="45.34306" lon="6.72002">
        <ele>2203.96</ele>
        <time>2019-09-13T13:08:33Z</time>
      </trkpt>
      <trkpt lat="45.3431" lon="6.71988">
        <ele>2202.52</ele>
        <time>2019-09-13T13:08:49Z</time>
      </trkpt>
      <trkpt lat="45.34317" lon="6.71984">
        <ele>2200.59</ele>
        <time>2019-09-13T13:09:03Z</time>
      </trkpt>
      <trkpt lat="45.34325" lon="6.71979">
        <ele>2198.67</ele>
        <time>2019-09-13T13:09:17Z</time>
      </trkpt>
      <trkpt lat="45.34331" lon="6.71971">
        <ele>2196.75</ele>
        <time>2019-09-13T13:09:32Z</time>
      </trkpt>
      <trkpt lat="45.34337" lon="6.71967">
        <ele>2194.35</ele>
        <time>2019-09-13T13:09:46Z</time>
      </trkpt>
      <trkpt lat="45.34341" lon="6.71961">
        <ele>2192.42</ele>
        <time>2019-09-13T13:09:57Z</time>
      </trkpt>
      <trkpt lat="45.34344" lon="6.71957">
        <ele>2191.46</ele>
        <time>2019-09-13T13:10:03Z</time>
      </trkpt>
      <trkpt lat="45.34354" lon="6.71951">
        <ele>2189.54</ele>
        <time>2019-09-13T13:10:16Z</time>
      </trkpt>
      <trkpt lat="45.34356" lon="6.71937">
        <ele>2186.66</ele>
        <time>2019-09-13T13:10:31Z</time>
      </trkpt>
      <trkpt lat="45.34361" lon="6.71923">
        <ele>2184.25</ele>
        <time>2019-09-13T13:10:46Z</time>
      </trkpt>
      <trkpt lat="45.34367" lon="6.71918">
        <ele>2182.33</ele>
        <time>2019-09-13T13:10:57Z</time>
      </trkpt>
      <trkpt lat="45.34375" lon="6.71907">
        <ele>2179.45</ele>
        <time>2019-09-13T13:11:12Z</time>
      </trkpt>
      <trkpt lat="45.34378" lon="6.71904">
        <ele>2178.48</ele>
        <time>2019-09-13T13:11:17Z</time>
      </trkpt>
      <trkpt lat="45.34389" lon="6.71893">
        <ele>2174.64</ele>
        <time>2019-09-13T13:11:32Z</time>
      </trkpt>
      <trkpt lat="45.34395" lon="6.71877">
        <ele>2172.72</ele>
        <time>2019-09-13T13:11:47Z</time>
      </trkpt>
      <trkpt lat="45.34401" lon="6.71864">
        <ele>2169.35</ele>
        <time>2019-09-13T13:12:00Z</time>
      </trkpt>
      <trkpt lat="45.34406" lon="6.71854">
        <ele>2166.95</ele>
        <time>2019-09-13T13:12:14Z</time>
      </trkpt>
      <trkpt lat="45.34413" lon="6.71841">
        <ele>2164.06</ele>
        <time>2019-09-13T13:12:31Z</time>
      </trkpt>
      <trkpt lat="45.34417" lon="6.71829">
        <ele>2161.18</ele>
        <time>2019-09-13T13:12:45Z</time>
      </trkpt>
      <trkpt lat="45.34421" lon="6.71819">
        <ele>2158.78</ele>
        <time>2019-09-13T13:12:59Z</time>
      </trkpt>
      <trkpt lat="45.34427" lon="6.71808">
        <ele>2155.89</ele>
        <time>2019-09-13T13:13:14Z</time>
      </trkpt>
      <trkpt lat="45.34432" lon="6.71799">
        <ele>2153.49</ele>
        <time>2019-09-13T13:13:28Z</time>
      </trkpt>
      <trkpt lat="45.34436" lon="6.71789">
        <ele>2150.61</ele>
        <time>2019-09-13T13:13:41Z</time>
      </trkpt>
      <trkpt lat="45.3444" lon="6.71777">
        <ele>2148.2</ele>
        <time>2019-09-13T13:13:56Z</time>
      </trkpt>
      <trkpt lat="45.34445" lon="6.71767">
        <ele>2145.8</ele>
        <time>2019-09-13T13:14:08Z</time>
      </trkpt>
      <trkpt lat="45.34449" lon="6.71753">
        <ele>2143.4</ele>
        <time>2019-09-13T13:14:22Z</time>
      </trkpt>
      <trkpt lat="45.3445" lon="6.71745">
        <ele>2140.51</ele>
        <time>2019-09-13T13:14:35Z</time>
      </trkpt>
      <trkpt lat="45.34453" lon="6.71732">
        <ele>2138.11</ele>
        <time>2019-09-13T13:14:51Z</time>
      </trkpt>
      <trkpt lat="45.34456" lon="6.71725">
        <ele>2135.23</ele>
        <time>2019-09-13T13:15:03Z</time>
      </trkpt>
      <trkpt lat="45.34459" lon="6.71719">
        <ele>2133.3</ele>
        <time>2019-09-13T13:15:15Z</time>
      </trkpt>
      <trkpt lat="45.34464" lon="6.71715">
        <ele>2130.42</ele>
        <time>2019-09-13T13:15:29Z</time>
      </trkpt>
      <trkpt lat="45.34474" lon="6.71705">
        <ele>2127.05</ele>
        <time>2019-09-13T13:15:44Z</time>
      </trkpt>
      <trkpt lat="45.34486" lon="6.71703">
        <ele>2124.65</ele>
        <time>2019-09-13T13:16:00Z</time>
      </trkpt>
      <trkpt lat="45.34491" lon="6.71695">
        <ele>2123.21</ele>
        <time>2019-09-13T13:16:13Z</time>
      </trkpt>
      <trkpt lat="45.34491" lon="6.71688">
        <ele>2120.81</ele>
        <time>2019-09-13T13:16:27Z</time>
      </trkpt>
      <trkpt lat="45.34493" lon="6.7168">
        <ele>2118.88</ele>
        <time>2019-09-13T13:16:40Z</time>
      </trkpt>
      <trkpt lat="45.34495" lon="6.71671">
        <ele>2115.52</ele>
        <time>2019-09-13T13:16:53Z</time>
      </trkpt>
      <trkpt lat="45.34501" lon="6.71663">
        <ele>2114.08</ele>
        <time>2019-09-13T13:17:06Z</time>
      </trkpt>
      <trkpt lat="45.34509" lon="6.71654">
        <ele>2111.67</ele>
        <time>2019-09-13T13:17:19Z</time>
      </trkpt>
      <trkpt lat="45.34516" lon="6.71644">
        <ele>2109.27</ele>
        <time>2019-09-13T13:17:33Z</time>
      </trkpt>
      <trkpt lat="45.34524" lon="6.71635">
        <ele>2105.91</ele>
        <time>2019-09-13T13:17:50Z</time>
      </trkpt>
      <trkpt lat="45.34531" lon="6.71626">
        <ele>2103.98</ele>
        <time>2019-09-13T13:18:02Z</time>
      </trkpt>
      <trkpt lat="45.34535" lon="6.71618">
        <ele>2102.54</ele>
        <time>2019-09-13T13:18:11Z</time>
      </trkpt>
      <trkpt lat="45.34537" lon="6.71595">
        <ele>2100.62</ele>
        <time>2019-09-13T13:18:27Z</time>
      </trkpt>
      <trkpt lat="45.34539" lon="6.71579">
        <ele>2097.73</ele>
        <time>2019-09-13T13:18:43Z</time>
      </trkpt>
      <trkpt lat="45.34537" lon="6.7158">
        <ele>2098.21</ele>
        <time>2019-09-13T13:18:46Z</time>
      </trkpt>
      <trkpt lat="45.34527" lon="6.71588">
        <ele>2094.85</ele>
        <time>2019-09-13T13:19:01Z</time>
      </trkpt>
      <trkpt lat="45.34516" lon="6.7159">
        <ele>2091.97</ele>
        <time>2019-09-13T13:19:16Z</time>
      </trkpt>
      <trkpt lat="45.34504" lon="6.71586">
        <ele>2088.6</ele>
        <time>2019-09-13T13:19:31Z</time>
      </trkpt>
      <trkpt lat="45.34499" lon="6.7157">
        <ele>2085.72</ele>
        <time>2019-09-13T13:19:48Z</time>
      </trkpt>
      <trkpt lat="45.34496" lon="6.71557">
        <ele>2082.35</ele>
        <time>2019-09-13T13:20:03Z</time>
      </trkpt>
      <trkpt lat="45.34497" lon="6.7154">
        <ele>2079.47</ele>
        <time>2019-09-13T13:20:19Z</time>
      </trkpt>
      <trkpt lat="45.34497" lon="6.7153">
        <ele>2077.55</ele>
        <time>2019-09-13T13:20:34Z</time>
      </trkpt>
      <trkpt lat="45.34491" lon="6.71531">
        <ele>2075.14</ele>
        <time>2019-09-13T13:20:49Z</time>
      </trkpt>
      <trkpt lat="45.34485" lon="6.71538">
        <ele>2073.22</ele>
        <time>2019-09-13T13:21:01Z</time>
      </trkpt>
      <trkpt lat="45.34476" lon="6.71543">
        <ele>2071.78</ele>
        <time>2019-09-13T13:21:16Z</time>
      </trkpt>
      <trkpt lat="45.34473" lon="6.71542">
        <ele>2071.78</ele>
        <time>2019-09-13T13:21:31Z</time>
      </trkpt>
      <trkpt lat="45.34473" lon="6.71542">
        <ele>2071.3</ele>
        <time>2019-09-13T13:21:51Z</time>
      </trkpt>
      <trkpt lat="45.34474" lon="6.71539">
        <ele>2071.3</ele>
        <time>2019-09-13T13:22:19Z</time>
      </trkpt>
      <trkpt lat="45.3447" lon="6.71538">
        <ele>2071.3</ele>
        <time>2019-09-13T13:22:29Z</time>
      </trkpt>
      <trkpt lat="45.34465" lon="6.71534">
        <ele>2070.82</ele>
        <time>2019-09-13T13:22:45Z</time>
      </trkpt>
      <trkpt lat="45.34467" lon="6.71534">
        <ele>2070.82</ele>
        <time>2019-09-13T13:23:09Z</time>
      </trkpt>
      <trkpt lat="45.34467" lon="6.71534">
        <ele>2070.82</ele>
        <time>2019-09-13T13:23:11Z</time>
      </trkpt>
      <trkpt lat="45.34465" lon="6.71529">
        <ele>2071.78</ele>
        <time>2019-09-13T13:23:17Z</time>
      </trkpt>
      <trkpt lat="45.34463" lon="6.71514">
        <ele>2072.74</ele>
        <time>2019-09-13T13:23:33Z</time>
      </trkpt>
      <trkpt lat="45.34462" lon="6.71509">
        <ele>2073.22</ele>
        <time>2019-09-13T13:23:47Z</time>
      </trkpt>
      <trkpt lat="45.3446" lon="6.71509">
        <ele>2073.22</ele>
        <time>2019-09-13T13:24:13Z</time>
      </trkpt>
      <trkpt lat="45.34464" lon="6.71512">
        <ele>2072.74</ele>
        <time>2019-09-13T13:24:42Z</time>
      </trkpt>
      <trkpt lat="45.34466" lon="6.71507">
        <ele>2073.22</ele>
        <time>2019-09-13T13:24:58Z</time>
      </trkpt>
      <trkpt lat="45.34466" lon="6.71494">
        <ele>2070.34</ele>
        <time>2019-09-13T13:25:13Z</time>
      </trkpt>
      <trkpt lat="45.34466" lon="6.71484">
        <ele>2068.41</ele>
        <time>2019-09-13T13:25:27Z</time>
      </trkpt>
      <trkpt lat="45.34465" lon="6.71473">
        <ele>2066.49</ele>
        <time>2019-09-13T13:25:41Z</time>
      </trkpt>
      <trkpt lat="45.34469" lon="6.7147">
        <ele>2065.53</ele>
        <time>2019-09-13T13:25:53Z</time>
      </trkpt>
      <trkpt lat="45.34471" lon="6.71472">
        <ele>2064.57</ele>
        <time>2019-09-13T13:26:12Z</time>
      </trkpt>
      <trkpt lat="45.34471" lon="6.71458">
        <ele>2062.65</ele>
        <time>2019-09-13T13:26:27Z</time>
      </trkpt>
      <trkpt lat="45.34472" lon="6.71449">
        <ele>2061.2</ele>
        <time>2019-09-13T13:26:39Z</time>
      </trkpt>
      <trkpt lat="45.34473" lon="6.71439">
        <ele>2060.24</ele>
        <time>2019-09-13T13:26:48Z</time>
      </trkpt>
      <trkpt lat="45.34473" lon="6.71432">
        <ele>2059.76</ele>
        <time>2019-09-13T13:26:54Z</time>
      </trkpt>
      <trkpt lat="45.34474" lon="6.71427">
        <ele>2060.24</ele>
        <time>2019-09-13T13:26:58Z</time>
      </trkpt>
      <trkpt lat="45.34479" lon="6.71406">
        <ele>2061.2</ele>
        <time>2019-09-13T13:27:15Z</time>
      </trkpt>
      <trkpt lat="45.34484" lon="6.71394">
        <ele>2062.65</ele>
        <time>2019-09-13T13:27:27Z</time>
      </trkpt>
      <trkpt lat="45.3449" lon="6.7138">
        <ele>2063.13</ele>
        <time>2019-09-13T13:27:41Z</time>
      </trkpt>
      <trkpt lat="45.34492" lon="6.71372">
        <ele>2064.09</ele>
        <time>2019-09-13T13:27:55Z</time>
      </trkpt>
      <trkpt lat="45.34494" lon="6.71358">
        <ele>2065.05</ele>
        <time>2019-09-13T13:28:07Z</time>
      </trkpt>
      <trkpt lat="45.34499" lon="6.71344">
        <ele>2065.05</ele>
        <time>2019-09-13T13:28:19Z</time>
      </trkpt>
      <trkpt lat="45.345" lon="6.71341">
        <ele>2065.05</ele>
        <time>2019-09-13T13:28:21Z</time>
      </trkpt>
      <trkpt lat="45.345" lon="6.71338">
        <ele>2063.61</ele>
        <time>2019-09-13T13:28:23Z</time>
      </trkpt>
      <trkpt lat="45.34502" lon="6.71331">
        <ele>2063.61</ele>
        <time>2019-09-13T13:28:29Z</time>
      </trkpt>
      <trkpt lat="45.34508" lon="6.71311">
        <ele>2063.13</ele>
        <time>2019-09-13T13:28:44Z</time>
      </trkpt>
      <trkpt lat="45.34514" lon="6.71296">
        <ele>2062.17</ele>
        <time>2019-09-13T13:28:57Z</time>
      </trkpt>
      <trkpt lat="45.34515" lon="6.71285">
        <ele>2060.24</ele>
        <time>2019-09-13T13:29:08Z</time>
      </trkpt>
      <trkpt lat="45.34521" lon="6.7127">
        <ele>2058.32</ele>
        <time>2019-09-13T13:29:23Z</time>
      </trkpt>
      <trkpt lat="45.34526" lon="6.71256">
        <ele>2057.36</ele>
        <time>2019-09-13T13:29:34Z</time>
      </trkpt>
      <trkpt lat="45.3453" lon="6.71235">
        <ele>2056.4</ele>
        <time>2019-09-13T13:29:46Z</time>
      </trkpt>
      <trkpt lat="45.34532" lon="6.71227">
        <ele>2055.92</ele>
        <time>2019-09-13T13:29:51Z</time>
      </trkpt>
      <trkpt lat="45.34539" lon="6.71209">
        <ele>2053.51</ele>
        <time>2019-09-13T13:30:07Z</time>
      </trkpt>
      <trkpt lat="45.34541" lon="6.71197">
        <ele>2050.63</ele>
        <time>2019-09-13T13:30:20Z</time>
      </trkpt>
      <trkpt lat="45.34542" lon="6.71189">
        <ele>2049.67</ele>
        <time>2019-09-13T13:30:26Z</time>
      </trkpt>
      <trkpt lat="45.34543" lon="6.7117">
        <ele>2046.78</ele>
        <time>2019-09-13T13:30:42Z</time>
      </trkpt>
      <trkpt lat="45.34543" lon="6.71156">
        <ele>2044.86</ele>
        <time>2019-09-13T13:30:56Z</time>
      </trkpt>
      <trkpt lat="45.34542" lon="6.71138">
        <ele>2041.98</ele>
        <time>2019-09-13T13:31:11Z</time>
      </trkpt>
      <trkpt lat="45.3454" lon="6.71124">
        <ele>2039.57</ele>
        <time>2019-09-13T13:31:25Z</time>
      </trkpt>
      <trkpt lat="45.34539" lon="6.71109">
        <ele>2037.17</ele>
        <time>2019-09-13T13:31:39Z</time>
      </trkpt>
      <trkpt lat="45.34535" lon="6.71096">
        <ele>2034.29</ele>
        <time>2019-09-13T13:31:55Z</time>
      </trkpt>
      <trkpt lat="45.34537" lon="6.7109">
        <ele>2030.92</ele>
        <time>2019-09-13T13:32:10Z</time>
      </trkpt>
      <trkpt lat="45.34549" lon="6.71085">
        <ele>2028.52</ele>
        <time>2019-09-13T13:32:26Z</time>
      </trkpt>
      <trkpt lat="45.34554" lon="6.7108">
        <ele>2026.6</ele>
        <time>2019-09-13T13:32:38Z</time>
      </trkpt>
      <trkpt lat="45.34548" lon="6.7107">
        <ele>2023.23</ele>
        <time>2019-09-13T13:32:50Z</time>
      </trkpt>
      <trkpt lat="45.34546" lon="6.71063">
        <ele>2021.79</ele>
        <time>2019-09-13T13:33:04Z</time>
      </trkpt>
      <trkpt lat="45.34555" lon="6.71059">
        <ele>2018.43</ele>
        <time>2019-09-13T13:33:21Z</time>
      </trkpt>
      <trkpt lat="45.3455" lon="6.7105">
        <ele>2015.54</ele>
        <time>2019-09-13T13:33:36Z</time>
      </trkpt>
      <trkpt lat="45.34545" lon="6.71043">
        <ele>2013.14</ele>
        <time>2019-09-13T13:33:52Z</time>
      </trkpt>
      <trkpt lat="45.34536" lon="6.71043">
        <ele>2009.29</ele>
        <time>2019-09-13T13:34:06Z</time>
      </trkpt>
      <trkpt lat="45.34527" lon="6.71039">
        <ele>2005.93</ele>
        <time>2019-09-13T13:34:21Z</time>
      </trkpt>
      <trkpt lat="45.34516" lon="6.71032">
        <ele>2003.04</ele>
        <time>2019-09-13T13:34:36Z</time>
      </trkpt>
      <trkpt lat="45.34504" lon="6.71022">
        <ele>1999.68</ele>
        <time>2019-09-13T13:34:52Z</time>
      </trkpt>
      <trkpt lat="45.34495" lon="6.71008">
        <ele>1997.28</ele>
        <time>2019-09-13T13:35:09Z</time>
      </trkpt>
      <trkpt lat="45.34495" lon="6.70999">
        <ele>1994.87</ele>
        <time>2019-09-13T13:35:20Z</time>
      </trkpt>
      <trkpt lat="45.34506" lon="6.70996">
        <ele>1991.51</ele>
        <time>2019-09-13T13:35:38Z</time>
      </trkpt>
      <trkpt lat="45.34517" lon="6.70988">
        <ele>1989.1</ele>
        <time>2019-09-13T13:35:52Z</time>
      </trkpt>
      <trkpt lat="45.34528" lon="6.70983">
        <ele>1987.18</ele>
        <time>2019-09-13T13:36:06Z</time>
      </trkpt>
      <trkpt lat="45.34534" lon="6.70983">
        <ele>1985.74</ele>
        <time>2019-09-13T13:36:16Z</time>
      </trkpt>
      <trkpt lat="45.34542" lon="6.70977">
        <ele>1983.82</ele>
        <time>2019-09-13T13:36:28Z</time>
      </trkpt>
      <trkpt lat="45.34541" lon="6.70975">
        <ele>1983.82</ele>
        <time>2019-09-13T13:36:30Z</time>
      </trkpt>
      <trkpt lat="45.34536" lon="6.70956">
        <ele>1979.49</ele>
        <time>2019-09-13T13:36:48Z</time>
      </trkpt>
      <trkpt lat="45.34536" lon="6.70946">
        <ele>1978.05</ele>
        <time>2019-09-13T13:37:00Z</time>
      </trkpt>
      <trkpt lat="45.34527" lon="6.70946">
        <ele>1975.17</ele>
        <time>2019-09-13T13:37:14Z</time>
      </trkpt>
      <trkpt lat="45.34519" lon="6.70937">
        <ele>1972.28</ele>
        <time>2019-09-13T13:37:28Z</time>
      </trkpt>
      <trkpt lat="45.34514" lon="6.70938">
        <ele>1971.32</ele>
        <time>2019-09-13T13:37:35Z</time>
      </trkpt>
      <trkpt lat="45.34506" lon="6.70942">
        <ele>1969.88</ele>
        <time>2019-09-13T13:37:44Z</time>
      </trkpt>
      <trkpt lat="45.34497" lon="6.70943">
        <ele>1967.48</ele>
        <time>2019-09-13T13:37:55Z</time>
      </trkpt>
      <trkpt lat="45.34485" lon="6.7093">
        <ele>1964.59</ele>
        <time>2019-09-13T13:38:12Z</time>
      </trkpt>
      <trkpt lat="45.34476" lon="6.70918">
        <ele>1962.19</ele>
        <time>2019-09-13T13:38:28Z</time>
      </trkpt>
      <trkpt lat="45.34468" lon="6.70901">
        <ele>1959.78</ele>
        <time>2019-09-13T13:38:43Z</time>
      </trkpt>
      <trkpt lat="45.34459" lon="6.70885">
        <ele>1958.34</ele>
        <time>2019-09-13T13:38:58Z</time>
      </trkpt>
      <trkpt lat="45.34453" lon="6.70867">
        <ele>1954.98</ele>
        <time>2019-09-13T13:39:15Z</time>
      </trkpt>
      <trkpt lat="45.34451" lon="6.70841">
        <ele>1954.98</ele>
        <time>2019-09-13T13:39:31Z</time>
      </trkpt>
      <trkpt lat="45.34452" lon="6.70837">
        <ele>1954.5</ele>
        <time>2019-09-13T13:39:34Z</time>
      </trkpt>
      <trkpt lat="45.3445" lon="6.70826">
        <ele>1953.06</ele>
        <time>2019-09-13T13:39:49Z</time>
      </trkpt>
      <trkpt lat="45.34449" lon="6.70822">
        <ele>1952.09</ele>
        <time>2019-09-13T13:39:55Z</time>
      </trkpt>
      <trkpt lat="45.34448" lon="6.7081">
        <ele>1950.65</ele>
        <time>2019-09-13T13:40:03Z</time>
      </trkpt>
      <trkpt lat="45.34444" lon="6.70799">
        <ele>1949.21</ele>
        <time>2019-09-13T13:40:14Z</time>
      </trkpt>
      <trkpt lat="45.34446" lon="6.7077">
        <ele>1946.81</ele>
        <time>2019-09-13T13:40:32Z</time>
      </trkpt>
      <trkpt lat="45.3445" lon="6.70758">
        <ele>1945.36</ele>
        <time>2019-09-13T13:40:40Z</time>
      </trkpt>
      <trkpt lat="45.34457" lon="6.7073">
        <ele>1942.48</ele>
        <time>2019-09-13T13:41:00Z</time>
      </trkpt>
      <trkpt lat="45.3446" lon="6.70716">
        <ele>1940.56</ele>
        <time>2019-09-13T13:41:12Z</time>
      </trkpt>
      <trkpt lat="45.34458" lon="6.70704">
        <ele>1939.12</ele>
        <time>2019-09-13T13:41:27Z</time>
      </trkpt>
      <trkpt lat="45.34459" lon="6.70703">
        <ele>1939.12</ele>
        <time>2019-09-13T13:41:56Z</time>
      </trkpt>
      <trkpt lat="45.34457" lon="6.70694">
        <ele>1938.16</ele>
        <time>2019-09-13T13:42:20Z</time>
      </trkpt>
      <trkpt lat="45.34462" lon="6.70693">
        <ele>1936.71</ele>
        <time>2019-09-13T13:42:34Z</time>
      </trkpt>
      <trkpt lat="45.34465" lon="6.70688">
        <ele>1934.79</ele>
        <time>2019-09-13T13:42:48Z</time>
      </trkpt>
      <trkpt lat="45.34472" lon="6.70683">
        <ele>1932.39</ele>
        <time>2019-09-13T13:43:02Z</time>
      </trkpt>
      <trkpt lat="45.34477" lon="6.70687">
        <ele>1930.95</ele>
        <time>2019-09-13T13:43:16Z</time>
      </trkpt>
      <trkpt lat="45.34482" lon="6.70685">
        <ele>1928.54</ele>
        <time>2019-09-13T13:43:28Z</time>
      </trkpt>
      <trkpt lat="45.3449" lon="6.70691">
        <ele>1924.22</ele>
        <time>2019-09-13T13:43:42Z</time>
      </trkpt>
      <trkpt lat="45.3449" lon="6.70692">
        <ele>1929.02</ele>
        <time>2019-09-13T13:43:43Z</time>
      </trkpt>
      <trkpt lat="45.34494" lon="6.70697">
        <ele>1926.14</ele>
        <time>2019-09-13T13:43:50Z</time>
      </trkpt>
      <trkpt lat="45.34501" lon="6.70702">
        <ele>1921.81</ele>
        <time>2019-09-13T13:44:03Z</time>
      </trkpt>
      <trkpt lat="45.34501" lon="6.70703">
        <ele>1926.14</ele>
        <time>2019-09-13T13:44:04Z</time>
      </trkpt>
      <trkpt lat="45.34505" lon="6.70705">
        <ele>1923.25</ele>
        <time>2019-09-13T13:44:09Z</time>
      </trkpt>
      <trkpt lat="45.34511" lon="6.70704">
        <ele>1921.33</ele>
        <time>2019-09-13T13:44:21Z</time>
      </trkpt>
      <trkpt lat="45.34513" lon="6.70697">
        <ele>1918.93</ele>
        <time>2019-09-13T13:44:33Z</time>
      </trkpt>
      <trkpt lat="45.34513" lon="6.70691">
        <ele>1918.45</ele>
        <time>2019-09-13T13:44:39Z</time>
      </trkpt>
      <trkpt lat="45.34513" lon="6.70682">
        <ele>1916.04</ele>
        <time>2019-09-13T13:44:46Z</time>
      </trkpt>
      <trkpt lat="45.34511" lon="6.70673">
        <ele>1914.12</ele>
        <time>2019-09-13T13:45:01Z</time>
      </trkpt>
      <trkpt lat="45.34511" lon="6.70665">
        <ele>1911.72</ele>
        <time>2019-09-13T13:45:12Z</time>
      </trkpt>
      <trkpt lat="45.34507" lon="6.70653">
        <ele>1909.32</ele>
        <time>2019-09-13T13:45:28Z</time>
      </trkpt>
      <trkpt lat="45.34505" lon="6.70642">
        <ele>1905.95</ele>
        <time>2019-09-13T13:45:44Z</time>
      </trkpt>
      <trkpt lat="45.34502" lon="6.70627">
        <ele>1903.55</ele>
        <time>2019-09-13T13:46:00Z</time>
      </trkpt>
      <trkpt lat="45.34497" lon="6.70609">
        <ele>1901.14</ele>
        <time>2019-09-13T13:46:14Z</time>
      </trkpt>
      <trkpt lat="45.34487" lon="6.70596">
        <ele>1898.26</ele>
        <time>2019-09-13T13:46:29Z</time>
      </trkpt>
      <trkpt lat="45.34483" lon="6.70575">
        <ele>1896.34</ele>
        <time>2019-09-13T13:46:48Z</time>
      </trkpt>
      <trkpt lat="45.34482" lon="6.70562">
        <ele>1894.42</ele>
        <time>2019-09-13T13:47:01Z</time>
      </trkpt>
      <trkpt lat="45.34483" lon="6.70553">
        <ele>1892.49</ele>
        <time>2019-09-13T13:47:11Z</time>
      </trkpt>
      <trkpt lat="45.34489" lon="6.70549">
        <ele>1891.05</ele>
        <time>2019-09-13T13:47:25Z</time>
      </trkpt>
      <trkpt lat="45.34495" lon="6.70555">
        <ele>1888.65</ele>
        <time>2019-09-13T13:47:39Z</time>
      </trkpt>
      <trkpt lat="45.345" lon="6.70558">
        <ele>1886.24</ele>
        <time>2019-09-13T13:47:52Z</time>
      </trkpt>
      <trkpt lat="45.34505" lon="6.7056">
        <ele>1884.8</ele>
        <time>2019-09-13T13:48:04Z</time>
      </trkpt>
      <trkpt lat="45.34508" lon="6.70552">
        <ele>1881.92</ele>
        <time>2019-09-13T13:48:16Z</time>
      </trkpt>
      <trkpt lat="45.34512" lon="6.70546">
        <ele>1879.51</ele>
        <time>2019-09-13T13:48:31Z</time>
      </trkpt>
      <trkpt lat="45.34518" lon="6.70547">
        <ele>1876.15</ele>
        <time>2019-09-13T13:48:44Z</time>
      </trkpt>
      <trkpt lat="45.3452" lon="6.70543">
        <ele>1874.71</ele>
        <time>2019-09-13T13:48:54Z</time>
      </trkpt>
      <trkpt lat="45.34531" lon="6.70543">
        <ele>1871.82</ele>
        <time>2019-09-13T13:49:07Z</time>
      </trkpt>
      <trkpt lat="45.34541" lon="6.7054">
        <ele>1869.42</ele>
        <time>2019-09-13T13:49:20Z</time>
      </trkpt>
      <trkpt lat="45.34553" lon="6.7054">
        <ele>1867.02</ele>
        <time>2019-09-13T13:49:34Z</time>
      </trkpt>
      <trkpt lat="45.34552" lon="6.70528">
        <ele>1863.65</ele>
        <time>2019-09-13T13:49:47Z</time>
      </trkpt>
      <trkpt lat="45.34558" lon="6.70522">
        <ele>1861.25</ele>
        <time>2019-09-13T13:50:00Z</time>
      </trkpt>
      <trkpt lat="45.3456" lon="6.70522">
        <ele>1861.25</ele>
        <time>2019-09-13T13:50:03Z</time>
      </trkpt>
      <trkpt lat="45.34573" lon="6.70531">
        <ele>1857.89</ele>
        <time>2019-09-13T13:50:21Z</time>
      </trkpt>
      <trkpt lat="45.34576" lon="6.70527">
        <ele>1856.44</ele>
        <time>2019-09-13T13:50:33Z</time>
      </trkpt>
      <trkpt lat="45.34576" lon="6.70513">
        <ele>1854.52</ele>
        <time>2019-09-13T13:50:44Z</time>
      </trkpt>
      <trkpt lat="45.3458" lon="6.7051">
        <ele>1852.6</ele>
        <time>2019-09-13T13:50:59Z</time>
      </trkpt>
      <trkpt lat="45.34585" lon="6.70504">
        <ele>1849.71</ele>
        <time>2019-09-13T13:51:11Z</time>
      </trkpt>
      <trkpt lat="45.34589" lon="6.70496">
        <ele>1847.79</ele>
        <time>2019-09-13T13:51:25Z</time>
      </trkpt>
      <trkpt lat="45.346" lon="6.70506">
        <ele>1844.91</ele>
        <time>2019-09-13T13:51:40Z</time>
      </trkpt>
      <trkpt lat="45.34606" lon="6.70502">
        <ele>1842.5</ele>
        <time>2019-09-13T13:51:53Z</time>
      </trkpt>
      <trkpt lat="45.34609" lon="6.70496">
        <ele>1840.58</ele>
        <time>2019-09-13T13:52:04Z</time>
      </trkpt>
      <trkpt lat="45.34607" lon="6.70483">
        <ele>1837.22</ele>
        <time>2019-09-13T13:52:17Z</time>
      </trkpt>
      <trkpt lat="45.34613" lon="6.70481">
        <ele>1835.29</ele>
        <time>2019-09-13T13:52:31Z</time>
      </trkpt>
      <trkpt lat="45.3462" lon="6.7048">
        <ele>1832.41</ele>
        <time>2019-09-13T13:52:45Z</time>
      </trkpt>
      <trkpt lat="45.3463" lon="6.70482">
        <ele>1829.53</ele>
        <time>2019-09-13T13:52:59Z</time>
      </trkpt>
      <trkpt lat="45.34645" lon="6.70487">
        <ele>1826.64</ele>
        <time>2019-09-13T13:53:15Z</time>
      </trkpt>
      <trkpt lat="45.34653" lon="6.70493">
        <ele>1823.28</ele>
        <time>2019-09-13T13:53:27Z</time>
      </trkpt>
      <trkpt lat="45.34658" lon="6.70502">
        <ele>1819.91</ele>
        <time>2019-09-13T13:53:43Z</time>
      </trkpt>
      <trkpt lat="45.34665" lon="6.70507">
        <ele>1817.99</ele>
        <time>2019-09-13T13:53:57Z</time>
      </trkpt>
      <trkpt lat="45.34672" lon="6.705">
        <ele>1815.59</ele>
        <time>2019-09-13T13:54:08Z</time>
      </trkpt>
      <trkpt lat="45.34679" lon="6.7049">
        <ele>1812.7</ele>
        <time>2019-09-13T13:54:21Z</time>
      </trkpt>
      <trkpt lat="45.34682" lon="6.70473">
        <ele>1809.34</ele>
        <time>2019-09-13T13:54:36Z</time>
      </trkpt>
      <trkpt lat="45.34682" lon="6.7046">
        <ele>1807.42</ele>
        <time>2019-09-13T13:54:49Z</time>
      </trkpt>
      <trkpt lat="45.34681" lon="6.70446">
        <ele>1804.05</ele>
        <time>2019-09-13T13:55:04Z</time>
      </trkpt>
      <trkpt lat="45.34681" lon="6.70435">
        <ele>1801.17</ele>
        <time>2019-09-13T13:55:17Z</time>
      </trkpt>
      <trkpt lat="45.34684" lon="6.70428">
        <ele>1798.28</ele>
        <time>2019-09-13T13:55:31Z</time>
      </trkpt>
      <trkpt lat="45.34681" lon="6.70418">
        <ele>1796.36</ele>
        <time>2019-09-13T13:55:45Z</time>
      </trkpt>
      <trkpt lat="45.34684" lon="6.70414">
        <ele>1793.96</ele>
        <time>2019-09-13T13:55:56Z</time>
      </trkpt>
      <trkpt lat="45.34688" lon="6.70413">
        <ele>1791.07</ele>
        <time>2019-09-13T13:56:08Z</time>
      </trkpt>
      <trkpt lat="45.34687" lon="6.70401">
        <ele>1787.71</ele>
        <time>2019-09-13T13:56:21Z</time>
      </trkpt>
      <trkpt lat="45.34685" lon="6.70391">
        <ele>1784.82</ele>
        <time>2019-09-13T13:56:33Z</time>
      </trkpt>
      <trkpt lat="45.3468" lon="6.7038">
        <ele>1782.9</ele>
        <time>2019-09-13T13:56:45Z</time>
      </trkpt>
      <trkpt lat="45.34675" lon="6.70359">
        <ele>1780.5</ele>
        <time>2019-09-13T13:57:02Z</time>
      </trkpt>
      <trkpt lat="45.34671" lon="6.70348">
        <ele>1778.1</ele>
        <time>2019-09-13T13:57:15Z</time>
      </trkpt>
      <trkpt lat="45.34665" lon="6.70331">
        <ele>1775.21</ele>
        <time>2019-09-13T13:57:29Z</time>
      </trkpt>
      <trkpt lat="45.3466" lon="6.70317">
        <ele>1772.33</ele>
        <time>2019-09-13T13:57:44Z</time>
      </trkpt>
      <trkpt lat="45.34655" lon="6.70304">
        <ele>1769.92</ele>
        <time>2019-09-13T13:57:57Z</time>
      </trkpt>
      <trkpt lat="45.34653" lon="6.70294">
        <ele>1768</ele>
        <time>2019-09-13T13:58:11Z</time>
      </trkpt>
      <trkpt lat="45.34655" lon="6.70286">
        <ele>1765.12</ele>
        <time>2019-09-13T13:58:26Z</time>
      </trkpt>
      <trkpt lat="45.34653" lon="6.70269">
        <ele>1762.23</ele>
        <time>2019-09-13T13:58:41Z</time>
      </trkpt>
      <trkpt lat="45.3465" lon="6.70257">
        <ele>1759.35</ele>
        <time>2019-09-13T13:58:54Z</time>
      </trkpt>
      <trkpt lat="45.34648" lon="6.7024">
        <ele>1755.99</ele>
        <time>2019-09-13T13:59:08Z</time>
      </trkpt>
      <trkpt lat="45.34646" lon="6.70222">
        <ele>1752.62</ele>
        <time>2019-09-13T13:59:24Z</time>
      </trkpt>
      <trkpt lat="45.34645" lon="6.7022">
        <ele>1752.62</ele>
        <time>2019-09-13T13:59:25Z</time>
      </trkpt>
      <trkpt lat="45.34636" lon="6.70199">
        <ele>1750.7</ele>
        <time>2019-09-13T13:59:42Z</time>
      </trkpt>
      <trkpt lat="45.34621" lon="6.70183">
        <ele>1748.29</ele>
        <time>2019-09-13T14:00:01Z</time>
      </trkpt>
      <trkpt lat="45.34604" lon="6.70164">
        <ele>1746.37</ele>
        <time>2019-09-13T14:00:21Z</time>
      </trkpt>
      <trkpt lat="45.34589" lon="6.70153">
        <ele>1745.41</ele>
        <time>2019-09-13T14:00:36Z</time>
      </trkpt>
      <trkpt lat="45.34576" lon="6.70142">
        <ele>1743.97</ele>
        <time>2019-09-13T14:00:52Z</time>
      </trkpt>
      <trkpt lat="45.34567" lon="6.70129">
        <ele>1743.49</ele>
        <time>2019-09-13T14:01:07Z</time>
      </trkpt>
      <trkpt lat="45.34556" lon="6.70117">
        <ele>1741.08</ele>
        <time>2019-09-13T14:01:22Z</time>
      </trkpt>
      <trkpt lat="45.34542" lon="6.70109">
        <ele>1738.68</ele>
        <time>2019-09-13T14:01:38Z</time>
      </trkpt>
      <trkpt lat="45.3454" lon="6.70107">
        <ele>1737.72</ele>
        <time>2019-09-13T14:01:41Z</time>
      </trkpt>
      <trkpt lat="45.3453" lon="6.70099">
        <ele>1736.28</ele>
        <time>2019-09-13T14:01:56Z</time>
      </trkpt>
      <trkpt lat="45.34534" lon="6.7009">
        <ele>1733.39</ele>
        <time>2019-09-13T14:02:11Z</time>
      </trkpt>
      <trkpt lat="45.34541" lon="6.70087">
        <ele>1731.95</ele>
        <time>2019-09-13T14:02:18Z</time>
      </trkpt>
      <trkpt lat="45.34562" lon="6.7009">
        <ele>1729.55</ele>
        <time>2019-09-13T14:02:36Z</time>
      </trkpt>
      <trkpt lat="45.34583" lon="6.70103">
        <ele>1729.07</ele>
        <time>2019-09-13T14:02:54Z</time>
      </trkpt>
      <trkpt lat="45.34598" lon="6.70113">
        <ele>1728.11</ele>
        <time>2019-09-13T14:03:07Z</time>
      </trkpt>
      <trkpt lat="45.34601" lon="6.70114">
        <ele>1728.11</ele>
        <time>2019-09-13T14:03:10Z</time>
      </trkpt>
      <trkpt lat="45.3461" lon="6.70111">
        <ele>1727.15</ele>
        <time>2019-09-13T14:03:19Z</time>
      </trkpt>
      <trkpt lat="45.34628" lon="6.70122">
        <ele>1726.18</ele>
        <time>2019-09-13T14:03:34Z</time>
      </trkpt>
      <trkpt lat="45.34645" lon="6.7014">
        <ele>1725.7</ele>
        <time>2019-09-13T14:03:51Z</time>
      </trkpt>
      <trkpt lat="45.34664" lon="6.70158">
        <ele>1723.78</ele>
        <time>2019-09-13T14:04:08Z</time>
      </trkpt>
      <trkpt lat="45.34677" lon="6.70171">
        <ele>1723.78</ele>
        <time>2019-09-13T14:04:21Z</time>
      </trkpt>
      <trkpt lat="45.34693" lon="6.70162">
        <ele>1723.3</ele>
        <time>2019-09-13T14:04:37Z</time>
      </trkpt>
      <trkpt lat="45.34704" lon="6.7015">
        <ele>1723.3</ele>
        <time>2019-09-13T14:04:49Z</time>
      </trkpt>
    </trkseg>
  </trk>
</gpx>